<?xml version="1.0" encoding="UTF-8" standalone="no" ?>
<gpx xmlns="http://www.topografix.com/GPX/1/1" xmlns:xsi="http://www.w3.org/2001/XMLSchema-instance" xsi:schemaLocation="http://www.topografix.com/GPX/1/1 http://www.topografix.com/GPX/1/1/gpx.xsd" version="1.1" creator="VisuGPX - https://www.visugpx.com">
  <metadata>
    <name>Tour de VTT prés de St Aupre (partie du circuit n°6)</name>
    <desc><![CDATA[Tour de VTT prés de St Aupre (partie du circuit n°6)]]></desc>
  </metadata>
  <trk>
    <name><![CDATA[2018-06-24-01_2011-07-23 St Aupre en VTT]]></name>
    <trkseg>
      <trkpt lat="45.42942" lon="5.7012">
        <ele>699.4</ele>
        <time>2018-06-24T07:00:05Z</time>
      </trkpt>
      <trkpt lat="45.42943" lon="5.7012">
        <ele>699.3</ele>
        <time>2018-06-24T07:00:06Z</time>
      </trkpt>
      <trkpt lat="45.42946" lon="5.70133">
        <ele>699.5</ele>
        <time>2018-06-24T07:01:23Z</time>
      </trkpt>
      <trkpt lat="45.42954" lon="5.70141">
        <ele>699.6</ele>
        <time>2018-06-24T07:01:35Z</time>
      </trkpt>
      <trkpt lat="45.42964" lon="5.7014">
        <ele>699.5</ele>
        <time>2018-06-24T07:01:40Z</time>
      </trkpt>
      <trkpt lat="45.42972" lon="5.70137">
        <ele>700.1</ele>
        <time>2018-06-24T07:01:46Z</time>
      </trkpt>
      <trkpt lat="45.42982" lon="5.70134">
        <ele>701.1</ele>
        <time>2018-06-24T07:01:51Z</time>
      </trkpt>
      <trkpt lat="45.42991" lon="5.70128">
        <ele>702.4</ele>
        <time>2018-06-24T07:01:57Z</time>
      </trkpt>
      <trkpt lat="45.43001" lon="5.70123">
        <ele>703.4</ele>
        <time>2018-06-24T07:02:03Z</time>
      </trkpt>
      <trkpt lat="45.4301" lon="5.70121">
        <ele>705.1</ele>
        <time>2018-06-24T07:02:09Z</time>
      </trkpt>
      <trkpt lat="45.4302" lon="5.70123">
        <ele>706.5</ele>
        <time>2018-06-24T07:02:15Z</time>
      </trkpt>
      <trkpt lat="45.4303" lon="5.70124">
        <ele>707.9</ele>
        <time>2018-06-24T07:02:21Z</time>
      </trkpt>
      <trkpt lat="45.43041" lon="5.70124">
        <ele>709.2</ele>
        <time>2018-06-24T07:02:27Z</time>
      </trkpt>
      <trkpt lat="45.4305" lon="5.70125">
        <ele>709.8</ele>
        <time>2018-06-24T07:02:31Z</time>
      </trkpt>
      <trkpt lat="45.4306" lon="5.70124">
        <ele>710.3</ele>
        <time>2018-06-24T07:02:35Z</time>
      </trkpt>
      <trkpt lat="45.43071" lon="5.70121">
        <ele>710.5</ele>
        <time>2018-06-24T07:02:39Z</time>
      </trkpt>
      <trkpt lat="45.43082" lon="5.70117">
        <ele>710.6</ele>
        <time>2018-06-24T07:02:43Z</time>
      </trkpt>
      <trkpt lat="45.43092" lon="5.70112">
        <ele>710.6</ele>
        <time>2018-06-24T07:02:47Z</time>
      </trkpt>
      <trkpt lat="45.43101" lon="5.70105">
        <ele>710.9</ele>
        <time>2018-06-24T07:02:51Z</time>
      </trkpt>
      <trkpt lat="45.4311" lon="5.70098">
        <ele>711.5</ele>
        <time>2018-06-24T07:02:57Z</time>
      </trkpt>
      <trkpt lat="45.43119" lon="5.70089">
        <ele>712.8</ele>
        <time>2018-06-24T07:03:03Z</time>
      </trkpt>
      <trkpt lat="45.4313" lon="5.70083">
        <ele>714.2</ele>
        <time>2018-06-24T07:03:13Z</time>
      </trkpt>
      <trkpt lat="45.43139" lon="5.70083">
        <ele>714.9</ele>
        <time>2018-06-24T07:03:17Z</time>
      </trkpt>
      <trkpt lat="45.43149" lon="5.70082">
        <ele>715.6</ele>
        <time>2018-06-24T07:03:21Z</time>
      </trkpt>
      <trkpt lat="45.4316" lon="5.70082">
        <ele>716.6</ele>
        <time>2018-06-24T07:03:25Z</time>
      </trkpt>
      <trkpt lat="45.43169" lon="5.7008">
        <ele>717.3</ele>
        <time>2018-06-24T07:03:29Z</time>
      </trkpt>
      <trkpt lat="45.43179" lon="5.70083">
        <ele>718</ele>
        <time>2018-06-24T07:03:33Z</time>
      </trkpt>
      <trkpt lat="45.43188" lon="5.70087">
        <ele>718.5</ele>
        <time>2018-06-24T07:03:37Z</time>
      </trkpt>
      <trkpt lat="45.43197" lon="5.70093">
        <ele>718.7</ele>
        <time>2018-06-24T07:03:41Z</time>
      </trkpt>
      <trkpt lat="45.43206" lon="5.701">
        <ele>719</ele>
        <time>2018-06-24T07:03:45Z</time>
      </trkpt>
      <trkpt lat="45.43215" lon="5.70102">
        <ele>719.2</ele>
        <time>2018-06-24T07:03:49Z</time>
      </trkpt>
      <trkpt lat="45.43225" lon="5.70104">
        <ele>719.5</ele>
        <time>2018-06-24T07:03:55Z</time>
      </trkpt>
      <trkpt lat="45.43236" lon="5.70106">
        <ele>719.7</ele>
        <time>2018-06-24T07:04:00Z</time>
      </trkpt>
      <trkpt lat="45.43246" lon="5.70106">
        <ele>720.3</ele>
        <time>2018-06-24T07:04:04Z</time>
      </trkpt>
      <trkpt lat="45.43257" lon="5.70103">
        <ele>720.9</ele>
        <time>2018-06-24T07:04:09Z</time>
      </trkpt>
      <trkpt lat="45.43264" lon="5.70096">
        <ele>721.4</ele>
        <time>2018-06-24T07:04:13Z</time>
      </trkpt>
      <trkpt lat="45.4327" lon="5.70084">
        <ele>722</ele>
        <time>2018-06-24T07:04:19Z</time>
      </trkpt>
      <trkpt lat="45.43273" lon="5.70071">
        <ele>723</ele>
        <time>2018-06-24T07:04:25Z</time>
      </trkpt>
      <trkpt lat="45.43276" lon="5.70057">
        <ele>723.9</ele>
        <time>2018-06-24T07:04:29Z</time>
      </trkpt>
      <trkpt lat="45.43277" lon="5.70043">
        <ele>724.7</ele>
        <time>2018-06-24T07:04:33Z</time>
      </trkpt>
      <trkpt lat="45.43275" lon="5.70031">
        <ele>726</ele>
        <time>2018-06-24T07:04:40Z</time>
      </trkpt>
      <trkpt lat="45.43272" lon="5.70017">
        <ele>726.8</ele>
        <time>2018-06-24T07:04:47Z</time>
      </trkpt>
      <trkpt lat="45.43272" lon="5.70004">
        <ele>727.2</ele>
        <time>2018-06-24T07:04:52Z</time>
      </trkpt>
      <trkpt lat="45.43273" lon="5.69989">
        <ele>728.5</ele>
        <time>2018-06-24T07:04:57Z</time>
      </trkpt>
      <trkpt lat="45.43276" lon="5.69976">
        <ele>729.7</ele>
        <time>2018-06-24T07:05:02Z</time>
      </trkpt>
      <trkpt lat="45.43276" lon="5.69962">
        <ele>731.3</ele>
        <time>2018-06-24T07:05:10Z</time>
      </trkpt>
      <trkpt lat="45.43279" lon="5.69949">
        <ele>732.7</ele>
        <time>2018-06-24T07:05:17Z</time>
      </trkpt>
      <trkpt lat="45.4328" lon="5.69935">
        <ele>734.1</ele>
        <time>2018-06-24T07:05:26Z</time>
      </trkpt>
      <trkpt lat="45.43282" lon="5.69922">
        <ele>735.4</ele>
        <time>2018-06-24T07:05:32Z</time>
      </trkpt>
      <trkpt lat="45.43284" lon="5.69907">
        <ele>736.9</ele>
        <time>2018-06-24T07:05:39Z</time>
      </trkpt>
      <trkpt lat="45.43284" lon="5.69894">
        <ele>738.4</ele>
        <time>2018-06-24T07:05:46Z</time>
      </trkpt>
      <trkpt lat="45.43282" lon="5.69881">
        <ele>740.8</ele>
        <time>2018-06-24T07:05:54Z</time>
      </trkpt>
      <trkpt lat="45.43285" lon="5.69868">
        <ele>743.4</ele>
        <time>2018-06-24T07:06:02Z</time>
      </trkpt>
      <trkpt lat="45.43289" lon="5.69857">
        <ele>746.4</ele>
        <time>2018-06-24T07:06:20Z</time>
      </trkpt>
      <trkpt lat="45.43287" lon="5.69844">
        <ele>747.5</ele>
        <time>2018-06-24T07:06:34Z</time>
      </trkpt>
      <trkpt lat="45.43285" lon="5.69831">
        <ele>750.5</ele>
        <time>2018-06-24T07:06:59Z</time>
      </trkpt>
      <trkpt lat="45.43288" lon="5.69819">
        <ele>751.2</ele>
        <time>2018-06-24T07:07:06Z</time>
      </trkpt>
      <trkpt lat="45.4328" lon="5.69826">
        <ele>750.6</ele>
        <time>2018-06-24T07:08:13Z</time>
      </trkpt>
      <trkpt lat="45.4329" lon="5.69824">
        <ele>750.8</ele>
        <time>2018-06-24T07:08:31Z</time>
      </trkpt>
      <trkpt lat="45.43281" lon="5.69816">
        <ele>750.1</ele>
        <time>2018-06-24T07:09:24Z</time>
      </trkpt>
      <trkpt lat="45.43275" lon="5.69806">
        <ele>750.6</ele>
        <time>2018-06-24T07:09:30Z</time>
      </trkpt>
      <trkpt lat="45.43269" lon="5.69794">
        <ele>751.1</ele>
        <time>2018-06-24T07:09:36Z</time>
      </trkpt>
      <trkpt lat="45.43268" lon="5.69781">
        <ele>751.5</ele>
        <time>2018-06-24T07:09:41Z</time>
      </trkpt>
      <trkpt lat="45.43264" lon="5.69769">
        <ele>752.4</ele>
        <time>2018-06-24T07:09:47Z</time>
      </trkpt>
      <trkpt lat="45.43258" lon="5.69757">
        <ele>752.8</ele>
        <time>2018-06-24T07:09:53Z</time>
      </trkpt>
      <trkpt lat="45.43253" lon="5.69745">
        <ele>753.3</ele>
        <time>2018-06-24T07:09:58Z</time>
      </trkpt>
      <trkpt lat="45.43247" lon="5.69733">
        <ele>755.5</ele>
        <time>2018-06-24T07:10:05Z</time>
      </trkpt>
      <trkpt lat="45.43243" lon="5.69721">
        <ele>757.2</ele>
        <time>2018-06-24T07:10:12Z</time>
      </trkpt>
      <trkpt lat="45.43235" lon="5.69714">
        <ele>759.6</ele>
        <time>2018-06-24T07:10:20Z</time>
      </trkpt>
      <trkpt lat="45.43226" lon="5.69711">
        <ele>762.2</ele>
        <time>2018-06-24T07:10:49Z</time>
      </trkpt>
      <trkpt lat="45.43217" lon="5.69709">
        <ele>761.2</ele>
        <time>2018-06-24T07:11:10Z</time>
      </trkpt>
      <trkpt lat="45.43206" lon="5.69704">
        <ele>761.1</ele>
        <time>2018-06-24T07:11:17Z</time>
      </trkpt>
      <trkpt lat="45.43195" lon="5.697">
        <ele>761</ele>
        <time>2018-06-24T07:11:21Z</time>
      </trkpt>
      <trkpt lat="45.43184" lon="5.69696">
        <ele>760.9</ele>
        <time>2018-06-24T07:11:25Z</time>
      </trkpt>
      <trkpt lat="45.43174" lon="5.69692">
        <ele>760.9</ele>
        <time>2018-06-24T07:11:29Z</time>
      </trkpt>
      <trkpt lat="45.43166" lon="5.69684">
        <ele>761.2</ele>
        <time>2018-06-24T07:11:34Z</time>
      </trkpt>
      <trkpt lat="45.43159" lon="5.69675">
        <ele>761.5</ele>
        <time>2018-06-24T07:11:38Z</time>
      </trkpt>
      <trkpt lat="45.43152" lon="5.69665">
        <ele>761.6</ele>
        <time>2018-06-24T07:11:44Z</time>
      </trkpt>
      <trkpt lat="45.43149" lon="5.69651">
        <ele>761.6</ele>
        <time>2018-06-24T07:11:47Z</time>
      </trkpt>
      <trkpt lat="45.43143" lon="5.69641">
        <ele>761.9</ele>
        <time>2018-06-24T07:11:52Z</time>
      </trkpt>
      <trkpt lat="45.43133" lon="5.69634">
        <ele>762.6</ele>
        <time>2018-06-24T07:11:57Z</time>
      </trkpt>
      <trkpt lat="45.43126" lon="5.69622">
        <ele>763.6</ele>
        <time>2018-06-24T07:12:02Z</time>
      </trkpt>
      <trkpt lat="45.43119" lon="5.69613">
        <ele>764.1</ele>
        <time>2018-06-24T07:12:06Z</time>
      </trkpt>
      <trkpt lat="45.43113" lon="5.69601">
        <ele>765.1</ele>
        <time>2018-06-24T07:12:12Z</time>
      </trkpt>
      <trkpt lat="45.43105" lon="5.69592">
        <ele>766.8</ele>
        <time>2018-06-24T07:12:18Z</time>
      </trkpt>
      <trkpt lat="45.431" lon="5.69579">
        <ele>767.7</ele>
        <time>2018-06-24T07:12:23Z</time>
      </trkpt>
      <trkpt lat="45.43092" lon="5.6957">
        <ele>768.9</ele>
        <time>2018-06-24T07:12:29Z</time>
      </trkpt>
      <trkpt lat="45.43087" lon="5.69558">
        <ele>770.3</ele>
        <time>2018-06-24T07:12:38Z</time>
      </trkpt>
      <trkpt lat="45.43084" lon="5.69545">
        <ele>771</ele>
        <time>2018-06-24T07:12:43Z</time>
      </trkpt>
      <trkpt lat="45.43078" lon="5.69535">
        <ele>772</ele>
        <time>2018-06-24T07:12:48Z</time>
      </trkpt>
      <trkpt lat="45.43071" lon="5.69527">
        <ele>772.2</ele>
        <time>2018-06-24T07:12:53Z</time>
      </trkpt>
      <trkpt lat="45.43061" lon="5.69521">
        <ele>772.2</ele>
        <time>2018-06-24T07:12:57Z</time>
      </trkpt>
      <trkpt lat="45.4305" lon="5.69518">
        <ele>771.7</ele>
        <time>2018-06-24T07:13:00Z</time>
      </trkpt>
      <trkpt lat="45.43039" lon="5.69515">
        <ele>771.4</ele>
        <time>2018-06-24T07:13:02Z</time>
      </trkpt>
      <trkpt lat="45.43029" lon="5.69512">
        <ele>771.4</ele>
        <time>2018-06-24T07:13:05Z</time>
      </trkpt>
      <trkpt lat="45.43019" lon="5.69506">
        <ele>772</ele>
        <time>2018-06-24T07:13:10Z</time>
      </trkpt>
      <trkpt lat="45.43014" lon="5.69492">
        <ele>772.1</ele>
        <time>2018-06-24T07:13:16Z</time>
      </trkpt>
      <trkpt lat="45.43009" lon="5.69481">
        <ele>772.6</ele>
        <time>2018-06-24T07:13:20Z</time>
      </trkpt>
      <trkpt lat="45.43004" lon="5.6947">
        <ele>773.8</ele>
        <time>2018-06-24T07:13:24Z</time>
      </trkpt>
      <trkpt lat="45.43" lon="5.69459">
        <ele>775.1</ele>
        <time>2018-06-24T07:13:30Z</time>
      </trkpt>
      <trkpt lat="45.42992" lon="5.69451">
        <ele>775.8</ele>
        <time>2018-06-24T07:13:34Z</time>
      </trkpt>
      <trkpt lat="45.42988" lon="5.69439">
        <ele>776.3</ele>
        <time>2018-06-24T07:13:38Z</time>
      </trkpt>
      <trkpt lat="45.42983" lon="5.69427">
        <ele>777.2</ele>
        <time>2018-06-24T07:13:44Z</time>
      </trkpt>
      <trkpt lat="45.42976" lon="5.69418">
        <ele>777.9</ele>
        <time>2018-06-24T07:13:50Z</time>
      </trkpt>
      <trkpt lat="45.42968" lon="5.69407">
        <ele>778.6</ele>
        <time>2018-06-24T07:13:54Z</time>
      </trkpt>
      <trkpt lat="45.4296" lon="5.69394">
        <ele>779.2</ele>
        <time>2018-06-24T07:13:58Z</time>
      </trkpt>
      <trkpt lat="45.42957" lon="5.69382">
        <ele>779.4</ele>
        <time>2018-06-24T07:14:03Z</time>
      </trkpt>
      <trkpt lat="45.42954" lon="5.69368">
        <ele>779.8</ele>
        <time>2018-06-24T07:14:08Z</time>
      </trkpt>
      <trkpt lat="45.42951" lon="5.69353">
        <ele>780.4</ele>
        <time>2018-06-24T07:14:13Z</time>
      </trkpt>
      <trkpt lat="45.42944" lon="5.69341">
        <ele>781</ele>
        <time>2018-06-24T07:14:19Z</time>
      </trkpt>
      <trkpt lat="45.42939" lon="5.69329">
        <ele>782.1</ele>
        <time>2018-06-24T07:14:25Z</time>
      </trkpt>
      <trkpt lat="45.42936" lon="5.69315">
        <ele>782.8</ele>
        <time>2018-06-24T07:14:30Z</time>
      </trkpt>
      <trkpt lat="45.42936" lon="5.693">
        <ele>783.9</ele>
        <time>2018-06-24T07:14:37Z</time>
      </trkpt>
      <trkpt lat="45.42946" lon="5.69296">
        <ele>785.8</ele>
        <time>2018-06-24T07:14:51Z</time>
      </trkpt>
      <trkpt lat="45.42955" lon="5.69301">
        <ele>786.4</ele>
        <time>2018-06-24T07:14:59Z</time>
      </trkpt>
      <trkpt lat="45.42965" lon="5.69305">
        <ele>786.9</ele>
        <time>2018-06-24T07:15:04Z</time>
      </trkpt>
      <trkpt lat="45.42973" lon="5.69311">
        <ele>787.7</ele>
        <time>2018-06-24T07:15:11Z</time>
      </trkpt>
      <trkpt lat="45.42982" lon="5.69315">
        <ele>788.5</ele>
        <time>2018-06-24T07:15:18Z</time>
      </trkpt>
      <trkpt lat="45.42991" lon="5.69319">
        <ele>788.8</ele>
        <time>2018-06-24T07:15:25Z</time>
      </trkpt>
      <trkpt lat="45.43001" lon="5.69324">
        <ele>790.7</ele>
        <time>2018-06-24T07:15:34Z</time>
      </trkpt>
      <trkpt lat="45.43009" lon="5.69331">
        <ele>791.1</ele>
        <time>2018-06-24T07:15:40Z</time>
      </trkpt>
      <trkpt lat="45.43018" lon="5.69337">
        <ele>791.7</ele>
        <time>2018-06-24T07:15:48Z</time>
      </trkpt>
      <trkpt lat="45.43028" lon="5.69339">
        <ele>792.4</ele>
        <time>2018-06-24T07:15:54Z</time>
      </trkpt>
      <trkpt lat="45.43038" lon="5.69339">
        <ele>792.9</ele>
        <time>2018-06-24T07:16:00Z</time>
      </trkpt>
      <trkpt lat="45.43047" lon="5.69343">
        <ele>793.2</ele>
        <time>2018-06-24T07:16:06Z</time>
      </trkpt>
      <trkpt lat="45.43056" lon="5.69348">
        <ele>793.5</ele>
        <time>2018-06-24T07:16:12Z</time>
      </trkpt>
      <trkpt lat="45.43066" lon="5.69352">
        <ele>794.1</ele>
        <time>2018-06-24T07:16:20Z</time>
      </trkpt>
      <trkpt lat="45.43076" lon="5.69354">
        <ele>795.3</ele>
        <time>2018-06-24T07:16:28Z</time>
      </trkpt>
      <trkpt lat="45.43086" lon="5.69354">
        <ele>795.8</ele>
        <time>2018-06-24T07:16:36Z</time>
      </trkpt>
      <trkpt lat="45.43096" lon="5.6936">
        <ele>796.5</ele>
        <time>2018-06-24T07:16:42Z</time>
      </trkpt>
      <trkpt lat="45.43107" lon="5.69359">
        <ele>797</ele>
        <time>2018-06-24T07:16:47Z</time>
      </trkpt>
      <trkpt lat="45.43117" lon="5.69357">
        <ele>797.6</ele>
        <time>2018-06-24T07:16:52Z</time>
      </trkpt>
      <trkpt lat="45.43128" lon="5.69358">
        <ele>798</ele>
        <time>2018-06-24T07:16:57Z</time>
      </trkpt>
      <trkpt lat="45.43137" lon="5.69357">
        <ele>798.2</ele>
        <time>2018-06-24T07:17:02Z</time>
      </trkpt>
      <trkpt lat="45.43147" lon="5.6936">
        <ele>799.1</ele>
        <time>2018-06-24T07:17:08Z</time>
      </trkpt>
      <trkpt lat="45.43158" lon="5.69364">
        <ele>799.4</ele>
        <time>2018-06-24T07:17:12Z</time>
      </trkpt>
      <trkpt lat="45.43169" lon="5.69362">
        <ele>799.9</ele>
        <time>2018-06-24T07:17:17Z</time>
      </trkpt>
      <trkpt lat="45.43178" lon="5.6936">
        <ele>800</ele>
        <time>2018-06-24T07:17:22Z</time>
      </trkpt>
      <trkpt lat="45.43189" lon="5.69358">
        <ele>800.1</ele>
        <time>2018-06-24T07:17:26Z</time>
      </trkpt>
      <trkpt lat="45.43198" lon="5.6936">
        <ele>800.1</ele>
        <time>2018-06-24T07:17:30Z</time>
      </trkpt>
      <trkpt lat="45.43208" lon="5.69363">
        <ele>800.2</ele>
        <time>2018-06-24T07:17:35Z</time>
      </trkpt>
      <trkpt lat="45.43218" lon="5.69365">
        <ele>800.3</ele>
        <time>2018-06-24T07:17:39Z</time>
      </trkpt>
      <trkpt lat="45.43227" lon="5.69365">
        <ele>800.2</ele>
        <time>2018-06-24T07:17:43Z</time>
      </trkpt>
      <trkpt lat="45.43236" lon="5.69366">
        <ele>800.1</ele>
        <time>2018-06-24T07:17:46Z</time>
      </trkpt>
      <trkpt lat="45.43246" lon="5.69368">
        <ele>799.9</ele>
        <time>2018-06-24T07:17:50Z</time>
      </trkpt>
      <trkpt lat="45.43256" lon="5.69368">
        <ele>800</ele>
        <time>2018-06-24T07:17:54Z</time>
      </trkpt>
      <trkpt lat="45.43266" lon="5.69369">
        <ele>800.3</ele>
        <time>2018-06-24T07:17:57Z</time>
      </trkpt>
      <trkpt lat="45.43276" lon="5.6937">
        <ele>800.7</ele>
        <time>2018-06-24T07:18:00Z</time>
      </trkpt>
      <trkpt lat="45.43287" lon="5.69374">
        <ele>800.9</ele>
        <time>2018-06-24T07:18:04Z</time>
      </trkpt>
      <trkpt lat="45.43295" lon="5.69379">
        <ele>801</ele>
        <time>2018-06-24T07:18:07Z</time>
      </trkpt>
      <trkpt lat="45.43304" lon="5.69384">
        <ele>800.9</ele>
        <time>2018-06-24T07:18:11Z</time>
      </trkpt>
      <trkpt lat="45.43315" lon="5.69382">
        <ele>800.9</ele>
        <time>2018-06-24T07:18:14Z</time>
      </trkpt>
      <trkpt lat="45.43326" lon="5.6938">
        <ele>800.9</ele>
        <time>2018-06-24T07:18:17Z</time>
      </trkpt>
      <trkpt lat="45.43337" lon="5.69378">
        <ele>800.9</ele>
        <time>2018-06-24T07:18:20Z</time>
      </trkpt>
      <trkpt lat="45.43347" lon="5.69372">
        <ele>800.8</ele>
        <time>2018-06-24T07:18:23Z</time>
      </trkpt>
      <trkpt lat="45.43354" lon="5.69363">
        <ele>800.8</ele>
        <time>2018-06-24T07:18:26Z</time>
      </trkpt>
      <trkpt lat="45.4336" lon="5.69352">
        <ele>800.8</ele>
        <time>2018-06-24T07:18:30Z</time>
      </trkpt>
      <trkpt lat="45.43362" lon="5.69337">
        <ele>801.1</ele>
        <time>2018-06-24T07:18:34Z</time>
      </trkpt>
      <trkpt lat="45.43366" lon="5.69322">
        <ele>801.7</ele>
        <time>2018-06-24T07:18:40Z</time>
      </trkpt>
      <trkpt lat="45.43368" lon="5.69308">
        <ele>802.2</ele>
        <time>2018-06-24T07:18:44Z</time>
      </trkpt>
      <trkpt lat="45.43368" lon="5.69294">
        <ele>802.9</ele>
        <time>2018-06-24T07:18:48Z</time>
      </trkpt>
      <trkpt lat="45.43372" lon="5.6928">
        <ele>803.4</ele>
        <time>2018-06-24T07:18:52Z</time>
      </trkpt>
      <trkpt lat="45.43377" lon="5.69269">
        <ele>804</ele>
        <time>2018-06-24T07:18:56Z</time>
      </trkpt>
      <trkpt lat="45.43379" lon="5.69256">
        <ele>804.3</ele>
        <time>2018-06-24T07:18:59Z</time>
      </trkpt>
      <trkpt lat="45.43377" lon="5.69242">
        <ele>804.5</ele>
        <time>2018-06-24T07:19:02Z</time>
      </trkpt>
      <trkpt lat="45.4337" lon="5.6923">
        <ele>804.6</ele>
        <time>2018-06-24T07:19:06Z</time>
      </trkpt>
      <trkpt lat="45.4336" lon="5.69224">
        <ele>804.8</ele>
        <time>2018-06-24T07:19:10Z</time>
      </trkpt>
      <trkpt lat="45.4335" lon="5.6922">
        <ele>805</ele>
        <time>2018-06-24T07:19:14Z</time>
      </trkpt>
      <trkpt lat="45.43339" lon="5.69215">
        <ele>805.2</ele>
        <time>2018-06-24T07:19:18Z</time>
      </trkpt>
      <trkpt lat="45.43329" lon="5.6921">
        <ele>806</ele>
        <time>2018-06-24T07:19:25Z</time>
      </trkpt>
      <trkpt lat="45.43319" lon="5.6921">
        <ele>806.5</ele>
        <time>2018-06-24T07:19:29Z</time>
      </trkpt>
      <trkpt lat="45.43309" lon="5.69208">
        <ele>807.2</ele>
        <time>2018-06-24T07:19:33Z</time>
      </trkpt>
      <trkpt lat="45.43297" lon="5.69202">
        <ele>807.7</ele>
        <time>2018-06-24T07:19:37Z</time>
      </trkpt>
      <trkpt lat="45.43287" lon="5.69198">
        <ele>807.7</ele>
        <time>2018-06-24T07:19:40Z</time>
      </trkpt>
      <trkpt lat="45.43276" lon="5.6919">
        <ele>807.7</ele>
        <time>2018-06-24T07:19:43Z</time>
      </trkpt>
      <trkpt lat="45.43264" lon="5.69186">
        <ele>807.4</ele>
        <time>2018-06-24T07:19:46Z</time>
      </trkpt>
      <trkpt lat="45.43252" lon="5.69184">
        <ele>806.9</ele>
        <time>2018-06-24T07:19:49Z</time>
      </trkpt>
      <trkpt lat="45.43242" lon="5.69183">
        <ele>806.9</ele>
        <time>2018-06-24T07:19:51Z</time>
      </trkpt>
      <trkpt lat="45.43233" lon="5.69176">
        <ele>806.3</ele>
        <time>2018-06-24T07:19:53Z</time>
      </trkpt>
      <trkpt lat="45.43228" lon="5.69163">
        <ele>805.9</ele>
        <time>2018-06-24T07:19:55Z</time>
      </trkpt>
      <trkpt lat="45.43225" lon="5.6915">
        <ele>805.3</ele>
        <time>2018-06-24T07:19:57Z</time>
      </trkpt>
      <trkpt lat="45.43222" lon="5.69137">
        <ele>804.7</ele>
        <time>2018-06-24T07:20:00Z</time>
      </trkpt>
      <trkpt lat="45.43215" lon="5.69123">
        <ele>804.6</ele>
        <time>2018-06-24T07:20:04Z</time>
      </trkpt>
      <trkpt lat="45.43206" lon="5.69114">
        <ele>804.9</ele>
        <time>2018-06-24T07:20:08Z</time>
      </trkpt>
      <trkpt lat="45.432" lon="5.69104">
        <ele>804.9</ele>
        <time>2018-06-24T07:20:11Z</time>
      </trkpt>
      <trkpt lat="45.43195" lon="5.69089">
        <ele>805</ele>
        <time>2018-06-24T07:20:15Z</time>
      </trkpt>
      <trkpt lat="45.4319" lon="5.69076">
        <ele>805.1</ele>
        <time>2018-06-24T07:20:18Z</time>
      </trkpt>
      <trkpt lat="45.43185" lon="5.69062">
        <ele>805</ele>
        <time>2018-06-24T07:20:23Z</time>
      </trkpt>
      <trkpt lat="45.43183" lon="5.69048">
        <ele>805</ele>
        <time>2018-06-24T07:20:27Z</time>
      </trkpt>
      <trkpt lat="45.43182" lon="5.69035">
        <ele>805.2</ele>
        <time>2018-06-24T07:20:30Z</time>
      </trkpt>
      <trkpt lat="45.4318" lon="5.69021">
        <ele>805.2</ele>
        <time>2018-06-24T07:20:33Z</time>
      </trkpt>
      <trkpt lat="45.43172" lon="5.69013">
        <ele>805.2</ele>
        <time>2018-06-24T07:20:37Z</time>
      </trkpt>
      <trkpt lat="45.43167" lon="5.69">
        <ele>805.4</ele>
        <time>2018-06-24T07:20:42Z</time>
      </trkpt>
      <trkpt lat="45.43162" lon="5.68986">
        <ele>805.5</ele>
        <time>2018-06-24T07:20:47Z</time>
      </trkpt>
      <trkpt lat="45.43159" lon="5.68972">
        <ele>805</ele>
        <time>2018-06-24T07:20:50Z</time>
      </trkpt>
      <trkpt lat="45.43164" lon="5.68961">
        <ele>803.9</ele>
        <time>2018-06-24T07:20:56Z</time>
      </trkpt>
      <trkpt lat="45.43173" lon="5.68953">
        <ele>803.3</ele>
        <time>2018-06-24T07:21:00Z</time>
      </trkpt>
      <trkpt lat="45.43179" lon="5.68943">
        <ele>803.3</ele>
        <time>2018-06-24T07:21:05Z</time>
      </trkpt>
      <trkpt lat="45.43183" lon="5.6893">
        <ele>803.4</ele>
        <time>2018-06-24T07:21:10Z</time>
      </trkpt>
      <trkpt lat="45.4319" lon="5.6892">
        <ele>804.6</ele>
        <time>2018-06-24T07:21:16Z</time>
      </trkpt>
      <trkpt lat="45.43196" lon="5.6891">
        <ele>805.1</ele>
        <time>2018-06-24T07:21:21Z</time>
      </trkpt>
      <trkpt lat="45.43204" lon="5.68901">
        <ele>806</ele>
        <time>2018-06-24T07:21:26Z</time>
      </trkpt>
      <trkpt lat="45.43213" lon="5.68892">
        <ele>807.2</ele>
        <time>2018-06-24T07:21:32Z</time>
      </trkpt>
      <trkpt lat="45.4322" lon="5.68881">
        <ele>807.9</ele>
        <time>2018-06-24T07:21:37Z</time>
      </trkpt>
      <trkpt lat="45.43229" lon="5.68878">
        <ele>809.6</ele>
        <time>2018-06-24T07:21:47Z</time>
      </trkpt>
      <trkpt lat="45.43238" lon="5.68885">
        <ele>810.1</ele>
        <time>2018-06-24T07:22:08Z</time>
      </trkpt>
      <trkpt lat="45.43245" lon="5.68894">
        <ele>809.9</ele>
        <time>2018-06-24T07:22:15Z</time>
      </trkpt>
      <trkpt lat="45.43253" lon="5.689">
        <ele>809.7</ele>
        <time>2018-06-24T07:22:21Z</time>
      </trkpt>
      <trkpt lat="45.43261" lon="5.68908">
        <ele>809.7</ele>
        <time>2018-06-24T07:22:26Z</time>
      </trkpt>
      <trkpt lat="45.4327" lon="5.68914">
        <ele>809.8</ele>
        <time>2018-06-24T07:22:31Z</time>
      </trkpt>
      <trkpt lat="45.43278" lon="5.68921">
        <ele>809.8</ele>
        <time>2018-06-24T07:22:35Z</time>
      </trkpt>
      <trkpt lat="45.43287" lon="5.68927">
        <ele>809.8</ele>
        <time>2018-06-24T07:22:39Z</time>
      </trkpt>
      <trkpt lat="45.43296" lon="5.68933">
        <ele>809.7</ele>
        <time>2018-06-24T07:22:42Z</time>
      </trkpt>
      <trkpt lat="45.43307" lon="5.6894">
        <ele>809.4</ele>
        <time>2018-06-24T07:22:45Z</time>
      </trkpt>
      <trkpt lat="45.43317" lon="5.68946">
        <ele>809.2</ele>
        <time>2018-06-24T07:22:48Z</time>
      </trkpt>
      <trkpt lat="45.43328" lon="5.68954">
        <ele>808.9</ele>
        <time>2018-06-24T07:22:51Z</time>
      </trkpt>
      <trkpt lat="45.43339" lon="5.68962">
        <ele>808.7</ele>
        <time>2018-06-24T07:22:54Z</time>
      </trkpt>
      <trkpt lat="45.43349" lon="5.68972">
        <ele>808.8</ele>
        <time>2018-06-24T07:22:57Z</time>
      </trkpt>
      <trkpt lat="45.43361" lon="5.68976">
        <ele>808.8</ele>
        <time>2018-06-24T07:23:00Z</time>
      </trkpt>
      <trkpt lat="45.43373" lon="5.68975">
        <ele>808.6</ele>
        <time>2018-06-24T07:23:03Z</time>
      </trkpt>
      <trkpt lat="45.43383" lon="5.68969">
        <ele>808.3</ele>
        <time>2018-06-24T07:23:06Z</time>
      </trkpt>
      <trkpt lat="45.43393" lon="5.68962">
        <ele>807.9</ele>
        <time>2018-06-24T07:23:09Z</time>
      </trkpt>
      <trkpt lat="45.43403" lon="5.68955">
        <ele>807.8</ele>
        <time>2018-06-24T07:23:12Z</time>
      </trkpt>
      <trkpt lat="45.43412" lon="5.68949">
        <ele>808</ele>
        <time>2018-06-24T07:23:15Z</time>
      </trkpt>
      <trkpt lat="45.43421" lon="5.68942">
        <ele>808.2</ele>
        <time>2018-06-24T07:23:18Z</time>
      </trkpt>
      <trkpt lat="45.4343" lon="5.68935">
        <ele>808.2</ele>
        <time>2018-06-24T07:23:21Z</time>
      </trkpt>
      <trkpt lat="45.43438" lon="5.6893">
        <ele>808.7</ele>
        <time>2018-06-24T07:23:24Z</time>
      </trkpt>
      <trkpt lat="45.43447" lon="5.68923">
        <ele>809.1</ele>
        <time>2018-06-24T07:23:27Z</time>
      </trkpt>
      <trkpt lat="45.43456" lon="5.68918">
        <ele>809.6</ele>
        <time>2018-06-24T07:23:30Z</time>
      </trkpt>
      <trkpt lat="45.43466" lon="5.68913">
        <ele>810</ele>
        <time>2018-06-24T07:23:33Z</time>
      </trkpt>
      <trkpt lat="45.43476" lon="5.6891">
        <ele>810.5</ele>
        <time>2018-06-24T07:23:36Z</time>
      </trkpt>
      <trkpt lat="45.43486" lon="5.68906">
        <ele>810.8</ele>
        <time>2018-06-24T07:23:39Z</time>
      </trkpt>
      <trkpt lat="45.43497" lon="5.68904">
        <ele>811.5</ele>
        <time>2018-06-24T07:23:42Z</time>
      </trkpt>
      <trkpt lat="45.43508" lon="5.68902">
        <ele>812</ele>
        <time>2018-06-24T07:23:45Z</time>
      </trkpt>
      <trkpt lat="45.43519" lon="5.68903">
        <ele>812.6</ele>
        <time>2018-06-24T07:23:48Z</time>
      </trkpt>
      <trkpt lat="45.43528" lon="5.68904">
        <ele>812.9</ele>
        <time>2018-06-24T07:23:51Z</time>
      </trkpt>
      <trkpt lat="45.4354" lon="5.68906">
        <ele>813.3</ele>
        <time>2018-06-24T07:23:55Z</time>
      </trkpt>
      <trkpt lat="45.43552" lon="5.68909">
        <ele>813.9</ele>
        <time>2018-06-24T07:23:59Z</time>
      </trkpt>
      <trkpt lat="45.43564" lon="5.6891">
        <ele>814.5</ele>
        <time>2018-06-24T07:24:02Z</time>
      </trkpt>
      <trkpt lat="45.43575" lon="5.68912">
        <ele>815.1</ele>
        <time>2018-06-24T07:24:05Z</time>
      </trkpt>
      <trkpt lat="45.43587" lon="5.68913">
        <ele>815.5</ele>
        <time>2018-06-24T07:24:08Z</time>
      </trkpt>
      <trkpt lat="45.43596" lon="5.68913">
        <ele>815.7</ele>
        <time>2018-06-24T07:24:10Z</time>
      </trkpt>
      <trkpt lat="45.43608" lon="5.68914">
        <ele>815.9</ele>
        <time>2018-06-24T07:24:13Z</time>
      </trkpt>
      <trkpt lat="45.43618" lon="5.68913">
        <ele>816.1</ele>
        <time>2018-06-24T07:24:16Z</time>
      </trkpt>
      <trkpt lat="45.43629" lon="5.68913">
        <ele>816.4</ele>
        <time>2018-06-24T07:24:19Z</time>
      </trkpt>
      <trkpt lat="45.4364" lon="5.68914">
        <ele>816.8</ele>
        <time>2018-06-24T07:24:22Z</time>
      </trkpt>
      <trkpt lat="45.4365" lon="5.68913">
        <ele>817.3</ele>
        <time>2018-06-24T07:24:25Z</time>
      </trkpt>
      <trkpt lat="45.43662" lon="5.68913">
        <ele>817.6</ele>
        <time>2018-06-24T07:24:28Z</time>
      </trkpt>
      <trkpt lat="45.43674" lon="5.6891">
        <ele>818</ele>
        <time>2018-06-24T07:24:31Z</time>
      </trkpt>
      <trkpt lat="45.43686" lon="5.68908">
        <ele>818.4</ele>
        <time>2018-06-24T07:24:34Z</time>
      </trkpt>
      <trkpt lat="45.43697" lon="5.68909">
        <ele>819</ele>
        <time>2018-06-24T07:24:37Z</time>
      </trkpt>
      <trkpt lat="45.43706" lon="5.68912">
        <ele>819.2</ele>
        <time>2018-06-24T07:24:39Z</time>
      </trkpt>
      <trkpt lat="45.43718" lon="5.68914">
        <ele>819.3</ele>
        <time>2018-06-24T07:24:42Z</time>
      </trkpt>
      <trkpt lat="45.43732" lon="5.68916">
        <ele>819.5</ele>
        <time>2018-06-24T07:24:45Z</time>
      </trkpt>
      <trkpt lat="45.43745" lon="5.68916">
        <ele>819.7</ele>
        <time>2018-06-24T07:24:48Z</time>
      </trkpt>
      <trkpt lat="45.43757" lon="5.68914">
        <ele>819.7</ele>
        <time>2018-06-24T07:24:51Z</time>
      </trkpt>
      <trkpt lat="45.43769" lon="5.68911">
        <ele>819.7</ele>
        <time>2018-06-24T07:24:54Z</time>
      </trkpt>
      <trkpt lat="45.43781" lon="5.68909">
        <ele>819.9</ele>
        <time>2018-06-24T07:24:57Z</time>
      </trkpt>
      <trkpt lat="45.43792" lon="5.68908">
        <ele>820.1</ele>
        <time>2018-06-24T07:25:00Z</time>
      </trkpt>
      <trkpt lat="45.43804" lon="5.68907">
        <ele>820.2</ele>
        <time>2018-06-24T07:25:03Z</time>
      </trkpt>
      <trkpt lat="45.43816" lon="5.68905">
        <ele>820.4</ele>
        <time>2018-06-24T07:25:06Z</time>
      </trkpt>
      <trkpt lat="45.43827" lon="5.68903">
        <ele>820.6</ele>
        <time>2018-06-24T07:25:09Z</time>
      </trkpt>
      <trkpt lat="45.43839" lon="5.68902">
        <ele>820.7</ele>
        <time>2018-06-24T07:25:12Z</time>
      </trkpt>
      <trkpt lat="45.43851" lon="5.68903">
        <ele>821.2</ele>
        <time>2018-06-24T07:25:15Z</time>
      </trkpt>
      <trkpt lat="45.43864" lon="5.68905">
        <ele>821.5</ele>
        <time>2018-06-24T07:25:18Z</time>
      </trkpt>
      <trkpt lat="45.43877" lon="5.68905">
        <ele>821.7</ele>
        <time>2018-06-24T07:25:21Z</time>
      </trkpt>
      <trkpt lat="45.4389" lon="5.68901">
        <ele>821.8</ele>
        <time>2018-06-24T07:25:24Z</time>
      </trkpt>
      <trkpt lat="45.43902" lon="5.68895">
        <ele>822.3</ele>
        <time>2018-06-24T07:25:27Z</time>
      </trkpt>
      <trkpt lat="45.43914" lon="5.68889">
        <ele>822.7</ele>
        <time>2018-06-24T07:25:30Z</time>
      </trkpt>
      <trkpt lat="45.43927" lon="5.68883">
        <ele>823</ele>
        <time>2018-06-24T07:25:33Z</time>
      </trkpt>
      <trkpt lat="45.43939" lon="5.68876">
        <ele>823.2</ele>
        <time>2018-06-24T07:25:36Z</time>
      </trkpt>
      <trkpt lat="45.43952" lon="5.68871">
        <ele>823.3</ele>
        <time>2018-06-24T07:25:39Z</time>
      </trkpt>
      <trkpt lat="45.43963" lon="5.68865">
        <ele>823.3</ele>
        <time>2018-06-24T07:25:42Z</time>
      </trkpt>
      <trkpt lat="45.43975" lon="5.68858">
        <ele>823.6</ele>
        <time>2018-06-24T07:25:45Z</time>
      </trkpt>
      <trkpt lat="45.43986" lon="5.68849">
        <ele>823.8</ele>
        <time>2018-06-24T07:25:48Z</time>
      </trkpt>
      <trkpt lat="45.43996" lon="5.68836">
        <ele>824.1</ele>
        <time>2018-06-24T07:25:51Z</time>
      </trkpt>
      <trkpt lat="45.44003" lon="5.68821">
        <ele>824.5</ele>
        <time>2018-06-24T07:25:54Z</time>
      </trkpt>
      <trkpt lat="45.44007" lon="5.68804">
        <ele>824.7</ele>
        <time>2018-06-24T07:25:57Z</time>
      </trkpt>
      <trkpt lat="45.44008" lon="5.68785">
        <ele>824.8</ele>
        <time>2018-06-24T07:26:00Z</time>
      </trkpt>
      <trkpt lat="45.44006" lon="5.68768">
        <ele>825.3</ele>
        <time>2018-06-24T07:26:03Z</time>
      </trkpt>
      <trkpt lat="45.44001" lon="5.68751">
        <ele>825.6</ele>
        <time>2018-06-24T07:26:06Z</time>
      </trkpt>
      <trkpt lat="45.43994" lon="5.68737">
        <ele>825.7</ele>
        <time>2018-06-24T07:26:09Z</time>
      </trkpt>
      <trkpt lat="45.43986" lon="5.68724">
        <ele>825.8</ele>
        <time>2018-06-24T07:26:12Z</time>
      </trkpt>
      <trkpt lat="45.43978" lon="5.68713">
        <ele>826.3</ele>
        <time>2018-06-24T07:26:15Z</time>
      </trkpt>
      <trkpt lat="45.43971" lon="5.68702">
        <ele>826.8</ele>
        <time>2018-06-24T07:26:18Z</time>
      </trkpt>
      <trkpt lat="45.43964" lon="5.68691">
        <ele>827.5</ele>
        <time>2018-06-24T07:26:21Z</time>
      </trkpt>
      <trkpt lat="45.43956" lon="5.6868">
        <ele>828.2</ele>
        <time>2018-06-24T07:26:24Z</time>
      </trkpt>
      <trkpt lat="45.43949" lon="5.6867">
        <ele>828.9</ele>
        <time>2018-06-24T07:26:27Z</time>
      </trkpt>
      <trkpt lat="45.43942" lon="5.68661">
        <ele>829.3</ele>
        <time>2018-06-24T07:26:30Z</time>
      </trkpt>
      <trkpt lat="45.43935" lon="5.6865">
        <ele>830</ele>
        <time>2018-06-24T07:26:33Z</time>
      </trkpt>
      <trkpt lat="45.43927" lon="5.6864">
        <ele>830.4</ele>
        <time>2018-06-24T07:26:36Z</time>
      </trkpt>
      <trkpt lat="45.4392" lon="5.6863">
        <ele>830.5</ele>
        <time>2018-06-24T07:26:39Z</time>
      </trkpt>
      <trkpt lat="45.43913" lon="5.68621">
        <ele>831.3</ele>
        <time>2018-06-24T07:26:42Z</time>
      </trkpt>
      <trkpt lat="45.43906" lon="5.68611">
        <ele>831.9</ele>
        <time>2018-06-24T07:26:45Z</time>
      </trkpt>
      <trkpt lat="45.43899" lon="5.68601">
        <ele>832.3</ele>
        <time>2018-06-24T07:26:48Z</time>
      </trkpt>
      <trkpt lat="45.43892" lon="5.68591">
        <ele>832.8</ele>
        <time>2018-06-24T07:26:51Z</time>
      </trkpt>
      <trkpt lat="45.43886" lon="5.68582">
        <ele>833.5</ele>
        <time>2018-06-24T07:26:54Z</time>
      </trkpt>
      <trkpt lat="45.43877" lon="5.6857">
        <ele>834.5</ele>
        <time>2018-06-24T07:26:58Z</time>
      </trkpt>
      <trkpt lat="45.43871" lon="5.68561">
        <ele>834.9</ele>
        <time>2018-06-24T07:27:01Z</time>
      </trkpt>
      <trkpt lat="45.43864" lon="5.68551">
        <ele>835.5</ele>
        <time>2018-06-24T07:27:04Z</time>
      </trkpt>
      <trkpt lat="45.43857" lon="5.6854">
        <ele>836</ele>
        <time>2018-06-24T07:27:08Z</time>
      </trkpt>
      <trkpt lat="45.43865" lon="5.68535">
        <ele>836.9</ele>
        <time>2018-06-24T07:27:13Z</time>
      </trkpt>
      <trkpt lat="45.43874" lon="5.68531">
        <ele>837.3</ele>
        <time>2018-06-24T07:27:17Z</time>
      </trkpt>
      <trkpt lat="45.43878" lon="5.68518">
        <ele>837.6</ele>
        <time>2018-06-24T07:27:22Z</time>
      </trkpt>
      <trkpt lat="45.43876" lon="5.68505">
        <ele>838.5</ele>
        <time>2018-06-24T07:27:26Z</time>
      </trkpt>
      <trkpt lat="45.43873" lon="5.68492">
        <ele>839</ele>
        <time>2018-06-24T07:27:30Z</time>
      </trkpt>
      <trkpt lat="45.4387" lon="5.68479">
        <ele>839.7</ele>
        <time>2018-06-24T07:27:35Z</time>
      </trkpt>
      <trkpt lat="45.43866" lon="5.68465">
        <ele>840.5</ele>
        <time>2018-06-24T07:27:40Z</time>
      </trkpt>
      <trkpt lat="45.43863" lon="5.6845">
        <ele>841.3</ele>
        <time>2018-06-24T07:27:45Z</time>
      </trkpt>
      <trkpt lat="45.4386" lon="5.68436">
        <ele>841.9</ele>
        <time>2018-06-24T07:27:50Z</time>
      </trkpt>
      <trkpt lat="45.43858" lon="5.68422">
        <ele>842.9</ele>
        <time>2018-06-24T07:27:55Z</time>
      </trkpt>
      <trkpt lat="45.43855" lon="5.68409">
        <ele>843.8</ele>
        <time>2018-06-24T07:28:00Z</time>
      </trkpt>
      <trkpt lat="45.43851" lon="5.68395">
        <ele>844.6</ele>
        <time>2018-06-24T07:28:06Z</time>
      </trkpt>
      <trkpt lat="45.43848" lon="5.68381">
        <ele>845.5</ele>
        <time>2018-06-24T07:28:12Z</time>
      </trkpt>
      <trkpt lat="45.43844" lon="5.68367">
        <ele>846.5</ele>
        <time>2018-06-24T07:28:18Z</time>
      </trkpt>
      <trkpt lat="45.43842" lon="5.68354">
        <ele>847.1</ele>
        <time>2018-06-24T07:28:24Z</time>
      </trkpt>
      <trkpt lat="45.43841" lon="5.68341">
        <ele>847.9</ele>
        <time>2018-06-24T07:28:30Z</time>
      </trkpt>
      <trkpt lat="45.43842" lon="5.68327">
        <ele>849.8</ele>
        <time>2018-06-24T07:28:37Z</time>
      </trkpt>
      <trkpt lat="45.43844" lon="5.68314">
        <ele>851.1</ele>
        <time>2018-06-24T07:28:44Z</time>
      </trkpt>
      <trkpt lat="45.43846" lon="5.68299">
        <ele>852.7</ele>
        <time>2018-06-24T07:28:51Z</time>
      </trkpt>
      <trkpt lat="45.43849" lon="5.68287">
        <ele>853.3</ele>
        <time>2018-06-24T07:28:57Z</time>
      </trkpt>
      <trkpt lat="45.43853" lon="5.68274">
        <ele>854.1</ele>
        <time>2018-06-24T07:29:04Z</time>
      </trkpt>
      <trkpt lat="45.43856" lon="5.68262">
        <ele>855.1</ele>
        <time>2018-06-24T07:29:12Z</time>
      </trkpt>
      <trkpt lat="45.43859" lon="5.68249">
        <ele>857.1</ele>
        <time>2018-06-24T07:29:19Z</time>
      </trkpt>
      <trkpt lat="45.43861" lon="5.68237">
        <ele>858.7</ele>
        <time>2018-06-24T07:29:26Z</time>
      </trkpt>
      <trkpt lat="45.43865" lon="5.68225">
        <ele>859.6</ele>
        <time>2018-06-24T07:29:33Z</time>
      </trkpt>
      <trkpt lat="45.43869" lon="5.68212">
        <ele>860.6</ele>
        <time>2018-06-24T07:29:40Z</time>
      </trkpt>
      <trkpt lat="45.43872" lon="5.68199">
        <ele>861.2</ele>
        <time>2018-06-24T07:29:46Z</time>
      </trkpt>
      <trkpt lat="45.43875" lon="5.68186">
        <ele>861.9</ele>
        <time>2018-06-24T07:29:52Z</time>
      </trkpt>
      <trkpt lat="45.43878" lon="5.68171">
        <ele>862.3</ele>
        <time>2018-06-24T07:29:58Z</time>
      </trkpt>
      <trkpt lat="45.4388" lon="5.68158">
        <ele>863.4</ele>
        <time>2018-06-24T07:30:04Z</time>
      </trkpt>
      <trkpt lat="45.4388" lon="5.68145">
        <ele>864.3</ele>
        <time>2018-06-24T07:30:10Z</time>
      </trkpt>
      <trkpt lat="45.43882" lon="5.68132">
        <ele>865.2</ele>
        <time>2018-06-24T07:30:16Z</time>
      </trkpt>
      <trkpt lat="45.43879" lon="5.68119">
        <ele>865.7</ele>
        <time>2018-06-24T07:30:21Z</time>
      </trkpt>
      <trkpt lat="45.43871" lon="5.68109">
        <ele>865.8</ele>
        <time>2018-06-24T07:30:25Z</time>
      </trkpt>
      <trkpt lat="45.43863" lon="5.68097">
        <ele>865.7</ele>
        <time>2018-06-24T07:30:30Z</time>
      </trkpt>
      <trkpt lat="45.43855" lon="5.68087">
        <ele>865.5</ele>
        <time>2018-06-24T07:30:34Z</time>
      </trkpt>
      <trkpt lat="45.43849" lon="5.68075">
        <ele>865.2</ele>
        <time>2018-06-24T07:30:37Z</time>
      </trkpt>
      <trkpt lat="45.43839" lon="5.68067">
        <ele>864.9</ele>
        <time>2018-06-24T07:30:41Z</time>
      </trkpt>
      <trkpt lat="45.43832" lon="5.68057">
        <ele>864.9</ele>
        <time>2018-06-24T07:30:45Z</time>
      </trkpt>
      <trkpt lat="45.43824" lon="5.68047">
        <ele>865</ele>
        <time>2018-06-24T07:30:49Z</time>
      </trkpt>
      <trkpt lat="45.43814" lon="5.6804">
        <ele>865.3</ele>
        <time>2018-06-24T07:30:55Z</time>
      </trkpt>
      <trkpt lat="45.43805" lon="5.68031">
        <ele>865.7</ele>
        <time>2018-06-24T07:31:00Z</time>
      </trkpt>
      <trkpt lat="45.43798" lon="5.68022">
        <ele>865.9</ele>
        <time>2018-06-24T07:31:04Z</time>
      </trkpt>
      <trkpt lat="45.43789" lon="5.68019">
        <ele>866.1</ele>
        <time>2018-06-24T07:31:09Z</time>
      </trkpt>
      <trkpt lat="45.43781" lon="5.6801">
        <ele>866.6</ele>
        <time>2018-06-24T07:31:14Z</time>
      </trkpt>
      <trkpt lat="45.43771" lon="5.68002">
        <ele>866.7</ele>
        <time>2018-06-24T07:31:19Z</time>
      </trkpt>
      <trkpt lat="45.43762" lon="5.67995">
        <ele>866.6</ele>
        <time>2018-06-24T07:31:22Z</time>
      </trkpt>
      <trkpt lat="45.43751" lon="5.67985">
        <ele>866.7</ele>
        <time>2018-06-24T07:31:25Z</time>
      </trkpt>
      <trkpt lat="45.43742" lon="5.67977">
        <ele>866.7</ele>
        <time>2018-06-24T07:31:28Z</time>
      </trkpt>
      <trkpt lat="45.43735" lon="5.67964">
        <ele>866.6</ele>
        <time>2018-06-24T07:31:32Z</time>
      </trkpt>
      <trkpt lat="45.43728" lon="5.67955">
        <ele>866.2</ele>
        <time>2018-06-24T07:31:35Z</time>
      </trkpt>
      <trkpt lat="45.43719" lon="5.67945">
        <ele>865.4</ele>
        <time>2018-06-24T07:31:38Z</time>
      </trkpt>
      <trkpt lat="45.43707" lon="5.67938">
        <ele>864.8</ele>
        <time>2018-06-24T07:31:41Z</time>
      </trkpt>
      <trkpt lat="45.43697" lon="5.67932">
        <ele>864.4</ele>
        <time>2018-06-24T07:31:44Z</time>
      </trkpt>
      <trkpt lat="45.43686" lon="5.67924">
        <ele>864.2</ele>
        <time>2018-06-24T07:31:48Z</time>
      </trkpt>
      <trkpt lat="45.43677" lon="5.67917">
        <ele>863.9</ele>
        <time>2018-06-24T07:31:51Z</time>
      </trkpt>
      <trkpt lat="45.43669" lon="5.67909">
        <ele>863.6</ele>
        <time>2018-06-24T07:31:54Z</time>
      </trkpt>
      <trkpt lat="45.43658" lon="5.679">
        <ele>863.3</ele>
        <time>2018-06-24T07:31:58Z</time>
      </trkpt>
      <trkpt lat="45.4365" lon="5.67894">
        <ele>863</ele>
        <time>2018-06-24T07:32:00Z</time>
      </trkpt>
      <trkpt lat="45.43643" lon="5.67887">
        <ele>862.7</ele>
        <time>2018-06-24T07:32:02Z</time>
      </trkpt>
      <trkpt lat="45.43634" lon="5.67879">
        <ele>862.4</ele>
        <time>2018-06-24T07:32:04Z</time>
      </trkpt>
      <trkpt lat="45.43624" lon="5.6787">
        <ele>862.3</ele>
        <time>2018-06-24T07:32:06Z</time>
      </trkpt>
      <trkpt lat="45.43613" lon="5.67861">
        <ele>861.7</ele>
        <time>2018-06-24T07:32:08Z</time>
      </trkpt>
      <trkpt lat="45.43599" lon="5.67855">
        <ele>861.1</ele>
        <time>2018-06-24T07:32:10Z</time>
      </trkpt>
      <trkpt lat="45.43589" lon="5.67858">
        <ele>860.6</ele>
        <time>2018-06-24T07:32:12Z</time>
      </trkpt>
      <trkpt lat="45.43581" lon="5.67866">
        <ele>860.2</ele>
        <time>2018-06-24T07:32:14Z</time>
      </trkpt>
      <trkpt lat="45.43572" lon="5.67876">
        <ele>859.2</ele>
        <time>2018-06-24T07:32:17Z</time>
      </trkpt>
      <trkpt lat="45.43562" lon="5.67878">
        <ele>858.4</ele>
        <time>2018-06-24T07:32:21Z</time>
      </trkpt>
      <trkpt lat="45.43552" lon="5.67871">
        <ele>857.9</ele>
        <time>2018-06-24T07:32:25Z</time>
      </trkpt>
      <trkpt lat="45.43542" lon="5.67863">
        <ele>858.1</ele>
        <time>2018-06-24T07:32:29Z</time>
      </trkpt>
      <trkpt lat="45.43531" lon="5.67858">
        <ele>859.2</ele>
        <time>2018-06-24T07:32:34Z</time>
      </trkpt>
      <trkpt lat="45.43522" lon="5.67854">
        <ele>860.8</ele>
        <time>2018-06-24T07:32:40Z</time>
      </trkpt>
      <trkpt lat="45.43513" lon="5.67849">
        <ele>862.2</ele>
        <time>2018-06-24T07:32:46Z</time>
      </trkpt>
      <trkpt lat="45.43504" lon="5.67841">
        <ele>863.2</ele>
        <time>2018-06-24T07:32:51Z</time>
      </trkpt>
      <trkpt lat="45.43494" lon="5.67834">
        <ele>864.2</ele>
        <time>2018-06-24T07:32:56Z</time>
      </trkpt>
      <trkpt lat="45.43485" lon="5.67829">
        <ele>865.3</ele>
        <time>2018-06-24T07:33:02Z</time>
      </trkpt>
      <trkpt lat="45.43478" lon="5.67821">
        <ele>865.8</ele>
        <time>2018-06-24T07:33:07Z</time>
      </trkpt>
      <trkpt lat="45.4347" lon="5.67814">
        <ele>865.9</ele>
        <time>2018-06-24T07:33:12Z</time>
      </trkpt>
      <trkpt lat="45.43461" lon="5.67806">
        <ele>866.1</ele>
        <time>2018-06-24T07:33:17Z</time>
      </trkpt>
      <trkpt lat="45.43451" lon="5.67799">
        <ele>867.4</ele>
        <time>2018-06-24T07:33:24Z</time>
      </trkpt>
      <trkpt lat="45.43443" lon="5.67793">
        <ele>868.2</ele>
        <time>2018-06-24T07:33:30Z</time>
      </trkpt>
      <trkpt lat="45.43433" lon="5.6779">
        <ele>869.6</ele>
        <time>2018-06-24T07:33:36Z</time>
      </trkpt>
      <trkpt lat="45.43424" lon="5.67786">
        <ele>870.2</ele>
        <time>2018-06-24T07:33:40Z</time>
      </trkpt>
      <trkpt lat="45.43414" lon="5.67784">
        <ele>870.9</ele>
        <time>2018-06-24T07:33:45Z</time>
      </trkpt>
      <trkpt lat="45.43405" lon="5.67786">
        <ele>871.3</ele>
        <time>2018-06-24T07:33:51Z</time>
      </trkpt>
      <trkpt lat="45.43394" lon="5.67785">
        <ele>871.9</ele>
        <time>2018-06-24T07:33:58Z</time>
      </trkpt>
      <trkpt lat="45.43384" lon="5.67787">
        <ele>872.8</ele>
        <time>2018-06-24T07:34:02Z</time>
      </trkpt>
      <trkpt lat="45.43373" lon="5.67788">
        <ele>873.3</ele>
        <time>2018-06-24T07:34:08Z</time>
      </trkpt>
      <trkpt lat="45.43364" lon="5.67789">
        <ele>873.7</ele>
        <time>2018-06-24T07:34:13Z</time>
      </trkpt>
      <trkpt lat="45.43354" lon="5.67787">
        <ele>874.1</ele>
        <time>2018-06-24T07:34:17Z</time>
      </trkpt>
      <trkpt lat="45.43343" lon="5.67788">
        <ele>874.6</ele>
        <time>2018-06-24T07:34:22Z</time>
      </trkpt>
      <trkpt lat="45.43334" lon="5.6779">
        <ele>874.4</ele>
        <time>2018-06-24T07:34:27Z</time>
      </trkpt>
      <trkpt lat="45.43325" lon="5.67793">
        <ele>874.3</ele>
        <time>2018-06-24T07:34:31Z</time>
      </trkpt>
      <trkpt lat="45.43316" lon="5.67799">
        <ele>874.5</ele>
        <time>2018-06-24T07:34:36Z</time>
      </trkpt>
      <trkpt lat="45.43311" lon="5.67809">
        <ele>874.7</ele>
        <time>2018-06-24T07:34:41Z</time>
      </trkpt>
      <trkpt lat="45.43302" lon="5.67813">
        <ele>874.9</ele>
        <time>2018-06-24T07:34:47Z</time>
      </trkpt>
      <trkpt lat="45.43292" lon="5.67809">
        <ele>874.9</ele>
        <time>2018-06-24T07:34:54Z</time>
      </trkpt>
      <trkpt lat="45.43284" lon="5.67804">
        <ele>875.3</ele>
        <time>2018-06-24T07:34:59Z</time>
      </trkpt>
      <trkpt lat="45.43275" lon="5.67797">
        <ele>875.2</ele>
        <time>2018-06-24T07:35:03Z</time>
      </trkpt>
      <trkpt lat="45.43267" lon="5.67791">
        <ele>874.7</ele>
        <time>2018-06-24T07:35:06Z</time>
      </trkpt>
      <trkpt lat="45.43258" lon="5.67786">
        <ele>874.4</ele>
        <time>2018-06-24T07:35:09Z</time>
      </trkpt>
      <trkpt lat="45.43248" lon="5.67783">
        <ele>874.1</ele>
        <time>2018-06-24T07:35:12Z</time>
      </trkpt>
      <trkpt lat="45.43238" lon="5.67779">
        <ele>873.8</ele>
        <time>2018-06-24T07:35:15Z</time>
      </trkpt>
      <trkpt lat="45.43228" lon="5.67774">
        <ele>873.6</ele>
        <time>2018-06-24T07:35:19Z</time>
      </trkpt>
      <trkpt lat="45.4322" lon="5.67767">
        <ele>874.2</ele>
        <time>2018-06-24T07:35:24Z</time>
      </trkpt>
      <trkpt lat="45.4321" lon="5.6776">
        <ele>874.8</ele>
        <time>2018-06-24T07:35:28Z</time>
      </trkpt>
      <trkpt lat="45.43202" lon="5.67752">
        <ele>875.5</ele>
        <time>2018-06-24T07:35:32Z</time>
      </trkpt>
      <trkpt lat="45.43199" lon="5.6774">
        <ele>876</ele>
        <time>2018-06-24T07:35:35Z</time>
      </trkpt>
      <trkpt lat="45.43196" lon="5.67727">
        <ele>876.4</ele>
        <time>2018-06-24T07:35:38Z</time>
      </trkpt>
      <trkpt lat="45.43195" lon="5.67712">
        <ele>876.5</ele>
        <time>2018-06-24T07:35:42Z</time>
      </trkpt>
      <trkpt lat="45.43191" lon="5.67699">
        <ele>876.5</ele>
        <time>2018-06-24T07:35:45Z</time>
      </trkpt>
      <trkpt lat="45.43189" lon="5.67687">
        <ele>877.5</ele>
        <time>2018-06-24T07:35:56Z</time>
      </trkpt>
      <trkpt lat="45.43184" lon="5.67675">
        <ele>877.3</ele>
        <time>2018-06-24T07:36:02Z</time>
      </trkpt>
      <trkpt lat="45.43178" lon="5.67664">
        <ele>877.4</ele>
        <time>2018-06-24T07:36:06Z</time>
      </trkpt>
      <trkpt lat="45.43173" lon="5.6765">
        <ele>877.5</ele>
        <time>2018-06-24T07:36:09Z</time>
      </trkpt>
      <trkpt lat="45.43166" lon="5.67636">
        <ele>877.2</ele>
        <time>2018-06-24T07:36:11Z</time>
      </trkpt>
      <trkpt lat="45.43159" lon="5.67618">
        <ele>876.3</ele>
        <time>2018-06-24T07:36:13Z</time>
      </trkpt>
      <trkpt lat="45.43152" lon="5.67598">
        <ele>875.5</ele>
        <time>2018-06-24T07:36:15Z</time>
      </trkpt>
      <trkpt lat="45.43144" lon="5.67579">
        <ele>874.6</ele>
        <time>2018-06-24T07:36:17Z</time>
      </trkpt>
      <trkpt lat="45.43141" lon="5.6756">
        <ele>873.8</ele>
        <time>2018-06-24T07:36:19Z</time>
      </trkpt>
      <trkpt lat="45.43137" lon="5.67543">
        <ele>873.2</ele>
        <time>2018-06-24T07:36:21Z</time>
      </trkpt>
      <trkpt lat="45.43133" lon="5.6753">
        <ele>872.8</ele>
        <time>2018-06-24T07:36:23Z</time>
      </trkpt>
      <trkpt lat="45.4313" lon="5.67515">
        <ele>872.5</ele>
        <time>2018-06-24T07:36:25Z</time>
      </trkpt>
      <trkpt lat="45.43127" lon="5.67503">
        <ele>872.3</ele>
        <time>2018-06-24T07:36:27Z</time>
      </trkpt>
      <trkpt lat="45.43124" lon="5.67489">
        <ele>871.9</ele>
        <time>2018-06-24T07:36:29Z</time>
      </trkpt>
      <trkpt lat="45.43124" lon="5.67475">
        <ele>871.5</ele>
        <time>2018-06-24T07:36:31Z</time>
      </trkpt>
      <trkpt lat="45.43122" lon="5.67459">
        <ele>871.1</ele>
        <time>2018-06-24T07:36:33Z</time>
      </trkpt>
      <trkpt lat="45.43118" lon="5.67441">
        <ele>870.1</ele>
        <time>2018-06-24T07:36:35Z</time>
      </trkpt>
      <trkpt lat="45.43115" lon="5.67424">
        <ele>869.5</ele>
        <time>2018-06-24T07:36:37Z</time>
      </trkpt>
      <trkpt lat="45.43109" lon="5.67406">
        <ele>869.2</ele>
        <time>2018-06-24T07:36:39Z</time>
      </trkpt>
      <trkpt lat="45.43102" lon="5.67385">
        <ele>869</ele>
        <time>2018-06-24T07:36:41Z</time>
      </trkpt>
      <trkpt lat="45.43094" lon="5.67363">
        <ele>868</ele>
        <time>2018-06-24T07:36:43Z</time>
      </trkpt>
      <trkpt lat="45.4309" lon="5.67351">
        <ele>867.6</ele>
        <time>2018-06-24T07:36:44Z</time>
      </trkpt>
      <trkpt lat="45.43087" lon="5.67339">
        <ele>867.2</ele>
        <time>2018-06-24T07:36:45Z</time>
      </trkpt>
      <trkpt lat="45.43079" lon="5.67319">
        <ele>866.1</ele>
        <time>2018-06-24T07:36:47Z</time>
      </trkpt>
      <trkpt lat="45.43074" lon="5.67301">
        <ele>865.1</ele>
        <time>2018-06-24T07:36:49Z</time>
      </trkpt>
      <trkpt lat="45.4307" lon="5.67284">
        <ele>864</ele>
        <time>2018-06-24T07:36:51Z</time>
      </trkpt>
      <trkpt lat="45.43065" lon="5.67272">
        <ele>863.6</ele>
        <time>2018-06-24T07:36:53Z</time>
      </trkpt>
      <trkpt lat="45.43058" lon="5.67257">
        <ele>863.4</ele>
        <time>2018-06-24T07:36:56Z</time>
      </trkpt>
      <trkpt lat="45.43051" lon="5.67239">
        <ele>863.1</ele>
        <time>2018-06-24T07:36:59Z</time>
      </trkpt>
      <trkpt lat="45.43047" lon="5.67224">
        <ele>862.7</ele>
        <time>2018-06-24T07:37:01Z</time>
      </trkpt>
      <trkpt lat="45.43045" lon="5.67207">
        <ele>862</ele>
        <time>2018-06-24T07:37:03Z</time>
      </trkpt>
      <trkpt lat="45.43046" lon="5.67193">
        <ele>861.4</ele>
        <time>2018-06-24T07:37:05Z</time>
      </trkpt>
      <trkpt lat="45.4304" lon="5.67183">
        <ele>860.9</ele>
        <time>2018-06-24T07:37:08Z</time>
      </trkpt>
      <trkpt lat="45.43033" lon="5.67173">
        <ele>860.7</ele>
        <time>2018-06-24T07:37:12Z</time>
      </trkpt>
      <trkpt lat="45.43028" lon="5.67163">
        <ele>860.7</ele>
        <time>2018-06-24T07:37:15Z</time>
      </trkpt>
      <trkpt lat="45.43021" lon="5.67153">
        <ele>860.7</ele>
        <time>2018-06-24T07:37:19Z</time>
      </trkpt>
      <trkpt lat="45.43011" lon="5.67143">
        <ele>860.4</ele>
        <time>2018-06-24T07:37:21Z</time>
      </trkpt>
      <trkpt lat="45.43002" lon="5.67132">
        <ele>860.2</ele>
        <time>2018-06-24T07:37:23Z</time>
      </trkpt>
      <trkpt lat="45.42994" lon="5.67125">
        <ele>860.1</ele>
        <time>2018-06-24T07:37:25Z</time>
      </trkpt>
      <trkpt lat="45.42985" lon="5.67115">
        <ele>860.2</ele>
        <time>2018-06-24T07:37:28Z</time>
      </trkpt>
      <trkpt lat="45.42977" lon="5.67107">
        <ele>860.4</ele>
        <time>2018-06-24T07:37:31Z</time>
      </trkpt>
      <trkpt lat="45.42969" lon="5.67094">
        <ele>860.5</ele>
        <time>2018-06-24T07:37:34Z</time>
      </trkpt>
      <trkpt lat="45.4296" lon="5.67077">
        <ele>860.3</ele>
        <time>2018-06-24T07:37:37Z</time>
      </trkpt>
      <trkpt lat="45.42951" lon="5.67063">
        <ele>860.2</ele>
        <time>2018-06-24T07:37:39Z</time>
      </trkpt>
      <trkpt lat="45.42945" lon="5.67053">
        <ele>860.1</ele>
        <time>2018-06-24T07:37:41Z</time>
      </trkpt>
      <trkpt lat="45.4294" lon="5.6704">
        <ele>860</ele>
        <time>2018-06-24T07:37:43Z</time>
      </trkpt>
      <trkpt lat="45.42934" lon="5.67028">
        <ele>859.9</ele>
        <time>2018-06-24T07:37:45Z</time>
      </trkpt>
      <trkpt lat="45.42928" lon="5.67017">
        <ele>859.7</ele>
        <time>2018-06-24T07:37:47Z</time>
      </trkpt>
      <trkpt lat="45.42921" lon="5.67007">
        <ele>859.6</ele>
        <time>2018-06-24T07:37:49Z</time>
      </trkpt>
      <trkpt lat="45.42915" lon="5.66998">
        <ele>859.3</ele>
        <time>2018-06-24T07:37:51Z</time>
      </trkpt>
      <trkpt lat="45.42909" lon="5.66988">
        <ele>859.2</ele>
        <time>2018-06-24T07:37:53Z</time>
      </trkpt>
      <trkpt lat="45.42903" lon="5.66975">
        <ele>859</ele>
        <time>2018-06-24T07:37:56Z</time>
      </trkpt>
      <trkpt lat="45.42898" lon="5.66963">
        <ele>858.9</ele>
        <time>2018-06-24T07:37:59Z</time>
      </trkpt>
      <trkpt lat="45.42896" lon="5.6695">
        <ele>859.3</ele>
        <time>2018-06-24T07:38:03Z</time>
      </trkpt>
      <trkpt lat="45.42896" lon="5.66937">
        <ele>861</ele>
        <time>2018-06-24T07:38:09Z</time>
      </trkpt>
      <trkpt lat="45.42891" lon="5.66926">
        <ele>862.2</ele>
        <time>2018-06-24T07:38:14Z</time>
      </trkpt>
      <trkpt lat="45.42885" lon="5.66913">
        <ele>863.7</ele>
        <time>2018-06-24T07:38:19Z</time>
      </trkpt>
      <trkpt lat="45.42882" lon="5.66899">
        <ele>866</ele>
        <time>2018-06-24T07:38:26Z</time>
      </trkpt>
      <trkpt lat="45.42877" lon="5.66888">
        <ele>867.6</ele>
        <time>2018-06-24T07:38:32Z</time>
      </trkpt>
      <trkpt lat="45.42872" lon="5.66875">
        <ele>869.2</ele>
        <time>2018-06-24T07:38:39Z</time>
      </trkpt>
      <trkpt lat="45.42867" lon="5.66864">
        <ele>870.8</ele>
        <time>2018-06-24T07:38:47Z</time>
      </trkpt>
      <trkpt lat="45.4286" lon="5.66853">
        <ele>871.9</ele>
        <time>2018-06-24T07:38:56Z</time>
      </trkpt>
      <trkpt lat="45.42853" lon="5.66841">
        <ele>872.2</ele>
        <time>2018-06-24T07:39:01Z</time>
      </trkpt>
      <trkpt lat="45.42848" lon="5.66829">
        <ele>872.4</ele>
        <time>2018-06-24T07:39:06Z</time>
      </trkpt>
      <trkpt lat="45.42841" lon="5.66816">
        <ele>872.5</ele>
        <time>2018-06-24T07:39:11Z</time>
      </trkpt>
      <trkpt lat="45.42836" lon="5.66804">
        <ele>872.7</ele>
        <time>2018-06-24T07:39:15Z</time>
      </trkpt>
      <trkpt lat="45.42829" lon="5.66792">
        <ele>872.8</ele>
        <time>2018-06-24T07:39:18Z</time>
      </trkpt>
      <trkpt lat="45.42822" lon="5.6678">
        <ele>872.9</ele>
        <time>2018-06-24T07:39:21Z</time>
      </trkpt>
      <trkpt lat="45.42817" lon="5.66766">
        <ele>872.9</ele>
        <time>2018-06-24T07:39:24Z</time>
      </trkpt>
      <trkpt lat="45.4281" lon="5.66753">
        <ele>872.7</ele>
        <time>2018-06-24T07:39:27Z</time>
      </trkpt>
      <trkpt lat="45.42807" lon="5.66739">
        <ele>872.5</ele>
        <time>2018-06-24T07:39:30Z</time>
      </trkpt>
      <trkpt lat="45.42803" lon="5.66727">
        <ele>872.4</ele>
        <time>2018-06-24T07:39:33Z</time>
      </trkpt>
      <trkpt lat="45.42798" lon="5.66715">
        <ele>872.8</ele>
        <time>2018-06-24T07:39:38Z</time>
      </trkpt>
      <trkpt lat="45.42795" lon="5.66703">
        <ele>873.4</ele>
        <time>2018-06-24T07:39:43Z</time>
      </trkpt>
      <trkpt lat="45.4279" lon="5.66692">
        <ele>874</ele>
        <time>2018-06-24T07:39:47Z</time>
      </trkpt>
      <trkpt lat="45.42785" lon="5.66679">
        <ele>875</ele>
        <time>2018-06-24T07:39:51Z</time>
      </trkpt>
      <trkpt lat="45.42781" lon="5.66668">
        <ele>875.9</ele>
        <time>2018-06-24T07:39:56Z</time>
      </trkpt>
      <trkpt lat="45.42771" lon="5.66663">
        <ele>876.8</ele>
        <time>2018-06-24T07:40:01Z</time>
      </trkpt>
      <trkpt lat="45.42763" lon="5.66655">
        <ele>877.1</ele>
        <time>2018-06-24T07:40:08Z</time>
      </trkpt>
      <trkpt lat="45.42755" lon="5.66645">
        <ele>877.2</ele>
        <time>2018-06-24T07:40:13Z</time>
      </trkpt>
      <trkpt lat="45.42749" lon="5.66634">
        <ele>877.2</ele>
        <time>2018-06-24T07:40:18Z</time>
      </trkpt>
      <trkpt lat="45.42744" lon="5.66622">
        <ele>877.3</ele>
        <time>2018-06-24T07:40:23Z</time>
      </trkpt>
      <trkpt lat="45.42738" lon="5.6661">
        <ele>877.3</ele>
        <time>2018-06-24T07:40:27Z</time>
      </trkpt>
      <trkpt lat="45.42731" lon="5.66597">
        <ele>877.5</ele>
        <time>2018-06-24T07:40:31Z</time>
      </trkpt>
      <trkpt lat="45.42725" lon="5.66583">
        <ele>877.6</ele>
        <time>2018-06-24T07:40:35Z</time>
      </trkpt>
      <trkpt lat="45.42719" lon="5.6657">
        <ele>877.6</ele>
        <time>2018-06-24T07:40:38Z</time>
      </trkpt>
      <trkpt lat="45.42716" lon="5.66557">
        <ele>877.4</ele>
        <time>2018-06-24T07:40:40Z</time>
      </trkpt>
      <trkpt lat="45.42713" lon="5.6654">
        <ele>876.9</ele>
        <time>2018-06-24T07:40:43Z</time>
      </trkpt>
      <trkpt lat="45.42711" lon="5.66526">
        <ele>876.7</ele>
        <time>2018-06-24T07:40:46Z</time>
      </trkpt>
      <trkpt lat="45.42709" lon="5.66511">
        <ele>876.5</ele>
        <time>2018-06-24T07:40:51Z</time>
      </trkpt>
      <trkpt lat="45.42705" lon="5.66497">
        <ele>876.7</ele>
        <time>2018-06-24T07:40:55Z</time>
      </trkpt>
      <trkpt lat="45.42701" lon="5.66483">
        <ele>876.9</ele>
        <time>2018-06-24T07:40:58Z</time>
      </trkpt>
      <trkpt lat="45.42694" lon="5.66468">
        <ele>877</ele>
        <time>2018-06-24T07:41:01Z</time>
      </trkpt>
      <trkpt lat="45.42684" lon="5.66455">
        <ele>877</ele>
        <time>2018-06-24T07:41:04Z</time>
      </trkpt>
      <trkpt lat="45.42676" lon="5.66445">
        <ele>877.1</ele>
        <time>2018-06-24T07:41:07Z</time>
      </trkpt>
      <trkpt lat="45.42668" lon="5.66433">
        <ele>877.1</ele>
        <time>2018-06-24T07:41:10Z</time>
      </trkpt>
      <trkpt lat="45.4266" lon="5.66427">
        <ele>877.1</ele>
        <time>2018-06-24T07:41:14Z</time>
      </trkpt>
      <trkpt lat="45.42653" lon="5.66415">
        <ele>877.1</ele>
        <time>2018-06-24T07:41:18Z</time>
      </trkpt>
      <trkpt lat="45.42648" lon="5.66401">
        <ele>877.2</ele>
        <time>2018-06-24T07:41:21Z</time>
      </trkpt>
      <trkpt lat="45.4264" lon="5.66392">
        <ele>876.8</ele>
        <time>2018-06-24T07:41:24Z</time>
      </trkpt>
      <trkpt lat="45.42632" lon="5.66381">
        <ele>876.8</ele>
        <time>2018-06-24T07:41:28Z</time>
      </trkpt>
      <trkpt lat="45.42625" lon="5.66368">
        <ele>877.1</ele>
        <time>2018-06-24T07:41:32Z</time>
      </trkpt>
      <trkpt lat="45.42619" lon="5.66358">
        <ele>877.4</ele>
        <time>2018-06-24T07:41:36Z</time>
      </trkpt>
      <trkpt lat="45.42614" lon="5.66347">
        <ele>877.8</ele>
        <time>2018-06-24T07:41:40Z</time>
      </trkpt>
      <trkpt lat="45.42609" lon="5.66336">
        <ele>878.7</ele>
        <time>2018-06-24T07:41:45Z</time>
      </trkpt>
      <trkpt lat="45.42603" lon="5.66326">
        <ele>879</ele>
        <time>2018-06-24T07:41:48Z</time>
      </trkpt>
      <trkpt lat="45.42595" lon="5.66316">
        <ele>879.7</ele>
        <time>2018-06-24T07:41:52Z</time>
      </trkpt>
      <trkpt lat="45.42587" lon="5.6631">
        <ele>880.8</ele>
        <time>2018-06-24T07:42:09Z</time>
      </trkpt>
      <trkpt lat="45.42579" lon="5.66302">
        <ele>881.2</ele>
        <time>2018-06-24T07:42:55Z</time>
      </trkpt>
      <trkpt lat="45.42569" lon="5.66304">
        <ele>881.4</ele>
        <time>2018-06-24T07:42:59Z</time>
      </trkpt>
      <trkpt lat="45.42561" lon="5.66311">
        <ele>881.4</ele>
        <time>2018-06-24T07:43:01Z</time>
      </trkpt>
      <trkpt lat="45.42552" lon="5.66323">
        <ele>881.1</ele>
        <time>2018-06-24T07:43:03Z</time>
      </trkpt>
      <trkpt lat="45.42543" lon="5.66334">
        <ele>880.8</ele>
        <time>2018-06-24T07:43:05Z</time>
      </trkpt>
      <trkpt lat="45.42535" lon="5.66343">
        <ele>880.1</ele>
        <time>2018-06-24T07:43:08Z</time>
      </trkpt>
      <trkpt lat="45.4253" lon="5.66357">
        <ele>879</ele>
        <time>2018-06-24T07:43:12Z</time>
      </trkpt>
      <trkpt lat="45.42524" lon="5.6637">
        <ele>878.3</ele>
        <time>2018-06-24T07:43:15Z</time>
      </trkpt>
      <trkpt lat="45.42514" lon="5.66376">
        <ele>875.1</ele>
        <time>2018-06-24T07:43:21Z</time>
      </trkpt>
      <trkpt lat="45.42505" lon="5.66382">
        <ele>873.2</ele>
        <time>2018-06-24T07:43:26Z</time>
      </trkpt>
      <trkpt lat="45.42494" lon="5.6639">
        <ele>872.7</ele>
        <time>2018-06-24T07:43:29Z</time>
      </trkpt>
      <trkpt lat="45.42486" lon="5.66394">
        <ele>871.8</ele>
        <time>2018-06-24T07:43:31Z</time>
      </trkpt>
      <trkpt lat="45.42484" lon="5.66409">
        <ele>870.7</ele>
        <time>2018-06-24T07:43:34Z</time>
      </trkpt>
      <trkpt lat="45.42493" lon="5.66419">
        <ele>869.6</ele>
        <time>2018-06-24T07:43:36Z</time>
      </trkpt>
      <trkpt lat="45.42502" lon="5.66428">
        <ele>868</ele>
        <time>2018-06-24T07:43:38Z</time>
      </trkpt>
      <trkpt lat="45.42494" lon="5.66443">
        <ele>864.8</ele>
        <time>2018-06-24T07:43:42Z</time>
      </trkpt>
      <trkpt lat="45.42482" lon="5.66447">
        <ele>863.6</ele>
        <time>2018-06-24T07:43:44Z</time>
      </trkpt>
      <trkpt lat="45.4247" lon="5.66454">
        <ele>861.7</ele>
        <time>2018-06-24T07:43:46Z</time>
      </trkpt>
      <trkpt lat="45.42461" lon="5.66464">
        <ele>859.6</ele>
        <time>2018-06-24T07:43:48Z</time>
      </trkpt>
      <trkpt lat="45.42452" lon="5.66471">
        <ele>858.1</ele>
        <time>2018-06-24T07:43:50Z</time>
      </trkpt>
      <trkpt lat="45.42442" lon="5.6647">
        <ele>856.6</ele>
        <time>2018-06-24T07:43:52Z</time>
      </trkpt>
      <trkpt lat="45.42432" lon="5.66471">
        <ele>853.6</ele>
        <time>2018-06-24T07:43:55Z</time>
      </trkpt>
      <trkpt lat="45.42438" lon="5.66482">
        <ele>850.6</ele>
        <time>2018-06-24T07:44:00Z</time>
      </trkpt>
      <trkpt lat="45.42445" lon="5.66493">
        <ele>848.6</ele>
        <time>2018-06-24T07:44:05Z</time>
      </trkpt>
      <trkpt lat="45.42451" lon="5.66504">
        <ele>847.9</ele>
        <time>2018-06-24T07:44:09Z</time>
      </trkpt>
      <trkpt lat="45.42458" lon="5.66512">
        <ele>846.8</ele>
        <time>2018-06-24T07:44:16Z</time>
      </trkpt>
      <trkpt lat="45.42467" lon="5.66521">
        <ele>846.3</ele>
        <time>2018-06-24T07:44:22Z</time>
      </trkpt>
      <trkpt lat="45.42475" lon="5.66529">
        <ele>845.9</ele>
        <time>2018-06-24T07:44:29Z</time>
      </trkpt>
      <trkpt lat="45.42483" lon="5.66535">
        <ele>845.7</ele>
        <time>2018-06-24T07:44:32Z</time>
      </trkpt>
      <trkpt lat="45.42491" lon="5.66542">
        <ele>845.4</ele>
        <time>2018-06-24T07:44:35Z</time>
      </trkpt>
      <trkpt lat="45.42498" lon="5.66551">
        <ele>845.2</ele>
        <time>2018-06-24T07:44:38Z</time>
      </trkpt>
      <trkpt lat="45.42504" lon="5.66561">
        <ele>845.1</ele>
        <time>2018-06-24T07:44:41Z</time>
      </trkpt>
      <trkpt lat="45.42511" lon="5.66569">
        <ele>844.9</ele>
        <time>2018-06-24T07:44:44Z</time>
      </trkpt>
      <trkpt lat="45.42519" lon="5.66579">
        <ele>845.2</ele>
        <time>2018-06-24T07:44:48Z</time>
      </trkpt>
      <trkpt lat="45.42528" lon="5.66589">
        <ele>845.6</ele>
        <time>2018-06-24T07:44:52Z</time>
      </trkpt>
      <trkpt lat="45.42537" lon="5.66597">
        <ele>846</ele>
        <time>2018-06-24T07:44:55Z</time>
      </trkpt>
      <trkpt lat="45.42546" lon="5.66606">
        <ele>846.5</ele>
        <time>2018-06-24T07:44:58Z</time>
      </trkpt>
      <trkpt lat="45.42554" lon="5.66616">
        <ele>846.9</ele>
        <time>2018-06-24T07:45:01Z</time>
      </trkpt>
      <trkpt lat="45.42561" lon="5.66629">
        <ele>847.1</ele>
        <time>2018-06-24T07:45:04Z</time>
      </trkpt>
      <trkpt lat="45.42566" lon="5.6664">
        <ele>847</ele>
        <time>2018-06-24T07:45:06Z</time>
      </trkpt>
      <trkpt lat="45.42571" lon="5.66656">
        <ele>846.8</ele>
        <time>2018-06-24T07:45:09Z</time>
      </trkpt>
      <trkpt lat="45.42576" lon="5.66671">
        <ele>846.5</ele>
        <time>2018-06-24T07:45:12Z</time>
      </trkpt>
      <trkpt lat="45.42581" lon="5.66685">
        <ele>846.7</ele>
        <time>2018-06-24T07:45:15Z</time>
      </trkpt>
      <trkpt lat="45.42585" lon="5.66699">
        <ele>847.3</ele>
        <time>2018-06-24T07:45:18Z</time>
      </trkpt>
      <trkpt lat="45.42589" lon="5.66711">
        <ele>847.7</ele>
        <time>2018-06-24T07:45:21Z</time>
      </trkpt>
      <trkpt lat="45.42596" lon="5.66726">
        <ele>847.6</ele>
        <time>2018-06-24T07:45:24Z</time>
      </trkpt>
      <trkpt lat="45.42601" lon="5.66739">
        <ele>847.4</ele>
        <time>2018-06-24T07:45:26Z</time>
      </trkpt>
      <trkpt lat="45.42606" lon="5.66754">
        <ele>847.3</ele>
        <time>2018-06-24T07:45:28Z</time>
      </trkpt>
      <trkpt lat="45.4261" lon="5.66771">
        <ele>847.1</ele>
        <time>2018-06-24T07:45:30Z</time>
      </trkpt>
      <trkpt lat="45.42614" lon="5.66789">
        <ele>846.9</ele>
        <time>2018-06-24T07:45:32Z</time>
      </trkpt>
      <trkpt lat="45.42619" lon="5.66808">
        <ele>846.5</ele>
        <time>2018-06-24T07:45:34Z</time>
      </trkpt>
      <trkpt lat="45.42623" lon="5.66828">
        <ele>845.8</ele>
        <time>2018-06-24T07:45:36Z</time>
      </trkpt>
      <trkpt lat="45.42629" lon="5.66846">
        <ele>845.2</ele>
        <time>2018-06-24T07:45:38Z</time>
      </trkpt>
      <trkpt lat="45.42633" lon="5.66862">
        <ele>844.4</ele>
        <time>2018-06-24T07:45:40Z</time>
      </trkpt>
      <trkpt lat="45.42638" lon="5.66875">
        <ele>843.3</ele>
        <time>2018-06-24T07:45:42Z</time>
      </trkpt>
      <trkpt lat="45.42639" lon="5.6689">
        <ele>840.9</ele>
        <time>2018-06-24T07:45:46Z</time>
      </trkpt>
      <trkpt lat="45.4264" lon="5.66906">
        <ele>839.1</ele>
        <time>2018-06-24T07:45:50Z</time>
      </trkpt>
      <trkpt lat="45.42642" lon="5.66922">
        <ele>838.4</ele>
        <time>2018-06-24T07:45:53Z</time>
      </trkpt>
      <trkpt lat="45.42644" lon="5.66939">
        <ele>837</ele>
        <time>2018-06-24T07:45:56Z</time>
      </trkpt>
      <trkpt lat="45.42644" lon="5.66952">
        <ele>836.5</ele>
        <time>2018-06-24T07:45:58Z</time>
      </trkpt>
      <trkpt lat="45.4264" lon="5.66965">
        <ele>836.3</ele>
        <time>2018-06-24T07:46:00Z</time>
      </trkpt>
      <trkpt lat="45.42633" lon="5.66977">
        <ele>835.7</ele>
        <time>2018-06-24T07:46:02Z</time>
      </trkpt>
      <trkpt lat="45.42625" lon="5.6699">
        <ele>834.8</ele>
        <time>2018-06-24T07:46:04Z</time>
      </trkpt>
      <trkpt lat="45.42614" lon="5.67">
        <ele>833.9</ele>
        <time>2018-06-24T07:46:06Z</time>
      </trkpt>
      <trkpt lat="45.42602" lon="5.67009">
        <ele>833.1</ele>
        <time>2018-06-24T07:46:08Z</time>
      </trkpt>
      <trkpt lat="45.42589" lon="5.67017">
        <ele>832.4</ele>
        <time>2018-06-24T07:46:10Z</time>
      </trkpt>
      <trkpt lat="45.42576" lon="5.67027">
        <ele>831.2</ele>
        <time>2018-06-24T07:46:12Z</time>
      </trkpt>
      <trkpt lat="45.42564" lon="5.67038">
        <ele>829.9</ele>
        <time>2018-06-24T07:46:14Z</time>
      </trkpt>
      <trkpt lat="45.42554" lon="5.67051">
        <ele>828.9</ele>
        <time>2018-06-24T07:46:16Z</time>
      </trkpt>
      <trkpt lat="45.42549" lon="5.67068">
        <ele>828</ele>
        <time>2018-06-24T07:46:18Z</time>
      </trkpt>
      <trkpt lat="45.42547" lon="5.67087">
        <ele>827.2</ele>
        <time>2018-06-24T07:46:20Z</time>
      </trkpt>
      <trkpt lat="45.42545" lon="5.67102">
        <ele>826.1</ele>
        <time>2018-06-24T07:46:22Z</time>
      </trkpt>
      <trkpt lat="45.4254" lon="5.67117">
        <ele>825.1</ele>
        <time>2018-06-24T07:46:24Z</time>
      </trkpt>
      <trkpt lat="45.42531" lon="5.67131">
        <ele>824.3</ele>
        <time>2018-06-24T07:46:26Z</time>
      </trkpt>
      <trkpt lat="45.42522" lon="5.67145">
        <ele>823.2</ele>
        <time>2018-06-24T07:46:28Z</time>
      </trkpt>
      <trkpt lat="45.42511" lon="5.67156">
        <ele>821.8</ele>
        <time>2018-06-24T07:46:30Z</time>
      </trkpt>
      <trkpt lat="45.42503" lon="5.67163">
        <ele>819.8</ele>
        <time>2018-06-24T07:46:33Z</time>
      </trkpt>
      <trkpt lat="45.42494" lon="5.67177">
        <ele>818.1</ele>
        <time>2018-06-24T07:46:36Z</time>
      </trkpt>
      <trkpt lat="45.42487" lon="5.67194">
        <ele>816.8</ele>
        <time>2018-06-24T07:46:38Z</time>
      </trkpt>
      <trkpt lat="45.42475" lon="5.67203">
        <ele>815.3</ele>
        <time>2018-06-24T07:46:40Z</time>
      </trkpt>
      <trkpt lat="45.42458" lon="5.67204">
        <ele>813.9</ele>
        <time>2018-06-24T07:46:42Z</time>
      </trkpt>
      <trkpt lat="45.4244" lon="5.67203">
        <ele>812.3</ele>
        <time>2018-06-24T07:46:44Z</time>
      </trkpt>
      <trkpt lat="45.42431" lon="5.67203">
        <ele>811.5</ele>
        <time>2018-06-24T07:46:45Z</time>
      </trkpt>
      <trkpt lat="45.42422" lon="5.67204">
        <ele>810.2</ele>
        <time>2018-06-24T07:46:46Z</time>
      </trkpt>
      <trkpt lat="45.42406" lon="5.67208">
        <ele>807.9</ele>
        <time>2018-06-24T07:46:48Z</time>
      </trkpt>
      <trkpt lat="45.42397" lon="5.67204">
        <ele>807</ele>
        <time>2018-06-24T07:46:49Z</time>
      </trkpt>
      <trkpt lat="45.42381" lon="5.67197">
        <ele>804.5</ele>
        <time>2018-06-24T07:46:51Z</time>
      </trkpt>
      <trkpt lat="45.4237" lon="5.67188">
        <ele>802.5</ele>
        <time>2018-06-24T07:46:53Z</time>
      </trkpt>
      <trkpt lat="45.42359" lon="5.67181">
        <ele>800.7</ele>
        <time>2018-06-24T07:46:55Z</time>
      </trkpt>
      <trkpt lat="45.42349" lon="5.67187">
        <ele>796.6</ele>
        <time>2018-06-24T07:47:00Z</time>
      </trkpt>
      <trkpt lat="45.4234" lon="5.67199">
        <ele>793.9</ele>
        <time>2018-06-24T07:47:04Z</time>
      </trkpt>
      <trkpt lat="45.42329" lon="5.67203">
        <ele>792.8</ele>
        <time>2018-06-24T07:47:06Z</time>
      </trkpt>
      <trkpt lat="45.42316" lon="5.67206">
        <ele>791.6</ele>
        <time>2018-06-24T07:47:08Z</time>
      </trkpt>
      <trkpt lat="45.42303" lon="5.67199">
        <ele>790.5</ele>
        <time>2018-06-24T07:47:10Z</time>
      </trkpt>
      <trkpt lat="45.42288" lon="5.67192">
        <ele>788.8</ele>
        <time>2018-06-24T07:47:12Z</time>
      </trkpt>
      <trkpt lat="45.42274" lon="5.67189">
        <ele>786.8</ele>
        <time>2018-06-24T07:47:14Z</time>
      </trkpt>
      <trkpt lat="45.42262" lon="5.67178">
        <ele>785.5</ele>
        <time>2018-06-24T07:47:16Z</time>
      </trkpt>
      <trkpt lat="45.42258" lon="5.67166">
        <ele>783.7</ele>
        <time>2018-06-24T07:47:18Z</time>
      </trkpt>
      <trkpt lat="45.42249" lon="5.67164">
        <ele>777.7</ele>
        <time>2018-06-24T07:47:25Z</time>
      </trkpt>
      <trkpt lat="45.4224" lon="5.6717">
        <ele>775.1</ele>
        <time>2018-06-24T07:47:38Z</time>
      </trkpt>
      <trkpt lat="45.42231" lon="5.67173">
        <ele>774.9</ele>
        <time>2018-06-24T07:47:42Z</time>
      </trkpt>
      <trkpt lat="45.4222" lon="5.67175">
        <ele>774.8</ele>
        <time>2018-06-24T07:47:46Z</time>
      </trkpt>
      <trkpt lat="45.42211" lon="5.67175">
        <ele>775.2</ele>
        <time>2018-06-24T07:47:50Z</time>
      </trkpt>
      <trkpt lat="45.422" lon="5.67174">
        <ele>775.5</ele>
        <time>2018-06-24T07:47:55Z</time>
      </trkpt>
      <trkpt lat="45.4219" lon="5.67169">
        <ele>775.6</ele>
        <time>2018-06-24T07:47:59Z</time>
      </trkpt>
      <trkpt lat="45.4218" lon="5.67164">
        <ele>775.7</ele>
        <time>2018-06-24T07:48:03Z</time>
      </trkpt>
      <trkpt lat="45.42169" lon="5.6716">
        <ele>775.9</ele>
        <time>2018-06-24T07:48:07Z</time>
      </trkpt>
      <trkpt lat="45.4216" lon="5.67161">
        <ele>776.3</ele>
        <time>2018-06-24T07:48:11Z</time>
      </trkpt>
      <trkpt lat="45.4215" lon="5.6717">
        <ele>777.2</ele>
        <time>2018-06-24T07:48:15Z</time>
      </trkpt>
      <trkpt lat="45.42148" lon="5.67183">
        <ele>778.8</ele>
        <time>2018-06-24T07:48:20Z</time>
      </trkpt>
      <trkpt lat="45.42145" lon="5.67198">
        <ele>780</ele>
        <time>2018-06-24T07:48:26Z</time>
      </trkpt>
      <trkpt lat="45.42142" lon="5.67211">
        <ele>781.1</ele>
        <time>2018-06-24T07:48:32Z</time>
      </trkpt>
      <trkpt lat="45.42147" lon="5.67222">
        <ele>783.2</ele>
        <time>2018-06-24T07:48:41Z</time>
      </trkpt>
      <trkpt lat="45.42157" lon="5.67226">
        <ele>785</ele>
        <time>2018-06-24T07:48:48Z</time>
      </trkpt>
      <trkpt lat="45.42166" lon="5.67232">
        <ele>786.9</ele>
        <time>2018-06-24T07:48:56Z</time>
      </trkpt>
      <trkpt lat="45.42165" lon="5.67246">
        <ele>788</ele>
        <time>2018-06-24T07:49:06Z</time>
      </trkpt>
      <trkpt lat="45.42163" lon="5.67259">
        <ele>788.7</ele>
        <time>2018-06-24T07:49:15Z</time>
      </trkpt>
      <trkpt lat="45.42166" lon="5.67272">
        <ele>789.9</ele>
        <time>2018-06-24T07:49:22Z</time>
      </trkpt>
      <trkpt lat="45.4217" lon="5.67285">
        <ele>791.2</ele>
        <time>2018-06-24T07:49:29Z</time>
      </trkpt>
      <trkpt lat="45.42173" lon="5.67297">
        <ele>792.5</ele>
        <time>2018-06-24T07:49:38Z</time>
      </trkpt>
      <trkpt lat="45.42175" lon="5.6731">
        <ele>793.4</ele>
        <time>2018-06-24T07:49:46Z</time>
      </trkpt>
      <trkpt lat="45.42175" lon="5.67324">
        <ele>794.6</ele>
        <time>2018-06-24T07:49:55Z</time>
      </trkpt>
      <trkpt lat="45.42175" lon="5.67338">
        <ele>795.5</ele>
        <time>2018-06-24T07:50:04Z</time>
      </trkpt>
      <trkpt lat="45.42173" lon="5.6735">
        <ele>795.9</ele>
        <time>2018-06-24T07:50:12Z</time>
      </trkpt>
      <trkpt lat="45.42172" lon="5.67365">
        <ele>796.5</ele>
        <time>2018-06-24T07:50:20Z</time>
      </trkpt>
      <trkpt lat="45.42171" lon="5.67379">
        <ele>796.7</ele>
        <time>2018-06-24T07:50:27Z</time>
      </trkpt>
      <trkpt lat="45.42167" lon="5.67392">
        <ele>797</ele>
        <time>2018-06-24T07:50:33Z</time>
      </trkpt>
      <trkpt lat="45.42163" lon="5.67407">
        <ele>797.5</ele>
        <time>2018-06-24T07:50:39Z</time>
      </trkpt>
      <trkpt lat="45.42158" lon="5.67419">
        <ele>798</ele>
        <time>2018-06-24T07:50:45Z</time>
      </trkpt>
      <trkpt lat="45.42151" lon="5.67428">
        <ele>799.1</ele>
        <time>2018-06-24T07:50:52Z</time>
      </trkpt>
      <trkpt lat="45.42143" lon="5.67439">
        <ele>800.3</ele>
        <time>2018-06-24T07:50:59Z</time>
      </trkpt>
      <trkpt lat="45.42138" lon="5.67452">
        <ele>800.9</ele>
        <time>2018-06-24T07:51:06Z</time>
      </trkpt>
      <trkpt lat="45.42137" lon="5.67466">
        <ele>801.4</ele>
        <time>2018-06-24T07:51:12Z</time>
      </trkpt>
      <trkpt lat="45.42136" lon="5.67479">
        <ele>802.3</ele>
        <time>2018-06-24T07:51:18Z</time>
      </trkpt>
      <trkpt lat="45.42134" lon="5.67493">
        <ele>803.4</ele>
        <time>2018-06-24T07:51:26Z</time>
      </trkpt>
      <trkpt lat="45.42133" lon="5.67507">
        <ele>804.1</ele>
        <time>2018-06-24T07:51:32Z</time>
      </trkpt>
      <trkpt lat="45.4213" lon="5.6752">
        <ele>804.7</ele>
        <time>2018-06-24T07:51:37Z</time>
      </trkpt>
      <trkpt lat="45.42126" lon="5.67531">
        <ele>805.2</ele>
        <time>2018-06-24T07:51:42Z</time>
      </trkpt>
      <trkpt lat="45.42125" lon="5.67547">
        <ele>806.5</ele>
        <time>2018-06-24T07:51:48Z</time>
      </trkpt>
      <trkpt lat="45.42125" lon="5.67561">
        <ele>807.6</ele>
        <time>2018-06-24T07:51:54Z</time>
      </trkpt>
      <trkpt lat="45.42126" lon="5.67575">
        <ele>808.4</ele>
        <time>2018-06-24T07:52:01Z</time>
      </trkpt>
      <trkpt lat="45.42127" lon="5.67588">
        <ele>809.4</ele>
        <time>2018-06-24T07:52:07Z</time>
      </trkpt>
      <trkpt lat="45.42132" lon="5.67602">
        <ele>810.9</ele>
        <time>2018-06-24T07:52:13Z</time>
      </trkpt>
      <trkpt lat="45.42138" lon="5.67614">
        <ele>811.7</ele>
        <time>2018-06-24T07:52:19Z</time>
      </trkpt>
      <trkpt lat="45.42145" lon="5.67624">
        <ele>811.9</ele>
        <time>2018-06-24T07:52:24Z</time>
      </trkpt>
      <trkpt lat="45.42152" lon="5.67637">
        <ele>812</ele>
        <time>2018-06-24T07:52:30Z</time>
      </trkpt>
      <trkpt lat="45.42158" lon="5.67649">
        <ele>812.2</ele>
        <time>2018-06-24T07:52:33Z</time>
      </trkpt>
      <trkpt lat="45.42163" lon="5.67663">
        <ele>812.2</ele>
        <time>2018-06-24T07:52:37Z</time>
      </trkpt>
      <trkpt lat="45.42169" lon="5.67677">
        <ele>812.1</ele>
        <time>2018-06-24T07:52:41Z</time>
      </trkpt>
      <trkpt lat="45.42175" lon="5.67687">
        <ele>812</ele>
        <time>2018-06-24T07:52:44Z</time>
      </trkpt>
      <trkpt lat="45.42182" lon="5.67699">
        <ele>811.7</ele>
        <time>2018-06-24T07:52:47Z</time>
      </trkpt>
      <trkpt lat="45.42188" lon="5.67709">
        <ele>811.7</ele>
        <time>2018-06-24T07:52:49Z</time>
      </trkpt>
      <trkpt lat="45.42195" lon="5.67725">
        <ele>811.6</ele>
        <time>2018-06-24T07:52:52Z</time>
      </trkpt>
      <trkpt lat="45.42202" lon="5.67741">
        <ele>811.6</ele>
        <time>2018-06-24T07:52:55Z</time>
      </trkpt>
      <trkpt lat="45.42209" lon="5.67756">
        <ele>811.6</ele>
        <time>2018-06-24T07:52:58Z</time>
      </trkpt>
      <trkpt lat="45.42216" lon="5.67767">
        <ele>811.2</ele>
        <time>2018-06-24T07:53:01Z</time>
      </trkpt>
      <trkpt lat="45.42209" lon="5.67782">
        <ele>810.4</ele>
        <time>2018-06-24T07:53:05Z</time>
      </trkpt>
      <trkpt lat="45.422" lon="5.67789">
        <ele>810.1</ele>
        <time>2018-06-24T07:53:07Z</time>
      </trkpt>
      <trkpt lat="45.42189" lon="5.67782">
        <ele>808.5</ele>
        <time>2018-06-24T07:53:10Z</time>
      </trkpt>
      <trkpt lat="45.42183" lon="5.67773">
        <ele>807.8</ele>
        <time>2018-06-24T07:53:12Z</time>
      </trkpt>
      <trkpt lat="45.42174" lon="5.67762">
        <ele>807.3</ele>
        <time>2018-06-24T07:53:14Z</time>
      </trkpt>
      <trkpt lat="45.42164" lon="5.67753">
        <ele>806.9</ele>
        <time>2018-06-24T07:53:16Z</time>
      </trkpt>
      <trkpt lat="45.4215" lon="5.67746">
        <ele>806.3</ele>
        <time>2018-06-24T07:53:18Z</time>
      </trkpt>
      <trkpt lat="45.42139" lon="5.67735">
        <ele>805.1</ele>
        <time>2018-06-24T07:53:20Z</time>
      </trkpt>
      <trkpt lat="45.42128" lon="5.67726">
        <ele>803.7</ele>
        <time>2018-06-24T07:53:22Z</time>
      </trkpt>
      <trkpt lat="45.42119" lon="5.67722">
        <ele>797.1</ele>
        <time>2018-06-24T07:53:34Z</time>
      </trkpt>
      <trkpt lat="45.42113" lon="5.67713">
        <ele>796.2</ele>
        <time>2018-06-24T07:53:41Z</time>
      </trkpt>
      <trkpt lat="45.42105" lon="5.67705">
        <ele>795.5</ele>
        <time>2018-06-24T07:53:46Z</time>
      </trkpt>
      <trkpt lat="45.42097" lon="5.67697">
        <ele>794.9</ele>
        <time>2018-06-24T07:53:51Z</time>
      </trkpt>
      <trkpt lat="45.42088" lon="5.67687">
        <ele>795</ele>
        <time>2018-06-24T07:53:56Z</time>
      </trkpt>
      <trkpt lat="45.42083" lon="5.67674">
        <ele>795.6</ele>
        <time>2018-06-24T07:54:03Z</time>
      </trkpt>
      <trkpt lat="45.42077" lon="5.67662">
        <ele>796.5</ele>
        <time>2018-06-24T07:54:09Z</time>
      </trkpt>
      <trkpt lat="45.42072" lon="5.67648">
        <ele>796.7</ele>
        <time>2018-06-24T07:54:13Z</time>
      </trkpt>
      <trkpt lat="45.4206" lon="5.67641">
        <ele>796.1</ele>
        <time>2018-06-24T07:54:16Z</time>
      </trkpt>
      <trkpt lat="45.42055" lon="5.67629">
        <ele>795.3</ele>
        <time>2018-06-24T07:54:19Z</time>
      </trkpt>
      <trkpt lat="45.42054" lon="5.67614">
        <ele>793.8</ele>
        <time>2018-06-24T07:54:22Z</time>
      </trkpt>
      <trkpt lat="45.42057" lon="5.676">
        <ele>791.2</ele>
        <time>2018-06-24T07:54:28Z</time>
      </trkpt>
      <trkpt lat="45.42059" lon="5.67587">
        <ele>791.2</ele>
        <time>2018-06-24T07:54:31Z</time>
      </trkpt>
      <trkpt lat="45.42065" lon="5.67574">
        <ele>790.7</ele>
        <time>2018-06-24T07:54:34Z</time>
      </trkpt>
      <trkpt lat="45.42068" lon="5.67561">
        <ele>789.2</ele>
        <time>2018-06-24T07:54:39Z</time>
      </trkpt>
      <trkpt lat="45.42063" lon="5.67548">
        <ele>787.1</ele>
        <time>2018-06-24T07:54:43Z</time>
      </trkpt>
      <trkpt lat="45.42064" lon="5.67533">
        <ele>784.3</ele>
        <time>2018-06-24T07:54:47Z</time>
      </trkpt>
      <trkpt lat="45.42069" lon="5.67519">
        <ele>783</ele>
        <time>2018-06-24T07:54:50Z</time>
      </trkpt>
      <trkpt lat="45.42073" lon="5.67505">
        <ele>781.8</ele>
        <time>2018-06-24T07:54:56Z</time>
      </trkpt>
      <trkpt lat="45.4207" lon="5.67492">
        <ele>781.6</ele>
        <time>2018-06-24T07:55:07Z</time>
      </trkpt>
      <trkpt lat="45.4207" lon="5.67478">
        <ele>780.4</ele>
        <time>2018-06-24T07:55:24Z</time>
      </trkpt>
      <trkpt lat="45.42065" lon="5.67467">
        <ele>779.6</ele>
        <time>2018-06-24T07:55:29Z</time>
      </trkpt>
      <trkpt lat="45.4206" lon="5.67454">
        <ele>777.6</ele>
        <time>2018-06-24T07:55:35Z</time>
      </trkpt>
      <trkpt lat="45.42056" lon="5.67441">
        <ele>775.2</ele>
        <time>2018-06-24T07:55:40Z</time>
      </trkpt>
      <trkpt lat="45.42058" lon="5.67428">
        <ele>773.1</ele>
        <time>2018-06-24T07:55:45Z</time>
      </trkpt>
      <trkpt lat="45.42063" lon="5.67417">
        <ele>770.3</ele>
        <time>2018-06-24T07:56:00Z</time>
      </trkpt>
      <trkpt lat="45.42054" lon="5.67423">
        <ele>769.8</ele>
        <time>2018-06-24T07:56:31Z</time>
      </trkpt>
      <trkpt lat="45.42043" lon="5.67423">
        <ele>768.9</ele>
        <time>2018-06-24T07:56:36Z</time>
      </trkpt>
      <trkpt lat="45.42035" lon="5.67428">
        <ele>768.2</ele>
        <time>2018-06-24T07:56:38Z</time>
      </trkpt>
      <trkpt lat="45.42027" lon="5.67435">
        <ele>767.1</ele>
        <time>2018-06-24T07:56:41Z</time>
      </trkpt>
      <trkpt lat="45.42016" lon="5.67442">
        <ele>765.9</ele>
        <time>2018-06-24T07:56:46Z</time>
      </trkpt>
      <trkpt lat="45.42008" lon="5.67453">
        <ele>765.5</ele>
        <time>2018-06-24T07:56:49Z</time>
      </trkpt>
      <trkpt lat="45.42" lon="5.67459">
        <ele>765</ele>
        <time>2018-06-24T07:56:51Z</time>
      </trkpt>
      <trkpt lat="45.4199" lon="5.67468">
        <ele>764.2</ele>
        <time>2018-06-24T07:56:54Z</time>
      </trkpt>
      <trkpt lat="45.41982" lon="5.67477">
        <ele>763.8</ele>
        <time>2018-06-24T07:56:57Z</time>
      </trkpt>
      <trkpt lat="45.41973" lon="5.67489">
        <ele>763</ele>
        <time>2018-06-24T07:57:00Z</time>
      </trkpt>
      <trkpt lat="45.41964" lon="5.67497">
        <ele>761.7</ele>
        <time>2018-06-24T07:57:03Z</time>
      </trkpt>
      <trkpt lat="45.41955" lon="5.67498">
        <ele>759.9</ele>
        <time>2018-06-24T07:57:07Z</time>
      </trkpt>
      <trkpt lat="45.41943" lon="5.67498">
        <ele>757.9</ele>
        <time>2018-06-24T07:57:11Z</time>
      </trkpt>
      <trkpt lat="45.41932" lon="5.67497">
        <ele>755.5</ele>
        <time>2018-06-24T07:57:15Z</time>
      </trkpt>
      <trkpt lat="45.41923" lon="5.67499">
        <ele>752.1</ele>
        <time>2018-06-24T07:57:19Z</time>
      </trkpt>
      <trkpt lat="45.41914" lon="5.67504">
        <ele>747.8</ele>
        <time>2018-06-24T07:57:24Z</time>
      </trkpt>
      <trkpt lat="45.41905" lon="5.67512">
        <ele>743.8</ele>
        <time>2018-06-24T07:57:28Z</time>
      </trkpt>
      <trkpt lat="45.41897" lon="5.67521">
        <ele>741.3</ele>
        <time>2018-06-24T07:57:31Z</time>
      </trkpt>
      <trkpt lat="45.41889" lon="5.6753">
        <ele>737.3</ele>
        <time>2018-06-24T07:57:36Z</time>
      </trkpt>
      <trkpt lat="45.41882" lon="5.67538">
        <ele>733.9</ele>
        <time>2018-06-24T07:57:49Z</time>
      </trkpt>
      <trkpt lat="45.41872" lon="5.67539">
        <ele>732.8</ele>
        <time>2018-06-24T07:57:58Z</time>
      </trkpt>
      <trkpt lat="45.41864" lon="5.67547">
        <ele>731.7</ele>
        <time>2018-06-24T07:58:05Z</time>
      </trkpt>
      <trkpt lat="45.41855" lon="5.67555">
        <ele>732.7</ele>
        <time>2018-06-24T07:58:11Z</time>
      </trkpt>
      <trkpt lat="45.41847" lon="5.67563">
        <ele>734.4</ele>
        <time>2018-06-24T07:58:17Z</time>
      </trkpt>
      <trkpt lat="45.41837" lon="5.67563">
        <ele>736.5</ele>
        <time>2018-06-24T07:58:24Z</time>
      </trkpt>
      <trkpt lat="45.41828" lon="5.67562">
        <ele>736.8</ele>
        <time>2018-06-24T07:58:28Z</time>
      </trkpt>
      <trkpt lat="45.41818" lon="5.67568">
        <ele>736.2</ele>
        <time>2018-06-24T07:58:32Z</time>
      </trkpt>
      <trkpt lat="45.4181" lon="5.67574">
        <ele>734.7</ele>
        <time>2018-06-24T07:58:37Z</time>
      </trkpt>
      <trkpt lat="45.41801" lon="5.67579">
        <ele>733.2</ele>
        <time>2018-06-24T07:58:41Z</time>
      </trkpt>
      <trkpt lat="45.41791" lon="5.67588">
        <ele>730</ele>
        <time>2018-06-24T07:58:46Z</time>
      </trkpt>
      <trkpt lat="45.41789" lon="5.67601">
        <ele>727.6</ele>
        <time>2018-06-24T07:58:49Z</time>
      </trkpt>
      <trkpt lat="45.41791" lon="5.67614">
        <ele>724.7</ele>
        <time>2018-06-24T07:58:54Z</time>
      </trkpt>
      <trkpt lat="45.41791" lon="5.67631">
        <ele>722.9</ele>
        <time>2018-06-24T07:58:59Z</time>
      </trkpt>
      <trkpt lat="45.41794" lon="5.67644">
        <ele>720.1</ele>
        <time>2018-06-24T07:59:04Z</time>
      </trkpt>
      <trkpt lat="45.418" lon="5.67654">
        <ele>717.9</ele>
        <time>2018-06-24T07:59:11Z</time>
      </trkpt>
      <trkpt lat="45.41809" lon="5.67662">
        <ele>718.4</ele>
        <time>2018-06-24T07:59:20Z</time>
      </trkpt>
      <trkpt lat="45.41816" lon="5.67669">
        <ele>719.6</ele>
        <time>2018-06-24T07:59:27Z</time>
      </trkpt>
      <trkpt lat="45.41824" lon="5.67676">
        <ele>721.9</ele>
        <time>2018-06-24T07:59:37Z</time>
      </trkpt>
      <trkpt lat="45.41834" lon="5.67681">
        <ele>723.2</ele>
        <time>2018-06-24T07:59:44Z</time>
      </trkpt>
      <trkpt lat="45.41841" lon="5.67689">
        <ele>724.6</ele>
        <time>2018-06-24T07:59:51Z</time>
      </trkpt>
      <trkpt lat="45.41849" lon="5.67697">
        <ele>725.9</ele>
        <time>2018-06-24T07:59:59Z</time>
      </trkpt>
      <trkpt lat="45.41855" lon="5.67708">
        <ele>726.5</ele>
        <time>2018-06-24T08:00:07Z</time>
      </trkpt>
      <trkpt lat="45.4186" lon="5.67718">
        <ele>727.4</ele>
        <time>2018-06-24T08:00:15Z</time>
      </trkpt>
      <trkpt lat="45.41858" lon="5.67731">
        <ele>727.5</ele>
        <time>2018-06-24T08:00:25Z</time>
      </trkpt>
      <trkpt lat="45.41851" lon="5.67741">
        <ele>725.6</ele>
        <time>2018-06-24T08:00:31Z</time>
      </trkpt>
      <trkpt lat="45.41845" lon="5.67754">
        <ele>723.8</ele>
        <time>2018-06-24T08:00:36Z</time>
      </trkpt>
      <trkpt lat="45.41837" lon="5.67763">
        <ele>722</ele>
        <time>2018-06-24T08:00:39Z</time>
      </trkpt>
      <trkpt lat="45.41829" lon="5.67772">
        <ele>720</ele>
        <time>2018-06-24T08:00:42Z</time>
      </trkpt>
      <trkpt lat="45.4182" lon="5.67778">
        <ele>715.5</ele>
        <time>2018-06-24T08:00:48Z</time>
      </trkpt>
      <trkpt lat="45.41809" lon="5.67775">
        <ele>713.1</ele>
        <time>2018-06-24T08:00:52Z</time>
      </trkpt>
      <trkpt lat="45.41799" lon="5.67775">
        <ele>710.4</ele>
        <time>2018-06-24T08:00:56Z</time>
      </trkpt>
      <trkpt lat="45.41789" lon="5.67771">
        <ele>706.8</ele>
        <time>2018-06-24T08:01:01Z</time>
      </trkpt>
      <trkpt lat="45.4178" lon="5.67767">
        <ele>705.3</ele>
        <time>2018-06-24T08:01:04Z</time>
      </trkpt>
      <trkpt lat="45.41769" lon="5.67762">
        <ele>703.6</ele>
        <time>2018-06-24T08:01:07Z</time>
      </trkpt>
      <trkpt lat="45.41759" lon="5.67755">
        <ele>701.7</ele>
        <time>2018-06-24T08:01:11Z</time>
      </trkpt>
      <trkpt lat="45.41752" lon="5.67748">
        <ele>699.7</ele>
        <time>2018-06-24T08:01:16Z</time>
      </trkpt>
      <trkpt lat="45.41744" lon="5.67741">
        <ele>698.3</ele>
        <time>2018-06-24T08:01:20Z</time>
      </trkpt>
      <trkpt lat="45.41735" lon="5.67736">
        <ele>695.8</ele>
        <time>2018-06-24T08:01:25Z</time>
      </trkpt>
      <trkpt lat="45.41725" lon="5.67732">
        <ele>693</ele>
        <time>2018-06-24T08:01:32Z</time>
      </trkpt>
      <trkpt lat="45.41717" lon="5.67726">
        <ele>691.5</ele>
        <time>2018-06-24T08:01:36Z</time>
      </trkpt>
      <trkpt lat="45.41709" lon="5.67717">
        <ele>689.5</ele>
        <time>2018-06-24T08:01:40Z</time>
      </trkpt>
      <trkpt lat="45.41703" lon="5.67706">
        <ele>688.2</ele>
        <time>2018-06-24T08:01:43Z</time>
      </trkpt>
      <trkpt lat="45.41694" lon="5.67699">
        <ele>685.9</ele>
        <time>2018-06-24T08:01:48Z</time>
      </trkpt>
      <trkpt lat="45.41684" lon="5.67695">
        <ele>684.6</ele>
        <time>2018-06-24T08:01:51Z</time>
      </trkpt>
      <trkpt lat="45.41672" lon="5.67699">
        <ele>682.9</ele>
        <time>2018-06-24T08:01:54Z</time>
      </trkpt>
      <trkpt lat="45.41664" lon="5.67706">
        <ele>681.9</ele>
        <time>2018-06-24T08:01:56Z</time>
      </trkpt>
      <trkpt lat="45.41655" lon="5.67712">
        <ele>679.7</ele>
        <time>2018-06-24T08:02:02Z</time>
      </trkpt>
      <trkpt lat="45.4165" lon="5.67724">
        <ele>678.6</ele>
        <time>2018-06-24T08:02:09Z</time>
      </trkpt>
      <trkpt lat="45.41645" lon="5.67736">
        <ele>678.3</ele>
        <time>2018-06-24T08:02:41Z</time>
      </trkpt>
      <trkpt lat="45.41642" lon="5.67751">
        <ele>677.9</ele>
        <time>2018-06-24T08:02:48Z</time>
      </trkpt>
      <trkpt lat="45.41635" lon="5.6776">
        <ele>677.1</ele>
        <time>2018-06-24T08:02:54Z</time>
      </trkpt>
      <trkpt lat="45.41623" lon="5.67757">
        <ele>675.9</ele>
        <time>2018-06-24T08:02:59Z</time>
      </trkpt>
      <trkpt lat="45.41613" lon="5.67753">
        <ele>674.9</ele>
        <time>2018-06-24T08:03:01Z</time>
      </trkpt>
      <trkpt lat="45.41604" lon="5.67746">
        <ele>673.5</ele>
        <time>2018-06-24T08:03:03Z</time>
      </trkpt>
      <trkpt lat="45.41597" lon="5.67738">
        <ele>669.5</ele>
        <time>2018-06-24T08:03:08Z</time>
      </trkpt>
      <trkpt lat="45.41588" lon="5.67738">
        <ele>666.2</ele>
        <time>2018-06-24T08:03:17Z</time>
      </trkpt>
      <trkpt lat="45.41577" lon="5.67741">
        <ele>665.9</ele>
        <time>2018-06-24T08:03:21Z</time>
      </trkpt>
      <trkpt lat="45.4157" lon="5.67752">
        <ele>664.6</ele>
        <time>2018-06-24T08:03:25Z</time>
      </trkpt>
      <trkpt lat="45.41562" lon="5.67759">
        <ele>663.1</ele>
        <time>2018-06-24T08:03:28Z</time>
      </trkpt>
      <trkpt lat="45.41551" lon="5.67767">
        <ele>660.5</ele>
        <time>2018-06-24T08:03:32Z</time>
      </trkpt>
      <trkpt lat="45.41545" lon="5.67779">
        <ele>657.5</ele>
        <time>2018-06-24T08:03:35Z</time>
      </trkpt>
      <trkpt lat="45.41546" lon="5.67792">
        <ele>652.7</ele>
        <time>2018-06-24T08:03:42Z</time>
      </trkpt>
      <trkpt lat="45.41543" lon="5.67804">
        <ele>649.7</ele>
        <time>2018-06-24T08:04:06Z</time>
      </trkpt>
      <trkpt lat="45.41538" lon="5.67817">
        <ele>649.8</ele>
        <time>2018-06-24T08:04:13Z</time>
      </trkpt>
      <trkpt lat="45.41534" lon="5.67832">
        <ele>649.3</ele>
        <time>2018-06-24T08:04:18Z</time>
      </trkpt>
      <trkpt lat="45.41532" lon="5.67845">
        <ele>647.7</ele>
        <time>2018-06-24T08:04:22Z</time>
      </trkpt>
      <trkpt lat="45.4153" lon="5.6786">
        <ele>646</ele>
        <time>2018-06-24T08:04:26Z</time>
      </trkpt>
      <trkpt lat="45.41528" lon="5.67875">
        <ele>644.3</ele>
        <time>2018-06-24T08:04:30Z</time>
      </trkpt>
      <trkpt lat="45.41532" lon="5.67892">
        <ele>640.9</ele>
        <time>2018-06-24T08:04:34Z</time>
      </trkpt>
      <trkpt lat="45.41534" lon="5.67906">
        <ele>638.4</ele>
        <time>2018-06-24T08:04:38Z</time>
      </trkpt>
      <trkpt lat="45.41535" lon="5.6792">
        <ele>635.5</ele>
        <time>2018-06-24T08:04:44Z</time>
      </trkpt>
      <trkpt lat="45.41535" lon="5.67934">
        <ele>633.6</ele>
        <time>2018-06-24T08:04:51Z</time>
      </trkpt>
      <trkpt lat="45.41531" lon="5.67948">
        <ele>631.9</ele>
        <time>2018-06-24T08:04:55Z</time>
      </trkpt>
      <trkpt lat="45.41528" lon="5.67964">
        <ele>630.3</ele>
        <time>2018-06-24T08:04:58Z</time>
      </trkpt>
      <trkpt lat="45.4153" lon="5.67977">
        <ele>627.1</ele>
        <time>2018-06-24T08:05:09Z</time>
      </trkpt>
      <trkpt lat="45.41535" lon="5.67988">
        <ele>626.5</ele>
        <time>2018-06-24T08:05:19Z</time>
      </trkpt>
      <trkpt lat="45.41536" lon="5.68002">
        <ele>626.2</ele>
        <time>2018-06-24T08:05:43Z</time>
      </trkpt>
      <trkpt lat="45.41541" lon="5.68014">
        <ele>625.8</ele>
        <time>2018-06-24T08:05:48Z</time>
      </trkpt>
      <trkpt lat="45.41545" lon="5.68026">
        <ele>625</ele>
        <time>2018-06-24T08:05:52Z</time>
      </trkpt>
      <trkpt lat="45.41551" lon="5.68038">
        <ele>624.4</ele>
        <time>2018-06-24T08:05:57Z</time>
      </trkpt>
      <trkpt lat="45.41559" lon="5.6805">
        <ele>623.8</ele>
        <time>2018-06-24T08:06:00Z</time>
      </trkpt>
      <trkpt lat="45.41567" lon="5.6806">
        <ele>623.4</ele>
        <time>2018-06-24T08:06:03Z</time>
      </trkpt>
      <trkpt lat="45.41573" lon="5.68075">
        <ele>622.9</ele>
        <time>2018-06-24T08:06:06Z</time>
      </trkpt>
      <trkpt lat="45.41578" lon="5.68094">
        <ele>622.4</ele>
        <time>2018-06-24T08:06:09Z</time>
      </trkpt>
      <trkpt lat="45.41578" lon="5.68107">
        <ele>622</ele>
        <time>2018-06-24T08:06:11Z</time>
      </trkpt>
      <trkpt lat="45.41578" lon="5.68123">
        <ele>621.3</ele>
        <time>2018-06-24T08:06:14Z</time>
      </trkpt>
      <trkpt lat="45.41577" lon="5.68138">
        <ele>620.4</ele>
        <time>2018-06-24T08:06:17Z</time>
      </trkpt>
      <trkpt lat="45.41572" lon="5.68151">
        <ele>620</ele>
        <time>2018-06-24T08:06:20Z</time>
      </trkpt>
      <trkpt lat="45.41566" lon="5.68163">
        <ele>620.1</ele>
        <time>2018-06-24T08:06:23Z</time>
      </trkpt>
      <trkpt lat="45.41558" lon="5.68174">
        <ele>620.2</ele>
        <time>2018-06-24T08:06:27Z</time>
      </trkpt>
      <trkpt lat="45.41553" lon="5.68185">
        <ele>620.4</ele>
        <time>2018-06-24T08:06:31Z</time>
      </trkpt>
      <trkpt lat="45.41549" lon="5.68197">
        <ele>620.1</ele>
        <time>2018-06-24T08:06:36Z</time>
      </trkpt>
      <trkpt lat="45.41546" lon="5.68215">
        <ele>619.6</ele>
        <time>2018-06-24T08:06:39Z</time>
      </trkpt>
      <trkpt lat="45.41544" lon="5.68231">
        <ele>619.4</ele>
        <time>2018-06-24T08:06:41Z</time>
      </trkpt>
      <trkpt lat="45.4154" lon="5.68247">
        <ele>619.2</ele>
        <time>2018-06-24T08:06:43Z</time>
      </trkpt>
      <trkpt lat="45.41533" lon="5.68265">
        <ele>618</ele>
        <time>2018-06-24T08:06:45Z</time>
      </trkpt>
      <trkpt lat="45.41531" lon="5.68283">
        <ele>616.4</ele>
        <time>2018-06-24T08:06:47Z</time>
      </trkpt>
      <trkpt lat="45.41534" lon="5.68301">
        <ele>615</ele>
        <time>2018-06-24T08:06:49Z</time>
      </trkpt>
      <trkpt lat="45.41535" lon="5.6832">
        <ele>613.9</ele>
        <time>2018-06-24T08:06:51Z</time>
      </trkpt>
      <trkpt lat="45.41532" lon="5.68338">
        <ele>612.8</ele>
        <time>2018-06-24T08:06:53Z</time>
      </trkpt>
      <trkpt lat="45.41533" lon="5.68355">
        <ele>611.8</ele>
        <time>2018-06-24T08:06:55Z</time>
      </trkpt>
      <trkpt lat="45.41534" lon="5.68372">
        <ele>610.6</ele>
        <time>2018-06-24T08:06:58Z</time>
      </trkpt>
      <trkpt lat="45.41535" lon="5.68388">
        <ele>608.6</ele>
        <time>2018-06-24T08:07:01Z</time>
      </trkpt>
      <trkpt lat="45.4153" lon="5.68403">
        <ele>607.1</ele>
        <time>2018-06-24T08:07:03Z</time>
      </trkpt>
      <trkpt lat="45.41527" lon="5.68415">
        <ele>606.1</ele>
        <time>2018-06-24T08:07:05Z</time>
      </trkpt>
      <trkpt lat="45.41528" lon="5.68432">
        <ele>605.4</ele>
        <time>2018-06-24T08:07:08Z</time>
      </trkpt>
      <trkpt lat="45.41531" lon="5.68448">
        <ele>604.8</ele>
        <time>2018-06-24T08:07:11Z</time>
      </trkpt>
      <trkpt lat="45.41535" lon="5.6846">
        <ele>604.1</ele>
        <time>2018-06-24T08:07:14Z</time>
      </trkpt>
      <trkpt lat="45.41538" lon="5.68473">
        <ele>603.1</ele>
        <time>2018-06-24T08:07:24Z</time>
      </trkpt>
      <trkpt lat="45.41537" lon="5.68488">
        <ele>602.8</ele>
        <time>2018-06-24T08:07:29Z</time>
      </trkpt>
      <trkpt lat="45.4153" lon="5.68497">
        <ele>601</ele>
        <time>2018-06-24T08:07:36Z</time>
      </trkpt>
      <trkpt lat="45.41523" lon="5.68485">
        <ele>599.9</ele>
        <time>2018-06-24T08:07:40Z</time>
      </trkpt>
      <trkpt lat="45.41514" lon="5.68479">
        <ele>598</ele>
        <time>2018-06-24T08:07:44Z</time>
      </trkpt>
      <trkpt lat="45.41504" lon="5.68467">
        <ele>596.3</ele>
        <time>2018-06-24T08:07:48Z</time>
      </trkpt>
      <trkpt lat="45.41496" lon="5.68459">
        <ele>595.6</ele>
        <time>2018-06-24T08:07:50Z</time>
      </trkpt>
      <trkpt lat="45.4149" lon="5.68445">
        <ele>594.5</ele>
        <time>2018-06-24T08:07:52Z</time>
      </trkpt>
      <trkpt lat="45.41482" lon="5.68432">
        <ele>593</ele>
        <time>2018-06-24T08:07:54Z</time>
      </trkpt>
      <trkpt lat="45.41472" lon="5.68419">
        <ele>591.6</ele>
        <time>2018-06-24T08:07:56Z</time>
      </trkpt>
      <trkpt lat="45.41462" lon="5.68405">
        <ele>590.7</ele>
        <time>2018-06-24T08:07:58Z</time>
      </trkpt>
      <trkpt lat="45.41454" lon="5.68392">
        <ele>588.5</ele>
        <time>2018-06-24T08:08:00Z</time>
      </trkpt>
      <trkpt lat="45.41447" lon="5.68381">
        <ele>586.5</ele>
        <time>2018-06-24T08:08:02Z</time>
      </trkpt>
      <trkpt lat="45.41442" lon="5.68369">
        <ele>583</ele>
        <time>2018-06-24T08:08:07Z</time>
      </trkpt>
      <trkpt lat="45.41439" lon="5.68356">
        <ele>578.5</ele>
        <time>2018-06-24T08:08:24Z</time>
      </trkpt>
      <trkpt lat="45.41432" lon="5.68363">
        <ele>578.8</ele>
        <time>2018-06-24T08:10:07Z</time>
      </trkpt>
      <trkpt lat="45.41441" lon="5.68365">
        <ele>579.7</ele>
        <time>2018-06-24T08:10:58Z</time>
      </trkpt>
      <trkpt lat="45.41449" lon="5.68359">
        <ele>580.2</ele>
        <time>2018-06-24T08:12:03Z</time>
      </trkpt>
      <trkpt lat="45.4144" lon="5.68358">
        <ele>580.5</ele>
        <time>2018-06-24T08:12:41Z</time>
      </trkpt>
      <trkpt lat="45.41449" lon="5.6836">
        <ele>581.7</ele>
        <time>2018-06-24T08:14:02Z</time>
      </trkpt>
      <trkpt lat="45.4144" lon="5.68363">
        <ele>582.4</ele>
        <time>2018-06-24T08:15:18Z</time>
      </trkpt>
      <trkpt lat="45.41432" lon="5.68357">
        <ele>584.8</ele>
        <time>2018-06-24T08:15:48Z</time>
      </trkpt>
      <trkpt lat="45.41439" lon="5.68365">
        <ele>583.9</ele>
        <time>2018-06-24T08:17:18Z</time>
      </trkpt>
      <trkpt lat="45.41436" lon="5.68353">
        <ele>585.9</ele>
        <time>2018-06-24T08:19:18Z</time>
      </trkpt>
      <trkpt lat="45.41436" lon="5.6834">
        <ele>586.2</ele>
        <time>2018-06-24T08:19:25Z</time>
      </trkpt>
      <trkpt lat="45.41431" lon="5.68327">
        <ele>586.7</ele>
        <time>2018-06-24T08:19:31Z</time>
      </trkpt>
      <trkpt lat="45.41426" lon="5.68316">
        <ele>587.1</ele>
        <time>2018-06-24T08:19:35Z</time>
      </trkpt>
      <trkpt lat="45.41419" lon="5.68305">
        <ele>588</ele>
        <time>2018-06-24T08:19:40Z</time>
      </trkpt>
      <trkpt lat="45.41414" lon="5.68293">
        <ele>588.7</ele>
        <time>2018-06-24T08:19:45Z</time>
      </trkpt>
      <trkpt lat="45.41405" lon="5.68286">
        <ele>589.4</ele>
        <time>2018-06-24T08:19:50Z</time>
      </trkpt>
      <trkpt lat="45.41396" lon="5.68293">
        <ele>590</ele>
        <time>2018-06-24T08:19:55Z</time>
      </trkpt>
      <trkpt lat="45.4139" lon="5.68306">
        <ele>590.6</ele>
        <time>2018-06-24T08:20:00Z</time>
      </trkpt>
      <trkpt lat="45.41388" lon="5.68319">
        <ele>591.2</ele>
        <time>2018-06-24T08:20:06Z</time>
      </trkpt>
      <trkpt lat="45.41389" lon="5.68332">
        <ele>592.1</ele>
        <time>2018-06-24T08:20:11Z</time>
      </trkpt>
      <trkpt lat="45.41393" lon="5.68346">
        <ele>592.5</ele>
        <time>2018-06-24T08:20:16Z</time>
      </trkpt>
      <trkpt lat="45.41392" lon="5.68359">
        <ele>593</ele>
        <time>2018-06-24T08:20:20Z</time>
      </trkpt>
      <trkpt lat="45.41388" lon="5.68371">
        <ele>593.5</ele>
        <time>2018-06-24T08:20:24Z</time>
      </trkpt>
      <trkpt lat="45.41386" lon="5.68387">
        <ele>594</ele>
        <time>2018-06-24T08:20:28Z</time>
      </trkpt>
      <trkpt lat="45.41383" lon="5.68403">
        <ele>594.2</ele>
        <time>2018-06-24T08:20:32Z</time>
      </trkpt>
      <trkpt lat="45.41381" lon="5.68417">
        <ele>594.2</ele>
        <time>2018-06-24T08:20:35Z</time>
      </trkpt>
      <trkpt lat="45.41378" lon="5.6843">
        <ele>594.6</ele>
        <time>2018-06-24T08:20:38Z</time>
      </trkpt>
      <trkpt lat="45.41376" lon="5.68443">
        <ele>595.2</ele>
        <time>2018-06-24T08:20:41Z</time>
      </trkpt>
      <trkpt lat="45.41374" lon="5.68458">
        <ele>595.5</ele>
        <time>2018-06-24T08:20:44Z</time>
      </trkpt>
      <trkpt lat="45.41371" lon="5.68471">
        <ele>595.8</ele>
        <time>2018-06-24T08:20:47Z</time>
      </trkpt>
      <trkpt lat="45.41368" lon="5.68484">
        <ele>596.5</ele>
        <time>2018-06-24T08:20:50Z</time>
      </trkpt>
      <trkpt lat="45.41365" lon="5.685">
        <ele>597.2</ele>
        <time>2018-06-24T08:20:54Z</time>
      </trkpt>
      <trkpt lat="45.41365" lon="5.68515">
        <ele>598.1</ele>
        <time>2018-06-24T08:20:58Z</time>
      </trkpt>
      <trkpt lat="45.41365" lon="5.68529">
        <ele>598.8</ele>
        <time>2018-06-24T08:21:02Z</time>
      </trkpt>
      <trkpt lat="45.41365" lon="5.68543">
        <ele>599.4</ele>
        <time>2018-06-24T08:21:06Z</time>
      </trkpt>
      <trkpt lat="45.4136" lon="5.68557">
        <ele>600</ele>
        <time>2018-06-24T08:21:10Z</time>
      </trkpt>
      <trkpt lat="45.41351" lon="5.68566">
        <ele>600.5</ele>
        <time>2018-06-24T08:21:13Z</time>
      </trkpt>
      <trkpt lat="45.41343" lon="5.68573">
        <ele>601.1</ele>
        <time>2018-06-24T08:21:16Z</time>
      </trkpt>
      <trkpt lat="45.41334" lon="5.68577">
        <ele>601.6</ele>
        <time>2018-06-24T08:21:19Z</time>
      </trkpt>
      <trkpt lat="45.41326" lon="5.68584">
        <ele>601.9</ele>
        <time>2018-06-24T08:21:22Z</time>
      </trkpt>
      <trkpt lat="45.41315" lon="5.68591">
        <ele>602.1</ele>
        <time>2018-06-24T08:21:26Z</time>
      </trkpt>
      <trkpt lat="45.41305" lon="5.68597">
        <ele>602.2</ele>
        <time>2018-06-24T08:21:30Z</time>
      </trkpt>
      <trkpt lat="45.41297" lon="5.68608">
        <ele>602.8</ele>
        <time>2018-06-24T08:21:34Z</time>
      </trkpt>
      <trkpt lat="45.41293" lon="5.68621">
        <ele>603.5</ele>
        <time>2018-06-24T08:21:38Z</time>
      </trkpt>
      <trkpt lat="45.41286" lon="5.68634">
        <ele>603.7</ele>
        <time>2018-06-24T08:21:42Z</time>
      </trkpt>
      <trkpt lat="45.41279" lon="5.68622">
        <ele>604.1</ele>
        <time>2018-06-24T08:21:51Z</time>
      </trkpt>
      <trkpt lat="45.41277" lon="5.68608">
        <ele>604.8</ele>
        <time>2018-06-24T08:21:57Z</time>
      </trkpt>
      <trkpt lat="45.41275" lon="5.68596">
        <ele>606</ele>
        <time>2018-06-24T08:22:02Z</time>
      </trkpt>
      <trkpt lat="45.41274" lon="5.68582">
        <ele>607.3</ele>
        <time>2018-06-24T08:22:07Z</time>
      </trkpt>
      <trkpt lat="45.41275" lon="5.68569">
        <ele>608.8</ele>
        <time>2018-06-24T08:22:14Z</time>
      </trkpt>
      <trkpt lat="45.41273" lon="5.68553">
        <ele>610.4</ele>
        <time>2018-06-24T08:22:20Z</time>
      </trkpt>
      <trkpt lat="45.41272" lon="5.68537">
        <ele>612.1</ele>
        <time>2018-06-24T08:22:25Z</time>
      </trkpt>
      <trkpt lat="45.41273" lon="5.68524">
        <ele>613.1</ele>
        <time>2018-06-24T08:22:29Z</time>
      </trkpt>
      <trkpt lat="45.41274" lon="5.68509">
        <ele>613.6</ele>
        <time>2018-06-24T08:22:34Z</time>
      </trkpt>
      <trkpt lat="45.41275" lon="5.68496">
        <ele>614.2</ele>
        <time>2018-06-24T08:22:38Z</time>
      </trkpt>
      <trkpt lat="45.41276" lon="5.68482">
        <ele>614.7</ele>
        <time>2018-06-24T08:22:42Z</time>
      </trkpt>
      <trkpt lat="45.41274" lon="5.68467">
        <ele>615.1</ele>
        <time>2018-06-24T08:22:46Z</time>
      </trkpt>
      <trkpt lat="45.41272" lon="5.68452">
        <ele>615.4</ele>
        <time>2018-06-24T08:22:50Z</time>
      </trkpt>
      <trkpt lat="45.41269" lon="5.68437">
        <ele>615.5</ele>
        <time>2018-06-24T08:22:54Z</time>
      </trkpt>
      <trkpt lat="45.41266" lon="5.68423">
        <ele>615.6</ele>
        <time>2018-06-24T08:22:58Z</time>
      </trkpt>
      <trkpt lat="45.41264" lon="5.68405">
        <ele>615.7</ele>
        <time>2018-06-24T08:23:02Z</time>
      </trkpt>
      <trkpt lat="45.41261" lon="5.6839">
        <ele>615.7</ele>
        <time>2018-06-24T08:23:05Z</time>
      </trkpt>
      <trkpt lat="45.41258" lon="5.68375">
        <ele>615.6</ele>
        <time>2018-06-24T08:23:08Z</time>
      </trkpt>
      <trkpt lat="45.41254" lon="5.68363">
        <ele>615.6</ele>
        <time>2018-06-24T08:23:10Z</time>
      </trkpt>
      <trkpt lat="45.41251" lon="5.68348">
        <ele>615.6</ele>
        <time>2018-06-24T08:23:12Z</time>
      </trkpt>
      <trkpt lat="45.41247" lon="5.68335">
        <ele>615.7</ele>
        <time>2018-06-24T08:23:14Z</time>
      </trkpt>
      <trkpt lat="45.41246" lon="5.68319">
        <ele>616.2</ele>
        <time>2018-06-24T08:23:17Z</time>
      </trkpt>
      <trkpt lat="45.41245" lon="5.68303">
        <ele>616.6</ele>
        <time>2018-06-24T08:23:20Z</time>
      </trkpt>
      <trkpt lat="45.41247" lon="5.68287">
        <ele>616.9</ele>
        <time>2018-06-24T08:23:24Z</time>
      </trkpt>
      <trkpt lat="45.41249" lon="5.68273">
        <ele>617.6</ele>
        <time>2018-06-24T08:23:28Z</time>
      </trkpt>
      <trkpt lat="45.41249" lon="5.6826">
        <ele>618.5</ele>
        <time>2018-06-24T08:23:33Z</time>
      </trkpt>
      <trkpt lat="45.4125" lon="5.68245">
        <ele>619.6</ele>
        <time>2018-06-24T08:23:38Z</time>
      </trkpt>
      <trkpt lat="45.41247" lon="5.68231">
        <ele>620.3</ele>
        <time>2018-06-24T08:23:43Z</time>
      </trkpt>
      <trkpt lat="45.41238" lon="5.68224">
        <ele>621.4</ele>
        <time>2018-06-24T08:23:49Z</time>
      </trkpt>
      <trkpt lat="45.41228" lon="5.68219">
        <ele>622.1</ele>
        <time>2018-06-24T08:23:53Z</time>
      </trkpt>
      <trkpt lat="45.41219" lon="5.68212">
        <ele>622.7</ele>
        <time>2018-06-24T08:23:56Z</time>
      </trkpt>
      <trkpt lat="45.41209" lon="5.68206">
        <ele>623.2</ele>
        <time>2018-06-24T08:23:59Z</time>
      </trkpt>
      <trkpt lat="45.41199" lon="5.68194">
        <ele>623.8</ele>
        <time>2018-06-24T08:24:03Z</time>
      </trkpt>
      <trkpt lat="45.41193" lon="5.68183">
        <ele>624.1</ele>
        <time>2018-06-24T08:24:05Z</time>
      </trkpt>
      <trkpt lat="45.41187" lon="5.68167">
        <ele>624</ele>
        <time>2018-06-24T08:24:07Z</time>
      </trkpt>
      <trkpt lat="45.41181" lon="5.68149">
        <ele>623.6</ele>
        <time>2018-06-24T08:24:09Z</time>
      </trkpt>
      <trkpt lat="45.41168" lon="5.68135">
        <ele>622.7</ele>
        <time>2018-06-24T08:24:11Z</time>
      </trkpt>
      <trkpt lat="45.41156" lon="5.68124">
        <ele>621.7</ele>
        <time>2018-06-24T08:24:13Z</time>
      </trkpt>
      <trkpt lat="45.41149" lon="5.68113">
        <ele>621</ele>
        <time>2018-06-24T08:24:15Z</time>
      </trkpt>
      <trkpt lat="45.41142" lon="5.68099">
        <ele>620.3</ele>
        <time>2018-06-24T08:24:18Z</time>
      </trkpt>
      <trkpt lat="45.41137" lon="5.68087">
        <ele>619.9</ele>
        <time>2018-06-24T08:24:21Z</time>
      </trkpt>
      <trkpt lat="45.41131" lon="5.68074">
        <ele>620.3</ele>
        <time>2018-06-24T08:24:24Z</time>
      </trkpt>
      <trkpt lat="45.41127" lon="5.68059">
        <ele>620.9</ele>
        <time>2018-06-24T08:24:27Z</time>
      </trkpt>
      <trkpt lat="45.41124" lon="5.68042">
        <ele>621.7</ele>
        <time>2018-06-24T08:24:30Z</time>
      </trkpt>
      <trkpt lat="45.41121" lon="5.68025">
        <ele>622.2</ele>
        <time>2018-06-24T08:24:33Z</time>
      </trkpt>
      <trkpt lat="45.41117" lon="5.68009">
        <ele>622.5</ele>
        <time>2018-06-24T08:24:36Z</time>
      </trkpt>
      <trkpt lat="45.41111" lon="5.67996">
        <ele>622.7</ele>
        <time>2018-06-24T08:24:39Z</time>
      </trkpt>
      <trkpt lat="45.41104" lon="5.67984">
        <ele>623</ele>
        <time>2018-06-24T08:24:42Z</time>
      </trkpt>
      <trkpt lat="45.41095" lon="5.67974">
        <ele>623.3</ele>
        <time>2018-06-24T08:24:45Z</time>
      </trkpt>
      <trkpt lat="45.41084" lon="5.67964">
        <ele>623.6</ele>
        <time>2018-06-24T08:24:48Z</time>
      </trkpt>
      <trkpt lat="45.41076" lon="5.67954">
        <ele>623.7</ele>
        <time>2018-06-24T08:24:51Z</time>
      </trkpt>
      <trkpt lat="45.41071" lon="5.67939">
        <ele>624</ele>
        <time>2018-06-24T08:24:54Z</time>
      </trkpt>
      <trkpt lat="45.4106" lon="5.67935">
        <ele>624.1</ele>
        <time>2018-06-24T08:24:57Z</time>
      </trkpt>
      <trkpt lat="45.41052" lon="5.67945">
        <ele>624.4</ele>
        <time>2018-06-24T08:25:00Z</time>
      </trkpt>
      <trkpt lat="45.41044" lon="5.67955">
        <ele>625.2</ele>
        <time>2018-06-24T08:25:04Z</time>
      </trkpt>
      <trkpt lat="45.41037" lon="5.67966">
        <ele>626.8</ele>
        <time>2018-06-24T08:25:09Z</time>
      </trkpt>
      <trkpt lat="45.41028" lon="5.67967">
        <ele>628.6</ele>
        <time>2018-06-24T08:25:14Z</time>
      </trkpt>
      <trkpt lat="45.41019" lon="5.67971">
        <ele>630</ele>
        <time>2018-06-24T08:25:18Z</time>
      </trkpt>
      <trkpt lat="45.41009" lon="5.67978">
        <ele>631.6</ele>
        <time>2018-06-24T08:25:23Z</time>
      </trkpt>
      <trkpt lat="45.41002" lon="5.67988">
        <ele>632.5</ele>
        <time>2018-06-24T08:25:28Z</time>
      </trkpt>
      <trkpt lat="45.40999" lon="5.68001">
        <ele>633.6</ele>
        <time>2018-06-24T08:25:33Z</time>
      </trkpt>
      <trkpt lat="45.40997" lon="5.68015">
        <ele>634.6</ele>
        <time>2018-06-24T08:25:38Z</time>
      </trkpt>
      <trkpt lat="45.40996" lon="5.68028">
        <ele>635.7</ele>
        <time>2018-06-24T08:25:43Z</time>
      </trkpt>
      <trkpt lat="45.40995" lon="5.68043">
        <ele>636.3</ele>
        <time>2018-06-24T08:25:48Z</time>
      </trkpt>
      <trkpt lat="45.40994" lon="5.68056">
        <ele>636.7</ele>
        <time>2018-06-24T08:25:52Z</time>
      </trkpt>
      <trkpt lat="45.40984" lon="5.68059">
        <ele>636.9</ele>
        <time>2018-06-24T08:25:59Z</time>
      </trkpt>
      <trkpt lat="45.40976" lon="5.6805">
        <ele>637.4</ele>
        <time>2018-06-24T08:26:04Z</time>
      </trkpt>
      <trkpt lat="45.40967" lon="5.68042">
        <ele>637.8</ele>
        <time>2018-06-24T08:26:10Z</time>
      </trkpt>
      <trkpt lat="45.40959" lon="5.68033">
        <ele>638.6</ele>
        <time>2018-06-24T08:26:16Z</time>
      </trkpt>
      <trkpt lat="45.4095" lon="5.68025">
        <ele>639.5</ele>
        <time>2018-06-24T08:26:22Z</time>
      </trkpt>
      <trkpt lat="45.40942" lon="5.68018">
        <ele>640.6</ele>
        <time>2018-06-24T08:26:28Z</time>
      </trkpt>
      <trkpt lat="45.40934" lon="5.6801">
        <ele>641.7</ele>
        <time>2018-06-24T08:26:35Z</time>
      </trkpt>
      <trkpt lat="45.40926" lon="5.68002">
        <ele>642.9</ele>
        <time>2018-06-24T08:26:42Z</time>
      </trkpt>
      <trkpt lat="45.40918" lon="5.67995">
        <ele>644</ele>
        <time>2018-06-24T08:26:49Z</time>
      </trkpt>
      <trkpt lat="45.40911" lon="5.67987">
        <ele>646</ele>
        <time>2018-06-24T08:26:57Z</time>
      </trkpt>
      <trkpt lat="45.40903" lon="5.67977">
        <ele>647.4</ele>
        <time>2018-06-24T08:27:05Z</time>
      </trkpt>
      <trkpt lat="45.40897" lon="5.67968">
        <ele>648.6</ele>
        <time>2018-06-24T08:27:13Z</time>
      </trkpt>
      <trkpt lat="45.40891" lon="5.67956">
        <ele>649.9</ele>
        <time>2018-06-24T08:27:21Z</time>
      </trkpt>
      <trkpt lat="45.40884" lon="5.67945">
        <ele>650.7</ele>
        <time>2018-06-24T08:27:27Z</time>
      </trkpt>
      <trkpt lat="45.40877" lon="5.67936">
        <ele>651.2</ele>
        <time>2018-06-24T08:27:31Z</time>
      </trkpt>
      <trkpt lat="45.40869" lon="5.67928">
        <ele>651.6</ele>
        <time>2018-06-24T08:27:36Z</time>
      </trkpt>
      <trkpt lat="45.40862" lon="5.67918">
        <ele>651.9</ele>
        <time>2018-06-24T08:27:42Z</time>
      </trkpt>
      <trkpt lat="45.40855" lon="5.67909">
        <ele>653.3</ele>
        <time>2018-06-24T08:27:49Z</time>
      </trkpt>
      <trkpt lat="45.40846" lon="5.679">
        <ele>654.8</ele>
        <time>2018-06-24T08:27:56Z</time>
      </trkpt>
      <trkpt lat="45.40837" lon="5.67896">
        <ele>655.6</ele>
        <time>2018-06-24T08:28:02Z</time>
      </trkpt>
      <trkpt lat="45.40827" lon="5.67893">
        <ele>657.4</ele>
        <time>2018-06-24T08:28:09Z</time>
      </trkpt>
      <trkpt lat="45.40818" lon="5.6789">
        <ele>659.4</ele>
        <time>2018-06-24T08:28:16Z</time>
      </trkpt>
      <trkpt lat="45.40808" lon="5.67889">
        <ele>659.8</ele>
        <time>2018-06-24T08:28:23Z</time>
      </trkpt>
      <trkpt lat="45.40798" lon="5.67886">
        <ele>660.2</ele>
        <time>2018-06-24T08:28:29Z</time>
      </trkpt>
      <trkpt lat="45.4079" lon="5.6788">
        <ele>660.5</ele>
        <time>2018-06-24T08:28:34Z</time>
      </trkpt>
      <trkpt lat="45.40782" lon="5.6787">
        <ele>660.5</ele>
        <time>2018-06-24T08:28:39Z</time>
      </trkpt>
      <trkpt lat="45.40774" lon="5.67863">
        <ele>660.7</ele>
        <time>2018-06-24T08:28:43Z</time>
      </trkpt>
      <trkpt lat="45.40765" lon="5.67856">
        <ele>660.9</ele>
        <time>2018-06-24T08:28:47Z</time>
      </trkpt>
      <trkpt lat="45.40756" lon="5.67851">
        <ele>661.2</ele>
        <time>2018-06-24T08:28:52Z</time>
      </trkpt>
      <trkpt lat="45.40746" lon="5.6785">
        <ele>661.8</ele>
        <time>2018-06-24T08:28:57Z</time>
      </trkpt>
      <trkpt lat="45.40737" lon="5.6786">
        <ele>662.4</ele>
        <time>2018-06-24T08:29:03Z</time>
      </trkpt>
      <trkpt lat="45.40731" lon="5.67872">
        <ele>663</ele>
        <time>2018-06-24T08:29:24Z</time>
      </trkpt>
      <trkpt lat="45.4072" lon="5.6788">
        <ele>663.3</ele>
        <time>2018-06-24T08:29:28Z</time>
      </trkpt>
      <trkpt lat="45.40711" lon="5.67879">
        <ele>663.4</ele>
        <time>2018-06-24T08:29:30Z</time>
      </trkpt>
      <trkpt lat="45.40698" lon="5.67879">
        <ele>662.6</ele>
        <time>2018-06-24T08:29:33Z</time>
      </trkpt>
      <trkpt lat="45.40687" lon="5.67879">
        <ele>661.7</ele>
        <time>2018-06-24T08:29:36Z</time>
      </trkpt>
      <trkpt lat="45.40678" lon="5.67881">
        <ele>661.1</ele>
        <time>2018-06-24T08:29:39Z</time>
      </trkpt>
      <trkpt lat="45.40668" lon="5.67882">
        <ele>660.8</ele>
        <time>2018-06-24T08:29:42Z</time>
      </trkpt>
      <trkpt lat="45.40658" lon="5.67883">
        <ele>660.8</ele>
        <time>2018-06-24T08:29:45Z</time>
      </trkpt>
      <trkpt lat="45.40648" lon="5.67883">
        <ele>660.9</ele>
        <time>2018-06-24T08:29:48Z</time>
      </trkpt>
      <trkpt lat="45.40639" lon="5.67885">
        <ele>661.2</ele>
        <time>2018-06-24T08:29:51Z</time>
      </trkpt>
      <trkpt lat="45.40629" lon="5.67887">
        <ele>661.3</ele>
        <time>2018-06-24T08:29:54Z</time>
      </trkpt>
      <trkpt lat="45.40619" lon="5.67888">
        <ele>661.4</ele>
        <time>2018-06-24T08:29:57Z</time>
      </trkpt>
      <trkpt lat="45.4061" lon="5.67892">
        <ele>661.4</ele>
        <time>2018-06-24T08:30:00Z</time>
      </trkpt>
      <trkpt lat="45.40606" lon="5.67907">
        <ele>661.5</ele>
        <time>2018-06-24T08:30:04Z</time>
      </trkpt>
      <trkpt lat="45.406" lon="5.67919">
        <ele>661.5</ele>
        <time>2018-06-24T08:30:07Z</time>
      </trkpt>
      <trkpt lat="45.40591" lon="5.67926">
        <ele>661.6</ele>
        <time>2018-06-24T08:30:10Z</time>
      </trkpt>
      <trkpt lat="45.40581" lon="5.6793">
        <ele>661.4</ele>
        <time>2018-06-24T08:30:14Z</time>
      </trkpt>
      <trkpt lat="45.40572" lon="5.67932">
        <ele>661.3</ele>
        <time>2018-06-24T08:30:17Z</time>
      </trkpt>
      <trkpt lat="45.4056" lon="5.67932">
        <ele>661.2</ele>
        <time>2018-06-24T08:30:20Z</time>
      </trkpt>
      <trkpt lat="45.40548" lon="5.67927">
        <ele>661</ele>
        <time>2018-06-24T08:30:22Z</time>
      </trkpt>
      <trkpt lat="45.40537" lon="5.67924">
        <ele>660.5</ele>
        <time>2018-06-24T08:30:24Z</time>
      </trkpt>
      <trkpt lat="45.40526" lon="5.67923">
        <ele>659.8</ele>
        <time>2018-06-24T08:30:26Z</time>
      </trkpt>
      <trkpt lat="45.40515" lon="5.67919">
        <ele>659.3</ele>
        <time>2018-06-24T08:30:28Z</time>
      </trkpt>
      <trkpt lat="45.40503" lon="5.67915">
        <ele>658.9</ele>
        <time>2018-06-24T08:30:30Z</time>
      </trkpt>
      <trkpt lat="45.40492" lon="5.67909">
        <ele>657.9</ele>
        <time>2018-06-24T08:30:32Z</time>
      </trkpt>
      <trkpt lat="45.40482" lon="5.67902">
        <ele>656.7</ele>
        <time>2018-06-24T08:30:34Z</time>
      </trkpt>
      <trkpt lat="45.40472" lon="5.67894">
        <ele>655.9</ele>
        <time>2018-06-24T08:30:36Z</time>
      </trkpt>
      <trkpt lat="45.4046" lon="5.67896">
        <ele>654.7</ele>
        <time>2018-06-24T08:30:39Z</time>
      </trkpt>
      <trkpt lat="45.40456" lon="5.67907">
        <ele>653.6</ele>
        <time>2018-06-24T08:30:41Z</time>
      </trkpt>
      <trkpt lat="45.4046" lon="5.67923">
        <ele>652.6</ele>
        <time>2018-06-24T08:30:44Z</time>
      </trkpt>
      <trkpt lat="45.40465" lon="5.67938">
        <ele>651.7</ele>
        <time>2018-06-24T08:30:47Z</time>
      </trkpt>
      <trkpt lat="45.40468" lon="5.67955">
        <ele>650.4</ele>
        <time>2018-06-24T08:30:51Z</time>
      </trkpt>
      <trkpt lat="45.40471" lon="5.6797">
        <ele>650</ele>
        <time>2018-06-24T08:30:55Z</time>
      </trkpt>
      <trkpt lat="45.40475" lon="5.67984">
        <ele>650</ele>
        <time>2018-06-24T08:30:58Z</time>
      </trkpt>
      <trkpt lat="45.40481" lon="5.67996">
        <ele>650.1</ele>
        <time>2018-06-24T08:31:00Z</time>
      </trkpt>
      <trkpt lat="45.40485" lon="5.6801">
        <ele>649.9</ele>
        <time>2018-06-24T08:31:03Z</time>
      </trkpt>
      <trkpt lat="45.40478" lon="5.68018">
        <ele>649</ele>
        <time>2018-06-24T08:31:08Z</time>
      </trkpt>
      <trkpt lat="45.40468" lon="5.6802">
        <ele>648.5</ele>
        <time>2018-06-24T08:31:13Z</time>
      </trkpt>
      <trkpt lat="45.40458" lon="5.68021">
        <ele>649</ele>
        <time>2018-06-24T08:31:18Z</time>
      </trkpt>
      <trkpt lat="45.40447" lon="5.68019">
        <ele>649.4</ele>
        <time>2018-06-24T08:31:23Z</time>
      </trkpt>
      <trkpt lat="45.40437" lon="5.68018">
        <ele>649.8</ele>
        <time>2018-06-24T08:31:27Z</time>
      </trkpt>
      <trkpt lat="45.40426" lon="5.68014">
        <ele>650.1</ele>
        <time>2018-06-24T08:31:32Z</time>
      </trkpt>
      <trkpt lat="45.40416" lon="5.68012">
        <ele>650.4</ele>
        <time>2018-06-24T08:31:35Z</time>
      </trkpt>
      <trkpt lat="45.40406" lon="5.68007">
        <ele>650.9</ele>
        <time>2018-06-24T08:31:40Z</time>
      </trkpt>
      <trkpt lat="45.40395" lon="5.68003">
        <ele>651.4</ele>
        <time>2018-06-24T08:31:44Z</time>
      </trkpt>
      <trkpt lat="45.40383" lon="5.68001">
        <ele>651.6</ele>
        <time>2018-06-24T08:31:47Z</time>
      </trkpt>
      <trkpt lat="45.4037" lon="5.67999">
        <ele>651.6</ele>
        <time>2018-06-24T08:31:50Z</time>
      </trkpt>
      <trkpt lat="45.40357" lon="5.67997">
        <ele>651.2</ele>
        <time>2018-06-24T08:31:52Z</time>
      </trkpt>
      <trkpt lat="45.40343" lon="5.67996">
        <ele>650.6</ele>
        <time>2018-06-24T08:31:54Z</time>
      </trkpt>
      <trkpt lat="45.40333" lon="5.67994">
        <ele>650</ele>
        <time>2018-06-24T08:31:56Z</time>
      </trkpt>
      <trkpt lat="45.40323" lon="5.67994">
        <ele>649.2</ele>
        <time>2018-06-24T08:31:59Z</time>
      </trkpt>
      <trkpt lat="45.40314" lon="5.67992">
        <ele>648.7</ele>
        <time>2018-06-24T08:32:04Z</time>
      </trkpt>
      <trkpt lat="45.40304" lon="5.67986">
        <ele>648.6</ele>
        <time>2018-06-24T08:32:08Z</time>
      </trkpt>
      <trkpt lat="45.40294" lon="5.67983">
        <ele>648.9</ele>
        <time>2018-06-24T08:32:12Z</time>
      </trkpt>
      <trkpt lat="45.40287" lon="5.67973">
        <ele>649</ele>
        <time>2018-06-24T08:32:15Z</time>
      </trkpt>
      <trkpt lat="45.40284" lon="5.67959">
        <ele>648.5</ele>
        <time>2018-06-24T08:32:19Z</time>
      </trkpt>
      <trkpt lat="45.40285" lon="5.67941">
        <ele>647.7</ele>
        <time>2018-06-24T08:32:22Z</time>
      </trkpt>
      <trkpt lat="45.40283" lon="5.67928">
        <ele>647</ele>
        <time>2018-06-24T08:32:25Z</time>
      </trkpt>
      <trkpt lat="45.40282" lon="5.67912">
        <ele>646.7</ele>
        <time>2018-06-24T08:32:28Z</time>
      </trkpt>
      <trkpt lat="45.40281" lon="5.67896">
        <ele>646.6</ele>
        <time>2018-06-24T08:32:32Z</time>
      </trkpt>
      <trkpt lat="45.40283" lon="5.67883">
        <ele>647.3</ele>
        <time>2018-06-24T08:32:37Z</time>
      </trkpt>
      <trkpt lat="45.40284" lon="5.67868">
        <ele>647.9</ele>
        <time>2018-06-24T08:32:41Z</time>
      </trkpt>
      <trkpt lat="45.40286" lon="5.67853">
        <ele>648.9</ele>
        <time>2018-06-24T08:32:46Z</time>
      </trkpt>
      <trkpt lat="45.40288" lon="5.6784">
        <ele>650.5</ele>
        <time>2018-06-24T08:32:50Z</time>
      </trkpt>
      <trkpt lat="45.40289" lon="5.67828">
        <ele>651.8</ele>
        <time>2018-06-24T08:32:55Z</time>
      </trkpt>
      <trkpt lat="45.40285" lon="5.67814">
        <ele>653</ele>
        <time>2018-06-24T08:33:01Z</time>
      </trkpt>
      <trkpt lat="45.40281" lon="5.67801">
        <ele>653.4</ele>
        <time>2018-06-24T08:33:05Z</time>
      </trkpt>
      <trkpt lat="45.40275" lon="5.6779">
        <ele>653.3</ele>
        <time>2018-06-24T08:33:10Z</time>
      </trkpt>
      <trkpt lat="45.40272" lon="5.67776">
        <ele>653</ele>
        <time>2018-06-24T08:33:15Z</time>
      </trkpt>
      <trkpt lat="45.40266" lon="5.67761">
        <ele>652.9</ele>
        <time>2018-06-24T08:33:18Z</time>
      </trkpt>
      <trkpt lat="45.40261" lon="5.67745">
        <ele>652.3</ele>
        <time>2018-06-24T08:33:22Z</time>
      </trkpt>
      <trkpt lat="45.40257" lon="5.67726">
        <ele>651.9</ele>
        <time>2018-06-24T08:33:25Z</time>
      </trkpt>
      <trkpt lat="45.40254" lon="5.67708">
        <ele>651.1</ele>
        <time>2018-06-24T08:33:28Z</time>
      </trkpt>
      <trkpt lat="45.40251" lon="5.67694">
        <ele>650.8</ele>
        <time>2018-06-24T08:33:30Z</time>
      </trkpt>
      <trkpt lat="45.40249" lon="5.67681">
        <ele>650.6</ele>
        <time>2018-06-24T08:33:32Z</time>
      </trkpt>
      <trkpt lat="45.40246" lon="5.67667">
        <ele>650</ele>
        <time>2018-06-24T08:33:35Z</time>
      </trkpt>
      <trkpt lat="45.40249" lon="5.67647">
        <ele>648.8</ele>
        <time>2018-06-24T08:33:38Z</time>
      </trkpt>
      <trkpt lat="45.40253" lon="5.67634">
        <ele>647.9</ele>
        <time>2018-06-24T08:33:40Z</time>
      </trkpt>
      <trkpt lat="45.40255" lon="5.6762">
        <ele>645.8</ele>
        <time>2018-06-24T08:33:44Z</time>
      </trkpt>
      <trkpt lat="45.40247" lon="5.67608">
        <ele>644.4</ele>
        <time>2018-06-24T08:33:48Z</time>
      </trkpt>
      <trkpt lat="45.40233" lon="5.67606">
        <ele>643.3</ele>
        <time>2018-06-24T08:33:51Z</time>
      </trkpt>
      <trkpt lat="45.40224" lon="5.6761">
        <ele>642.5</ele>
        <time>2018-06-24T08:33:53Z</time>
      </trkpt>
      <trkpt lat="45.40216" lon="5.67617">
        <ele>641.5</ele>
        <time>2018-06-24T08:33:55Z</time>
      </trkpt>
      <trkpt lat="45.40208" lon="5.67623">
        <ele>640.8</ele>
        <time>2018-06-24T08:33:57Z</time>
      </trkpt>
      <trkpt lat="45.40198" lon="5.67628">
        <ele>640.1</ele>
        <time>2018-06-24T08:34:00Z</time>
      </trkpt>
      <trkpt lat="45.40189" lon="5.67633">
        <ele>639.6</ele>
        <time>2018-06-24T08:34:07Z</time>
      </trkpt>
      <trkpt lat="45.4018" lon="5.67635">
        <ele>639.8</ele>
        <time>2018-06-24T08:34:18Z</time>
      </trkpt>
      <trkpt lat="45.40171" lon="5.6764">
        <ele>639.4</ele>
        <time>2018-06-24T08:34:27Z</time>
      </trkpt>
      <trkpt lat="45.40163" lon="5.67646">
        <ele>639.3</ele>
        <time>2018-06-24T08:34:32Z</time>
      </trkpt>
      <trkpt lat="45.40155" lon="5.67652">
        <ele>639.5</ele>
        <time>2018-06-24T08:34:36Z</time>
      </trkpt>
      <trkpt lat="45.40146" lon="5.6766">
        <ele>639.5</ele>
        <time>2018-06-24T08:34:40Z</time>
      </trkpt>
      <trkpt lat="45.40135" lon="5.67663">
        <ele>639.4</ele>
        <time>2018-06-24T08:34:45Z</time>
      </trkpt>
      <trkpt lat="45.40124" lon="5.67665">
        <ele>639.7</ele>
        <time>2018-06-24T08:34:49Z</time>
      </trkpt>
      <trkpt lat="45.40114" lon="5.67665">
        <ele>639.8</ele>
        <time>2018-06-24T08:34:53Z</time>
      </trkpt>
      <trkpt lat="45.40103" lon="5.67663">
        <ele>639.6</ele>
        <time>2018-06-24T08:34:56Z</time>
      </trkpt>
      <trkpt lat="45.40093" lon="5.67664">
        <ele>639.5</ele>
        <time>2018-06-24T08:34:58Z</time>
      </trkpt>
      <trkpt lat="45.4008" lon="5.6767">
        <ele>639</ele>
        <time>2018-06-24T08:35:01Z</time>
      </trkpt>
      <trkpt lat="45.40069" lon="5.67673">
        <ele>638.8</ele>
        <time>2018-06-24T08:35:03Z</time>
      </trkpt>
      <trkpt lat="45.40059" lon="5.67677">
        <ele>638.4</ele>
        <time>2018-06-24T08:35:05Z</time>
      </trkpt>
      <trkpt lat="45.4005" lon="5.67681">
        <ele>637.9</ele>
        <time>2018-06-24T08:35:07Z</time>
      </trkpt>
      <trkpt lat="45.4004" lon="5.6769">
        <ele>637.5</ele>
        <time>2018-06-24T08:35:10Z</time>
      </trkpt>
      <trkpt lat="45.40032" lon="5.67698">
        <ele>637.4</ele>
        <time>2018-06-24T08:35:13Z</time>
      </trkpt>
      <trkpt lat="45.40024" lon="5.67708">
        <ele>636.9</ele>
        <time>2018-06-24T08:35:17Z</time>
      </trkpt>
      <trkpt lat="45.40019" lon="5.67718">
        <ele>636.6</ele>
        <time>2018-06-24T08:35:21Z</time>
      </trkpt>
      <trkpt lat="45.40016" lon="5.67732">
        <ele>636.5</ele>
        <time>2018-06-24T08:35:26Z</time>
      </trkpt>
      <trkpt lat="45.4001" lon="5.67747">
        <ele>634.7</ele>
        <time>2018-06-24T08:35:32Z</time>
      </trkpt>
      <trkpt lat="45.40001" lon="5.6776">
        <ele>632.3</ele>
        <time>2018-06-24T08:35:35Z</time>
      </trkpt>
      <trkpt lat="45.39994" lon="5.6777">
        <ele>631.2</ele>
        <time>2018-06-24T08:35:37Z</time>
      </trkpt>
      <trkpt lat="45.39981" lon="5.67769">
        <ele>631.4</ele>
        <time>2018-06-24T08:35:40Z</time>
      </trkpt>
      <trkpt lat="45.39971" lon="5.67764">
        <ele>631.2</ele>
        <time>2018-06-24T08:35:42Z</time>
      </trkpt>
      <trkpt lat="45.39961" lon="5.67761">
        <ele>630.6</ele>
        <time>2018-06-24T08:35:44Z</time>
      </trkpt>
      <trkpt lat="45.39953" lon="5.67747">
        <ele>629.5</ele>
        <time>2018-06-24T08:35:48Z</time>
      </trkpt>
      <trkpt lat="45.39944" lon="5.67737">
        <ele>627.7</ele>
        <time>2018-06-24T08:35:51Z</time>
      </trkpt>
      <trkpt lat="45.39935" lon="5.6773">
        <ele>627</ele>
        <time>2018-06-24T08:35:53Z</time>
      </trkpt>
      <trkpt lat="45.39924" lon="5.67724">
        <ele>626.5</ele>
        <time>2018-06-24T08:35:55Z</time>
      </trkpt>
      <trkpt lat="45.39913" lon="5.67716">
        <ele>626.1</ele>
        <time>2018-06-24T08:35:57Z</time>
      </trkpt>
      <trkpt lat="45.39903" lon="5.67711">
        <ele>625.9</ele>
        <time>2018-06-24T08:35:59Z</time>
      </trkpt>
      <trkpt lat="45.39893" lon="5.67707">
        <ele>625.6</ele>
        <time>2018-06-24T08:36:02Z</time>
      </trkpt>
      <trkpt lat="45.39884" lon="5.677">
        <ele>624.1</ele>
        <time>2018-06-24T08:36:06Z</time>
      </trkpt>
      <trkpt lat="45.39873" lon="5.67696">
        <ele>622.8</ele>
        <time>2018-06-24T08:36:10Z</time>
      </trkpt>
      <trkpt lat="45.39864" lon="5.67688">
        <ele>620.4</ele>
        <time>2018-06-24T08:36:15Z</time>
      </trkpt>
      <trkpt lat="45.39852" lon="5.67677">
        <ele>619.4</ele>
        <time>2018-06-24T08:36:18Z</time>
      </trkpt>
      <trkpt lat="45.39842" lon="5.67668">
        <ele>617.6</ele>
        <time>2018-06-24T08:36:20Z</time>
      </trkpt>
      <trkpt lat="45.39832" lon="5.67659">
        <ele>616.5</ele>
        <time>2018-06-24T08:36:22Z</time>
      </trkpt>
      <trkpt lat="45.39824" lon="5.67651">
        <ele>615.8</ele>
        <time>2018-06-24T08:36:24Z</time>
      </trkpt>
      <trkpt lat="45.39815" lon="5.6764">
        <ele>615.2</ele>
        <time>2018-06-24T08:36:27Z</time>
      </trkpt>
      <trkpt lat="45.39804" lon="5.67628">
        <ele>614.8</ele>
        <time>2018-06-24T08:36:30Z</time>
      </trkpt>
      <trkpt lat="45.39794" lon="5.6762">
        <ele>614.8</ele>
        <time>2018-06-24T08:36:33Z</time>
      </trkpt>
      <trkpt lat="45.39787" lon="5.67612">
        <ele>614.6</ele>
        <time>2018-06-24T08:36:38Z</time>
      </trkpt>
      <trkpt lat="45.3978" lon="5.67601">
        <ele>613</ele>
        <time>2018-06-24T08:37:08Z</time>
      </trkpt>
      <trkpt lat="45.39772" lon="5.67594">
        <ele>613</ele>
        <time>2018-06-24T08:37:11Z</time>
      </trkpt>
      <trkpt lat="45.3976" lon="5.67591">
        <ele>613</ele>
        <time>2018-06-24T08:37:15Z</time>
      </trkpt>
      <trkpt lat="45.39748" lon="5.67588">
        <ele>613.1</ele>
        <time>2018-06-24T08:37:18Z</time>
      </trkpt>
      <trkpt lat="45.3974" lon="5.67582">
        <ele>611.3</ele>
        <time>2018-06-24T08:37:21Z</time>
      </trkpt>
      <trkpt lat="45.39729" lon="5.67571">
        <ele>609.7</ele>
        <time>2018-06-24T08:37:25Z</time>
      </trkpt>
      <trkpt lat="45.39719" lon="5.67569">
        <ele>608.6</ele>
        <time>2018-06-24T08:37:27Z</time>
      </trkpt>
      <trkpt lat="45.39709" lon="5.67567">
        <ele>606.6</ele>
        <time>2018-06-24T08:37:30Z</time>
      </trkpt>
      <trkpt lat="45.39699" lon="5.6757">
        <ele>603.6</ele>
        <time>2018-06-24T08:37:36Z</time>
      </trkpt>
      <trkpt lat="45.3969" lon="5.67572">
        <ele>601.4</ele>
        <time>2018-06-24T08:37:49Z</time>
      </trkpt>
      <trkpt lat="45.39698" lon="5.67579">
        <ele>600.1</ele>
        <time>2018-06-24T08:38:35Z</time>
      </trkpt>
      <trkpt lat="45.39706" lon="5.67588">
        <ele>599.8</ele>
        <time>2018-06-24T08:38:39Z</time>
      </trkpt>
      <trkpt lat="45.39712" lon="5.67601">
        <ele>600</ele>
        <time>2018-06-24T08:38:43Z</time>
      </trkpt>
      <trkpt lat="45.39718" lon="5.67612">
        <ele>600.1</ele>
        <time>2018-06-24T08:38:46Z</time>
      </trkpt>
      <trkpt lat="45.39726" lon="5.67624">
        <ele>599.4</ele>
        <time>2018-06-24T08:38:50Z</time>
      </trkpt>
      <trkpt lat="45.39731" lon="5.67634">
        <ele>598.8</ele>
        <time>2018-06-24T08:38:53Z</time>
      </trkpt>
      <trkpt lat="45.39738" lon="5.67645">
        <ele>598.6</ele>
        <time>2018-06-24T08:38:56Z</time>
      </trkpt>
      <trkpt lat="45.39744" lon="5.67659">
        <ele>598.7</ele>
        <time>2018-06-24T08:38:59Z</time>
      </trkpt>
      <trkpt lat="45.3975" lon="5.67672">
        <ele>598.7</ele>
        <time>2018-06-24T08:39:02Z</time>
      </trkpt>
      <trkpt lat="45.39755" lon="5.67685">
        <ele>598.8</ele>
        <time>2018-06-24T08:39:05Z</time>
      </trkpt>
      <trkpt lat="45.3976" lon="5.67695">
        <ele>598.7</ele>
        <time>2018-06-24T08:39:08Z</time>
      </trkpt>
      <trkpt lat="45.39768" lon="5.67707">
        <ele>598.8</ele>
        <time>2018-06-24T08:39:12Z</time>
      </trkpt>
      <trkpt lat="45.39775" lon="5.67718">
        <ele>598.7</ele>
        <time>2018-06-24T08:39:16Z</time>
      </trkpt>
      <trkpt lat="45.39784" lon="5.67729">
        <ele>598.8</ele>
        <time>2018-06-24T08:39:20Z</time>
      </trkpt>
      <trkpt lat="45.39792" lon="5.67739">
        <ele>599.3</ele>
        <time>2018-06-24T08:39:24Z</time>
      </trkpt>
      <trkpt lat="45.398" lon="5.67749">
        <ele>599.5</ele>
        <time>2018-06-24T08:39:28Z</time>
      </trkpt>
      <trkpt lat="45.39808" lon="5.67759">
        <ele>599.5</ele>
        <time>2018-06-24T08:39:32Z</time>
      </trkpt>
      <trkpt lat="45.39817" lon="5.67771">
        <ele>599.5</ele>
        <time>2018-06-24T08:39:36Z</time>
      </trkpt>
      <trkpt lat="45.39822" lon="5.67784">
        <ele>599.5</ele>
        <time>2018-06-24T08:39:40Z</time>
      </trkpt>
      <trkpt lat="45.39825" lon="5.67796">
        <ele>599.7</ele>
        <time>2018-06-24T08:39:43Z</time>
      </trkpt>
      <trkpt lat="45.39828" lon="5.67809">
        <ele>600.1</ele>
        <time>2018-06-24T08:39:46Z</time>
      </trkpt>
      <trkpt lat="45.39834" lon="5.67823">
        <ele>600.5</ele>
        <time>2018-06-24T08:39:50Z</time>
      </trkpt>
      <trkpt lat="45.39842" lon="5.67835">
        <ele>600.7</ele>
        <time>2018-06-24T08:39:54Z</time>
      </trkpt>
      <trkpt lat="45.39848" lon="5.67846">
        <ele>600.8</ele>
        <time>2018-06-24T08:39:57Z</time>
      </trkpt>
      <trkpt lat="45.39855" lon="5.67858">
        <ele>600.9</ele>
        <time>2018-06-24T08:40:01Z</time>
      </trkpt>
      <trkpt lat="45.39863" lon="5.67867">
        <ele>601.2</ele>
        <time>2018-06-24T08:40:05Z</time>
      </trkpt>
      <trkpt lat="45.39871" lon="5.67876">
        <ele>602.3</ele>
        <time>2018-06-24T08:40:10Z</time>
      </trkpt>
      <trkpt lat="45.39878" lon="5.67887">
        <ele>602.9</ele>
        <time>2018-06-24T08:40:15Z</time>
      </trkpt>
      <trkpt lat="45.39887" lon="5.67894">
        <ele>603.8</ele>
        <time>2018-06-24T08:40:21Z</time>
      </trkpt>
      <trkpt lat="45.39895" lon="5.679">
        <ele>604.4</ele>
        <time>2018-06-24T08:40:26Z</time>
      </trkpt>
      <trkpt lat="45.39904" lon="5.67907">
        <ele>605</ele>
        <time>2018-06-24T08:40:32Z</time>
      </trkpt>
      <trkpt lat="45.39913" lon="5.67916">
        <ele>605.3</ele>
        <time>2018-06-24T08:40:37Z</time>
      </trkpt>
      <trkpt lat="45.39917" lon="5.67928">
        <ele>605.7</ele>
        <time>2018-06-24T08:40:43Z</time>
      </trkpt>
      <trkpt lat="45.39926" lon="5.67937">
        <ele>605.9</ele>
        <time>2018-06-24T08:40:50Z</time>
      </trkpt>
      <trkpt lat="45.39935" lon="5.67947">
        <ele>606</ele>
        <time>2018-06-24T08:40:55Z</time>
      </trkpt>
      <trkpt lat="45.39944" lon="5.67957">
        <ele>605.7</ele>
        <time>2018-06-24T08:40:59Z</time>
      </trkpt>
      <trkpt lat="45.39952" lon="5.67969">
        <ele>605.3</ele>
        <time>2018-06-24T08:41:04Z</time>
      </trkpt>
      <trkpt lat="45.3996" lon="5.67979">
        <ele>605.2</ele>
        <time>2018-06-24T08:41:08Z</time>
      </trkpt>
      <trkpt lat="45.39966" lon="5.67991">
        <ele>605.1</ele>
        <time>2018-06-24T08:41:13Z</time>
      </trkpt>
      <trkpt lat="45.39975" lon="5.68001">
        <ele>604.8</ele>
        <time>2018-06-24T08:41:18Z</time>
      </trkpt>
      <trkpt lat="45.39981" lon="5.68011">
        <ele>604.8</ele>
        <time>2018-06-24T08:41:21Z</time>
      </trkpt>
      <trkpt lat="45.39989" lon="5.68021">
        <ele>604.1</ele>
        <time>2018-06-24T08:41:25Z</time>
      </trkpt>
      <trkpt lat="45.39997" lon="5.6803">
        <ele>603.8</ele>
        <time>2018-06-24T08:41:29Z</time>
      </trkpt>
      <trkpt lat="45.40005" lon="5.6804">
        <ele>604</ele>
        <time>2018-06-24T08:41:33Z</time>
      </trkpt>
      <trkpt lat="45.4001" lon="5.68052">
        <ele>604.4</ele>
        <time>2018-06-24T08:41:37Z</time>
      </trkpt>
      <trkpt lat="45.40017" lon="5.68064">
        <ele>604.7</ele>
        <time>2018-06-24T08:41:42Z</time>
      </trkpt>
      <trkpt lat="45.40025" lon="5.6807">
        <ele>604.8</ele>
        <time>2018-06-24T08:41:46Z</time>
      </trkpt>
      <trkpt lat="45.40036" lon="5.68069">
        <ele>605.1</ele>
        <time>2018-06-24T08:41:51Z</time>
      </trkpt>
      <trkpt lat="45.40045" lon="5.68073">
        <ele>605</ele>
        <time>2018-06-24T08:41:55Z</time>
      </trkpt>
      <trkpt lat="45.40053" lon="5.68081">
        <ele>605</ele>
        <time>2018-06-24T08:41:59Z</time>
      </trkpt>
      <trkpt lat="45.40061" lon="5.6809">
        <ele>605.3</ele>
        <time>2018-06-24T08:42:03Z</time>
      </trkpt>
      <trkpt lat="45.40071" lon="5.68095">
        <ele>605.4</ele>
        <time>2018-06-24T08:42:07Z</time>
      </trkpt>
      <trkpt lat="45.40081" lon="5.68099">
        <ele>605.6</ele>
        <time>2018-06-24T08:42:11Z</time>
      </trkpt>
      <trkpt lat="45.4009" lon="5.68105">
        <ele>605.8</ele>
        <time>2018-06-24T08:42:16Z</time>
      </trkpt>
      <trkpt lat="45.40099" lon="5.68113">
        <ele>606</ele>
        <time>2018-06-24T08:42:20Z</time>
      </trkpt>
      <trkpt lat="45.40107" lon="5.68118">
        <ele>606.2</ele>
        <time>2018-06-24T08:42:24Z</time>
      </trkpt>
      <trkpt lat="45.40118" lon="5.68122">
        <ele>606.9</ele>
        <time>2018-06-24T08:42:29Z</time>
      </trkpt>
      <trkpt lat="45.40129" lon="5.68127">
        <ele>607.1</ele>
        <time>2018-06-24T08:42:33Z</time>
      </trkpt>
      <trkpt lat="45.40138" lon="5.68134">
        <ele>607</ele>
        <time>2018-06-24T08:42:38Z</time>
      </trkpt>
      <trkpt lat="45.40148" lon="5.68139">
        <ele>608.1</ele>
        <time>2018-06-24T08:42:45Z</time>
      </trkpt>
      <trkpt lat="45.40157" lon="5.68142">
        <ele>609.3</ele>
        <time>2018-06-24T08:42:50Z</time>
      </trkpt>
      <trkpt lat="45.40166" lon="5.68143">
        <ele>610.7</ele>
        <time>2018-06-24T08:42:58Z</time>
      </trkpt>
      <trkpt lat="45.40175" lon="5.68148">
        <ele>611.7</ele>
        <time>2018-06-24T08:43:05Z</time>
      </trkpt>
      <trkpt lat="45.40185" lon="5.68149">
        <ele>612.6</ele>
        <time>2018-06-24T08:43:11Z</time>
      </trkpt>
      <trkpt lat="45.40194" lon="5.68156">
        <ele>613.8</ele>
        <time>2018-06-24T08:43:17Z</time>
      </trkpt>
      <trkpt lat="45.40203" lon="5.6816">
        <ele>615</ele>
        <time>2018-06-24T08:43:24Z</time>
      </trkpt>
      <trkpt lat="45.40214" lon="5.68162">
        <ele>616.4</ele>
        <time>2018-06-24T08:43:31Z</time>
      </trkpt>
      <trkpt lat="45.40223" lon="5.68168">
        <ele>617.3</ele>
        <time>2018-06-24T08:43:38Z</time>
      </trkpt>
      <trkpt lat="45.40232" lon="5.68172">
        <ele>618.3</ele>
        <time>2018-06-24T08:43:44Z</time>
      </trkpt>
      <trkpt lat="45.4024" lon="5.68178">
        <ele>619.2</ele>
        <time>2018-06-24T08:43:52Z</time>
      </trkpt>
      <trkpt lat="45.4025" lon="5.68184">
        <ele>619.8</ele>
        <time>2018-06-24T08:44:00Z</time>
      </trkpt>
      <trkpt lat="45.40257" lon="5.68191">
        <ele>620.6</ele>
        <time>2018-06-24T08:44:07Z</time>
      </trkpt>
      <trkpt lat="45.40266" lon="5.68196">
        <ele>621.7</ele>
        <time>2018-06-24T08:44:15Z</time>
      </trkpt>
      <trkpt lat="45.40274" lon="5.68201">
        <ele>621.9</ele>
        <time>2018-06-24T08:44:22Z</time>
      </trkpt>
      <trkpt lat="45.40283" lon="5.68207">
        <ele>622.4</ele>
        <time>2018-06-24T08:44:27Z</time>
      </trkpt>
      <trkpt lat="45.40292" lon="5.68214">
        <ele>622.6</ele>
        <time>2018-06-24T08:44:34Z</time>
      </trkpt>
      <trkpt lat="45.403" lon="5.68223">
        <ele>622.9</ele>
        <time>2018-06-24T08:44:39Z</time>
      </trkpt>
      <trkpt lat="45.4031" lon="5.68225">
        <ele>623.3</ele>
        <time>2018-06-24T08:44:45Z</time>
      </trkpt>
      <trkpt lat="45.4032" lon="5.68229">
        <ele>623.7</ele>
        <time>2018-06-24T08:44:51Z</time>
      </trkpt>
      <trkpt lat="45.40329" lon="5.68229">
        <ele>624</ele>
        <time>2018-06-24T08:44:56Z</time>
      </trkpt>
      <trkpt lat="45.40339" lon="5.68231">
        <ele>624.3</ele>
        <time>2018-06-24T08:45:03Z</time>
      </trkpt>
      <trkpt lat="45.40349" lon="5.68235">
        <ele>624.8</ele>
        <time>2018-06-24T08:45:10Z</time>
      </trkpt>
      <trkpt lat="45.40358" lon="5.68239">
        <ele>624.8</ele>
        <time>2018-06-24T08:45:13Z</time>
      </trkpt>
      <trkpt lat="45.40366" lon="5.68244">
        <ele>624.9</ele>
        <time>2018-06-24T08:45:17Z</time>
      </trkpt>
      <trkpt lat="45.40376" lon="5.68245">
        <ele>625.6</ele>
        <time>2018-06-24T08:45:22Z</time>
      </trkpt>
      <trkpt lat="45.40385" lon="5.68248">
        <ele>626.2</ele>
        <time>2018-06-24T08:45:27Z</time>
      </trkpt>
      <trkpt lat="45.40394" lon="5.68249">
        <ele>626.7</ele>
        <time>2018-06-24T08:45:30Z</time>
      </trkpt>
      <trkpt lat="45.40403" lon="5.68253">
        <ele>627.2</ele>
        <time>2018-06-24T08:45:34Z</time>
      </trkpt>
      <trkpt lat="45.40413" lon="5.68258">
        <ele>627.6</ele>
        <time>2018-06-24T08:45:39Z</time>
      </trkpt>
      <trkpt lat="45.40421" lon="5.68264">
        <ele>627.7</ele>
        <time>2018-06-24T08:45:43Z</time>
      </trkpt>
      <trkpt lat="45.40429" lon="5.68273">
        <ele>627.9</ele>
        <time>2018-06-24T08:45:47Z</time>
      </trkpt>
      <trkpt lat="45.40437" lon="5.68282">
        <ele>628.3</ele>
        <time>2018-06-24T08:45:53Z</time>
      </trkpt>
      <trkpt lat="45.40446" lon="5.68292">
        <ele>628.3</ele>
        <time>2018-06-24T08:45:58Z</time>
      </trkpt>
      <trkpt lat="45.40455" lon="5.683">
        <ele>628.9</ele>
        <time>2018-06-24T08:46:03Z</time>
      </trkpt>
      <trkpt lat="45.40463" lon="5.68309">
        <ele>629.2</ele>
        <time>2018-06-24T08:46:07Z</time>
      </trkpt>
      <trkpt lat="45.40471" lon="5.68317">
        <ele>629.4</ele>
        <time>2018-06-24T08:46:11Z</time>
      </trkpt>
      <trkpt lat="45.4048" lon="5.68322">
        <ele>629.8</ele>
        <time>2018-06-24T08:46:15Z</time>
      </trkpt>
      <trkpt lat="45.40488" lon="5.68326">
        <ele>630.1</ele>
        <time>2018-06-24T08:46:19Z</time>
      </trkpt>
      <trkpt lat="45.40498" lon="5.68329">
        <ele>630.1</ele>
        <time>2018-06-24T08:46:23Z</time>
      </trkpt>
      <trkpt lat="45.40507" lon="5.68332">
        <ele>630</ele>
        <time>2018-06-24T08:46:26Z</time>
      </trkpt>
      <trkpt lat="45.40517" lon="5.68335">
        <ele>630</ele>
        <time>2018-06-24T08:46:29Z</time>
      </trkpt>
      <trkpt lat="45.40526" lon="5.68337">
        <ele>630.2</ele>
        <time>2018-06-24T08:46:32Z</time>
      </trkpt>
      <trkpt lat="45.40535" lon="5.68342">
        <ele>630.3</ele>
        <time>2018-06-24T08:46:35Z</time>
      </trkpt>
      <trkpt lat="45.40546" lon="5.68347">
        <ele>630.3</ele>
        <time>2018-06-24T08:46:38Z</time>
      </trkpt>
      <trkpt lat="45.40554" lon="5.68351">
        <ele>630.3</ele>
        <time>2018-06-24T08:46:41Z</time>
      </trkpt>
      <trkpt lat="45.40566" lon="5.68356">
        <ele>630.1</ele>
        <time>2018-06-24T08:46:45Z</time>
      </trkpt>
      <trkpt lat="45.40576" lon="5.68359">
        <ele>630.2</ele>
        <time>2018-06-24T08:46:48Z</time>
      </trkpt>
      <trkpt lat="45.40585" lon="5.68363">
        <ele>630.2</ele>
        <time>2018-06-24T08:46:51Z</time>
      </trkpt>
      <trkpt lat="45.40593" lon="5.68369">
        <ele>630.3</ele>
        <time>2018-06-24T08:46:54Z</time>
      </trkpt>
      <trkpt lat="45.40602" lon="5.68376">
        <ele>629.7</ele>
        <time>2018-06-24T08:46:57Z</time>
      </trkpt>
      <trkpt lat="45.40611" lon="5.68384">
        <ele>629.9</ele>
        <time>2018-06-24T08:47:00Z</time>
      </trkpt>
      <trkpt lat="45.4062" lon="5.6839">
        <ele>630.1</ele>
        <time>2018-06-24T08:47:03Z</time>
      </trkpt>
      <trkpt lat="45.4063" lon="5.68394">
        <ele>630</ele>
        <time>2018-06-24T08:47:06Z</time>
      </trkpt>
      <trkpt lat="45.40639" lon="5.68399">
        <ele>630.3</ele>
        <time>2018-06-24T08:47:09Z</time>
      </trkpt>
      <trkpt lat="45.40648" lon="5.68404">
        <ele>630.5</ele>
        <time>2018-06-24T08:47:12Z</time>
      </trkpt>
      <trkpt lat="45.40658" lon="5.68411">
        <ele>630.1</ele>
        <time>2018-06-24T08:47:15Z</time>
      </trkpt>
      <trkpt lat="45.40666" lon="5.68419">
        <ele>630.2</ele>
        <time>2018-06-24T08:47:18Z</time>
      </trkpt>
      <trkpt lat="45.40674" lon="5.68427">
        <ele>630.7</ele>
        <time>2018-06-24T08:47:21Z</time>
      </trkpt>
      <trkpt lat="45.40681" lon="5.68436">
        <ele>630.9</ele>
        <time>2018-06-24T08:47:24Z</time>
      </trkpt>
      <trkpt lat="45.40689" lon="5.68445">
        <ele>631</ele>
        <time>2018-06-24T08:47:27Z</time>
      </trkpt>
      <trkpt lat="45.40697" lon="5.68455">
        <ele>631.1</ele>
        <time>2018-06-24T08:47:30Z</time>
      </trkpt>
      <trkpt lat="45.40702" lon="5.68465">
        <ele>631.2</ele>
        <time>2018-06-24T08:47:33Z</time>
      </trkpt>
      <trkpt lat="45.40708" lon="5.68479">
        <ele>631.7</ele>
        <time>2018-06-24T08:47:37Z</time>
      </trkpt>
      <trkpt lat="45.40714" lon="5.68492">
        <ele>632.1</ele>
        <time>2018-06-24T08:47:41Z</time>
      </trkpt>
      <trkpt lat="45.40719" lon="5.68504">
        <ele>632.3</ele>
        <time>2018-06-24T08:47:44Z</time>
      </trkpt>
      <trkpt lat="45.40725" lon="5.68519">
        <ele>632.5</ele>
        <time>2018-06-24T08:47:48Z</time>
      </trkpt>
      <trkpt lat="45.40729" lon="5.68533">
        <ele>633.1</ele>
        <time>2018-06-24T08:47:52Z</time>
      </trkpt>
      <trkpt lat="45.40733" lon="5.68548">
        <ele>633.4</ele>
        <time>2018-06-24T08:47:56Z</time>
      </trkpt>
      <trkpt lat="45.40734" lon="5.68563">
        <ele>633.5</ele>
        <time>2018-06-24T08:48:00Z</time>
      </trkpt>
      <trkpt lat="45.40738" lon="5.68577">
        <ele>634.1</ele>
        <time>2018-06-24T08:48:04Z</time>
      </trkpt>
      <trkpt lat="45.40742" lon="5.6859">
        <ele>634.4</ele>
        <time>2018-06-24T08:48:08Z</time>
      </trkpt>
      <trkpt lat="45.40747" lon="5.68603">
        <ele>635</ele>
        <time>2018-06-24T08:48:12Z</time>
      </trkpt>
      <trkpt lat="45.40751" lon="5.68616">
        <ele>635.5</ele>
        <time>2018-06-24T08:48:16Z</time>
      </trkpt>
      <trkpt lat="45.40755" lon="5.68631">
        <ele>636</ele>
        <time>2018-06-24T08:48:20Z</time>
      </trkpt>
      <trkpt lat="45.40759" lon="5.68646">
        <ele>636.5</ele>
        <time>2018-06-24T08:48:24Z</time>
      </trkpt>
      <trkpt lat="45.40763" lon="5.68661">
        <ele>636.9</ele>
        <time>2018-06-24T08:48:28Z</time>
      </trkpt>
      <trkpt lat="45.40766" lon="5.68677">
        <ele>637.4</ele>
        <time>2018-06-24T08:48:32Z</time>
      </trkpt>
      <trkpt lat="45.40766" lon="5.68691">
        <ele>638</ele>
        <time>2018-06-24T08:48:36Z</time>
      </trkpt>
      <trkpt lat="45.40775" lon="5.68701">
        <ele>638.8</ele>
        <time>2018-06-24T08:48:42Z</time>
      </trkpt>
      <trkpt lat="45.4078" lon="5.68712">
        <ele>639.5</ele>
        <time>2018-06-24T08:48:46Z</time>
      </trkpt>
      <trkpt lat="45.40785" lon="5.68727">
        <ele>639.5</ele>
        <time>2018-06-24T08:48:50Z</time>
      </trkpt>
      <trkpt lat="45.40791" lon="5.68739">
        <ele>639.3</ele>
        <time>2018-06-24T08:48:53Z</time>
      </trkpt>
      <trkpt lat="45.40799" lon="5.68745">
        <ele>638.8</ele>
        <time>2018-06-24T08:48:55Z</time>
      </trkpt>
      <trkpt lat="45.4081" lon="5.68745">
        <ele>638.1</ele>
        <time>2018-06-24T08:48:57Z</time>
      </trkpt>
      <trkpt lat="45.40822" lon="5.68742">
        <ele>637.2</ele>
        <time>2018-06-24T08:48:59Z</time>
      </trkpt>
      <trkpt lat="45.40832" lon="5.68736">
        <ele>636.1</ele>
        <time>2018-06-24T08:49:01Z</time>
      </trkpt>
      <trkpt lat="45.40843" lon="5.68734">
        <ele>635.2</ele>
        <time>2018-06-24T08:49:03Z</time>
      </trkpt>
      <trkpt lat="45.40856" lon="5.68739">
        <ele>634.6</ele>
        <time>2018-06-24T08:49:05Z</time>
      </trkpt>
      <trkpt lat="45.40867" lon="5.68748">
        <ele>634.2</ele>
        <time>2018-06-24T08:49:07Z</time>
      </trkpt>
      <trkpt lat="45.40878" lon="5.68759">
        <ele>633.2</ele>
        <time>2018-06-24T08:49:09Z</time>
      </trkpt>
      <trkpt lat="45.40889" lon="5.6877">
        <ele>631.7</ele>
        <time>2018-06-24T08:49:11Z</time>
      </trkpt>
      <trkpt lat="45.40897" lon="5.6878">
        <ele>629.6</ele>
        <time>2018-06-24T08:49:14Z</time>
      </trkpt>
      <trkpt lat="45.40899" lon="5.68767">
        <ele>627</ele>
        <time>2018-06-24T08:49:33Z</time>
      </trkpt>
      <trkpt lat="45.40911" lon="5.6876">
        <ele>627</ele>
        <time>2018-06-24T08:49:36Z</time>
      </trkpt>
      <trkpt lat="45.4092" lon="5.68762">
        <ele>625.2</ele>
        <time>2018-06-24T08:49:40Z</time>
      </trkpt>
      <trkpt lat="45.40929" lon="5.68767">
        <ele>623.9</ele>
        <time>2018-06-24T08:49:44Z</time>
      </trkpt>
      <trkpt lat="45.40938" lon="5.68774">
        <ele>622.7</ele>
        <time>2018-06-24T08:49:47Z</time>
      </trkpt>
      <trkpt lat="45.40949" lon="5.68786">
        <ele>621.6</ele>
        <time>2018-06-24T08:49:50Z</time>
      </trkpt>
      <trkpt lat="45.40957" lon="5.68794">
        <ele>621.2</ele>
        <time>2018-06-24T08:49:52Z</time>
      </trkpt>
      <trkpt lat="45.40964" lon="5.68803">
        <ele>620.5</ele>
        <time>2018-06-24T08:49:54Z</time>
      </trkpt>
      <trkpt lat="45.40974" lon="5.68813">
        <ele>619.7</ele>
        <time>2018-06-24T08:49:57Z</time>
      </trkpt>
      <trkpt lat="45.40983" lon="5.68818">
        <ele>619.3</ele>
        <time>2018-06-24T08:50:00Z</time>
      </trkpt>
      <trkpt lat="45.40994" lon="5.68817">
        <ele>618.8</ele>
        <time>2018-06-24T08:50:03Z</time>
      </trkpt>
      <trkpt lat="45.41002" lon="5.68811">
        <ele>618.4</ele>
        <time>2018-06-24T08:50:05Z</time>
      </trkpt>
      <trkpt lat="45.41011" lon="5.68803">
        <ele>617.9</ele>
        <time>2018-06-24T08:50:07Z</time>
      </trkpt>
      <trkpt lat="45.41021" lon="5.68801">
        <ele>617.3</ele>
        <time>2018-06-24T08:50:09Z</time>
      </trkpt>
      <trkpt lat="45.41031" lon="5.68804">
        <ele>616.5</ele>
        <time>2018-06-24T08:50:11Z</time>
      </trkpt>
      <trkpt lat="45.4104" lon="5.68807">
        <ele>615.7</ele>
        <time>2018-06-24T08:50:13Z</time>
      </trkpt>
      <trkpt lat="45.4105" lon="5.68809">
        <ele>614.9</ele>
        <time>2018-06-24T08:50:15Z</time>
      </trkpt>
      <trkpt lat="45.41063" lon="5.6881">
        <ele>614.2</ele>
        <time>2018-06-24T08:50:18Z</time>
      </trkpt>
      <trkpt lat="45.41072" lon="5.68806">
        <ele>613</ele>
        <time>2018-06-24T08:50:21Z</time>
      </trkpt>
      <trkpt lat="45.41081" lon="5.68803">
        <ele>612.4</ele>
        <time>2018-06-24T08:50:24Z</time>
      </trkpt>
      <trkpt lat="45.4109" lon="5.68796">
        <ele>612.3</ele>
        <time>2018-06-24T08:50:27Z</time>
      </trkpt>
      <trkpt lat="45.41098" lon="5.68788">
        <ele>612.2</ele>
        <time>2018-06-24T08:50:30Z</time>
      </trkpt>
      <trkpt lat="45.41106" lon="5.68778">
        <ele>612.6</ele>
        <time>2018-06-24T08:50:34Z</time>
      </trkpt>
      <trkpt lat="45.41111" lon="5.68766">
        <ele>613</ele>
        <time>2018-06-24T08:50:38Z</time>
      </trkpt>
      <trkpt lat="45.41117" lon="5.68754">
        <ele>613.2</ele>
        <time>2018-06-24T08:50:42Z</time>
      </trkpt>
      <trkpt lat="45.41125" lon="5.68744">
        <ele>613.2</ele>
        <time>2018-06-24T08:50:46Z</time>
      </trkpt>
      <trkpt lat="45.41133" lon="5.68737">
        <ele>613.3</ele>
        <time>2018-06-24T08:50:51Z</time>
      </trkpt>
      <trkpt lat="45.41144" lon="5.68731">
        <ele>613.6</ele>
        <time>2018-06-24T08:50:56Z</time>
      </trkpt>
      <trkpt lat="45.41152" lon="5.68726">
        <ele>614.2</ele>
        <time>2018-06-24T08:51:00Z</time>
      </trkpt>
      <trkpt lat="45.41162" lon="5.68724">
        <ele>614.5</ele>
        <time>2018-06-24T08:51:04Z</time>
      </trkpt>
      <trkpt lat="45.41173" lon="5.68728">
        <ele>615.5</ele>
        <time>2018-06-24T08:51:10Z</time>
      </trkpt>
      <trkpt lat="45.41183" lon="5.6873">
        <ele>615.6</ele>
        <time>2018-06-24T08:51:13Z</time>
      </trkpt>
      <trkpt lat="45.41193" lon="5.68736">
        <ele>615.7</ele>
        <time>2018-06-24T08:51:16Z</time>
      </trkpt>
      <trkpt lat="45.41204" lon="5.68741">
        <ele>615.8</ele>
        <time>2018-06-24T08:51:20Z</time>
      </trkpt>
      <trkpt lat="45.41215" lon="5.68747">
        <ele>615.8</ele>
        <time>2018-06-24T08:51:24Z</time>
      </trkpt>
      <trkpt lat="45.41224" lon="5.68751">
        <ele>615.8</ele>
        <time>2018-06-24T08:51:27Z</time>
      </trkpt>
      <trkpt lat="45.41237" lon="5.6875">
        <ele>615.7</ele>
        <time>2018-06-24T08:51:30Z</time>
      </trkpt>
      <trkpt lat="45.41247" lon="5.68749">
        <ele>615.7</ele>
        <time>2018-06-24T08:51:33Z</time>
      </trkpt>
      <trkpt lat="45.41257" lon="5.68747">
        <ele>615.5</ele>
        <time>2018-06-24T08:51:36Z</time>
      </trkpt>
      <trkpt lat="45.41267" lon="5.68747">
        <ele>615.3</ele>
        <time>2018-06-24T08:51:38Z</time>
      </trkpt>
      <trkpt lat="45.41277" lon="5.68747">
        <ele>615.1</ele>
        <time>2018-06-24T08:51:41Z</time>
      </trkpt>
      <trkpt lat="45.41282" lon="5.68758">
        <ele>615.2</ele>
        <time>2018-06-24T08:51:48Z</time>
      </trkpt>
      <trkpt lat="45.41283" lon="5.68773">
        <ele>615.1</ele>
        <time>2018-06-24T08:51:53Z</time>
      </trkpt>
      <trkpt lat="45.41284" lon="5.68786">
        <ele>615.1</ele>
        <time>2018-06-24T08:51:57Z</time>
      </trkpt>
      <trkpt lat="45.41287" lon="5.68799">
        <ele>614.8</ele>
        <time>2018-06-24T08:52:01Z</time>
      </trkpt>
      <trkpt lat="45.4129" lon="5.68814">
        <ele>615.1</ele>
        <time>2018-06-24T08:52:05Z</time>
      </trkpt>
      <trkpt lat="45.41291" lon="5.68827">
        <ele>615.4</ele>
        <time>2018-06-24T08:52:08Z</time>
      </trkpt>
      <trkpt lat="45.41292" lon="5.6884">
        <ele>615.5</ele>
        <time>2018-06-24T08:52:11Z</time>
      </trkpt>
      <trkpt lat="45.41293" lon="5.68856">
        <ele>615.6</ele>
        <time>2018-06-24T08:52:15Z</time>
      </trkpt>
      <trkpt lat="45.41295" lon="5.6887">
        <ele>615.7</ele>
        <time>2018-06-24T08:52:18Z</time>
      </trkpt>
      <trkpt lat="45.41298" lon="5.68884">
        <ele>615.7</ele>
        <time>2018-06-24T08:52:21Z</time>
      </trkpt>
      <trkpt lat="45.413" lon="5.68899">
        <ele>615.7</ele>
        <time>2018-06-24T08:52:24Z</time>
      </trkpt>
      <trkpt lat="45.41304" lon="5.68912">
        <ele>615.7</ele>
        <time>2018-06-24T08:52:27Z</time>
      </trkpt>
      <trkpt lat="45.41308" lon="5.68924">
        <ele>615.7</ele>
        <time>2018-06-24T08:52:30Z</time>
      </trkpt>
      <trkpt lat="45.41313" lon="5.68939">
        <ele>615.9</ele>
        <time>2018-06-24T08:52:34Z</time>
      </trkpt>
      <trkpt lat="45.41317" lon="5.68954">
        <ele>616.1</ele>
        <time>2018-06-24T08:52:38Z</time>
      </trkpt>
      <trkpt lat="45.41322" lon="5.68969">
        <ele>616.5</ele>
        <time>2018-06-24T08:52:42Z</time>
      </trkpt>
      <trkpt lat="45.41327" lon="5.68985">
        <ele>616.6</ele>
        <time>2018-06-24T08:52:46Z</time>
      </trkpt>
      <trkpt lat="45.4133" lon="5.68996">
        <ele>616.9</ele>
        <time>2018-06-24T08:52:49Z</time>
      </trkpt>
      <trkpt lat="45.41335" lon="5.69012">
        <ele>617.4</ele>
        <time>2018-06-24T08:52:53Z</time>
      </trkpt>
      <trkpt lat="45.41339" lon="5.69028">
        <ele>617.5</ele>
        <time>2018-06-24T08:52:57Z</time>
      </trkpt>
      <trkpt lat="45.41343" lon="5.69039">
        <ele>617.6</ele>
        <time>2018-06-24T08:53:00Z</time>
      </trkpt>
      <trkpt lat="45.41347" lon="5.69056">
        <ele>617.6</ele>
        <time>2018-06-24T08:53:04Z</time>
      </trkpt>
      <trkpt lat="45.41352" lon="5.69071">
        <ele>617.9</ele>
        <time>2018-06-24T08:53:08Z</time>
      </trkpt>
      <trkpt lat="45.41356" lon="5.69083">
        <ele>618</ele>
        <time>2018-06-24T08:53:11Z</time>
      </trkpt>
      <trkpt lat="45.41361" lon="5.69096">
        <ele>617.9</ele>
        <time>2018-06-24T08:53:14Z</time>
      </trkpt>
      <trkpt lat="45.41364" lon="5.69108">
        <ele>618.1</ele>
        <time>2018-06-24T08:53:17Z</time>
      </trkpt>
      <trkpt lat="45.41368" lon="5.69121">
        <ele>618.3</ele>
        <time>2018-06-24T08:53:20Z</time>
      </trkpt>
      <trkpt lat="45.41371" lon="5.69134">
        <ele>618.5</ele>
        <time>2018-06-24T08:53:23Z</time>
      </trkpt>
      <trkpt lat="45.41373" lon="5.69147">
        <ele>618.8</ele>
        <time>2018-06-24T08:53:26Z</time>
      </trkpt>
      <trkpt lat="45.41374" lon="5.6916">
        <ele>619</ele>
        <time>2018-06-24T08:53:29Z</time>
      </trkpt>
      <trkpt lat="45.41374" lon="5.69173">
        <ele>619.4</ele>
        <time>2018-06-24T08:53:32Z</time>
      </trkpt>
      <trkpt lat="45.41373" lon="5.69186">
        <ele>619.6</ele>
        <time>2018-06-24T08:53:35Z</time>
      </trkpt>
      <trkpt lat="45.41374" lon="5.692">
        <ele>619.7</ele>
        <time>2018-06-24T08:53:38Z</time>
      </trkpt>
      <trkpt lat="45.41372" lon="5.69213">
        <ele>619.7</ele>
        <time>2018-06-24T08:53:41Z</time>
      </trkpt>
      <trkpt lat="45.41372" lon="5.69226">
        <ele>619.6</ele>
        <time>2018-06-24T08:53:44Z</time>
      </trkpt>
      <trkpt lat="45.41372" lon="5.6924">
        <ele>619.7</ele>
        <time>2018-06-24T08:53:47Z</time>
      </trkpt>
      <trkpt lat="45.41375" lon="5.69254">
        <ele>619.8</ele>
        <time>2018-06-24T08:53:50Z</time>
      </trkpt>
      <trkpt lat="45.41381" lon="5.69264">
        <ele>619.9</ele>
        <time>2018-06-24T08:53:53Z</time>
      </trkpt>
      <trkpt lat="45.41388" lon="5.69275">
        <ele>620.2</ele>
        <time>2018-06-24T08:53:56Z</time>
      </trkpt>
      <trkpt lat="45.41396" lon="5.69284">
        <ele>620.3</ele>
        <time>2018-06-24T08:53:59Z</time>
      </trkpt>
      <trkpt lat="45.41404" lon="5.69292">
        <ele>620.4</ele>
        <time>2018-06-24T08:54:02Z</time>
      </trkpt>
      <trkpt lat="45.41411" lon="5.693">
        <ele>620.8</ele>
        <time>2018-06-24T08:54:05Z</time>
      </trkpt>
      <trkpt lat="45.41418" lon="5.69309">
        <ele>621.1</ele>
        <time>2018-06-24T08:54:08Z</time>
      </trkpt>
      <trkpt lat="45.41425" lon="5.6932">
        <ele>621.3</ele>
        <time>2018-06-24T08:54:11Z</time>
      </trkpt>
      <trkpt lat="45.41431" lon="5.69331">
        <ele>621.4</ele>
        <time>2018-06-24T08:54:14Z</time>
      </trkpt>
      <trkpt lat="45.41436" lon="5.69342">
        <ele>621.5</ele>
        <time>2018-06-24T08:54:17Z</time>
      </trkpt>
      <trkpt lat="45.41442" lon="5.69353">
        <ele>621.6</ele>
        <time>2018-06-24T08:54:20Z</time>
      </trkpt>
      <trkpt lat="45.41449" lon="5.69363">
        <ele>621.7</ele>
        <time>2018-06-24T08:54:23Z</time>
      </trkpt>
      <trkpt lat="45.41457" lon="5.69371">
        <ele>621.6</ele>
        <time>2018-06-24T08:54:26Z</time>
      </trkpt>
      <trkpt lat="45.41467" lon="5.69378">
        <ele>621.4</ele>
        <time>2018-06-24T08:54:30Z</time>
      </trkpt>
      <trkpt lat="45.41474" lon="5.69367">
        <ele>621.8</ele>
        <time>2018-06-24T08:54:35Z</time>
      </trkpt>
      <trkpt lat="45.41479" lon="5.69354">
        <ele>622.6</ele>
        <time>2018-06-24T08:54:41Z</time>
      </trkpt>
      <trkpt lat="45.41482" lon="5.69341">
        <ele>622.9</ele>
        <time>2018-06-24T08:54:45Z</time>
      </trkpt>
      <trkpt lat="45.41485" lon="5.69327">
        <ele>623.6</ele>
        <time>2018-06-24T08:54:51Z</time>
      </trkpt>
      <trkpt lat="45.41488" lon="5.69315">
        <ele>624.4</ele>
        <time>2018-06-24T08:54:56Z</time>
      </trkpt>
      <trkpt lat="45.41493" lon="5.69303">
        <ele>626.1</ele>
        <time>2018-06-24T08:55:03Z</time>
      </trkpt>
      <trkpt lat="45.41502" lon="5.69295">
        <ele>627.5</ele>
        <time>2018-06-24T08:55:11Z</time>
      </trkpt>
      <trkpt lat="45.41511" lon="5.69291">
        <ele>628.8</ele>
        <time>2018-06-24T08:55:19Z</time>
      </trkpt>
      <trkpt lat="45.41519" lon="5.69285">
        <ele>630.5</ele>
        <time>2018-06-24T08:55:25Z</time>
      </trkpt>
      <trkpt lat="45.41528" lon="5.6928">
        <ele>631.8</ele>
        <time>2018-06-24T08:55:32Z</time>
      </trkpt>
      <trkpt lat="45.41536" lon="5.69275">
        <ele>633.2</ele>
        <time>2018-06-24T08:55:40Z</time>
      </trkpt>
      <trkpt lat="45.41545" lon="5.69272">
        <ele>634.6</ele>
        <time>2018-06-24T08:55:48Z</time>
      </trkpt>
      <trkpt lat="45.41555" lon="5.69273">
        <ele>637.1</ele>
        <time>2018-06-24T08:55:59Z</time>
      </trkpt>
      <trkpt lat="45.41564" lon="5.69272">
        <ele>639</ele>
        <time>2018-06-24T08:56:08Z</time>
      </trkpt>
      <trkpt lat="45.41573" lon="5.69277">
        <ele>641.2</ele>
        <time>2018-06-24T08:56:39Z</time>
      </trkpt>
      <trkpt lat="45.41582" lon="5.69273">
        <ele>641.1</ele>
        <time>2018-06-24T08:57:28Z</time>
      </trkpt>
      <trkpt lat="45.41593" lon="5.69269">
        <ele>641.3</ele>
        <time>2018-06-24T08:57:35Z</time>
      </trkpt>
      <trkpt lat="45.41601" lon="5.69264">
        <ele>641.5</ele>
        <time>2018-06-24T08:57:40Z</time>
      </trkpt>
      <trkpt lat="45.41609" lon="5.69256">
        <ele>641.9</ele>
        <time>2018-06-24T08:57:45Z</time>
      </trkpt>
      <trkpt lat="45.41616" lon="5.69247">
        <ele>642.2</ele>
        <time>2018-06-24T08:57:51Z</time>
      </trkpt>
      <trkpt lat="45.41624" lon="5.69237">
        <ele>644.4</ele>
        <time>2018-06-24T08:58:00Z</time>
      </trkpt>
      <trkpt lat="45.41633" lon="5.69239">
        <ele>648.2</ele>
        <time>2018-06-24T08:58:23Z</time>
      </trkpt>
      <trkpt lat="45.41643" lon="5.69241">
        <ele>650.5</ele>
        <time>2018-06-24T08:58:41Z</time>
      </trkpt>
      <trkpt lat="45.41652" lon="5.69243">
        <ele>653.4</ele>
        <time>2018-06-24T08:58:57Z</time>
      </trkpt>
      <trkpt lat="45.41659" lon="5.69251">
        <ele>656.9</ele>
        <time>2018-06-24T08:59:38Z</time>
      </trkpt>
      <trkpt lat="45.41668" lon="5.69258">
        <ele>656.6</ele>
        <time>2018-06-24T08:59:58Z</time>
      </trkpt>
      <trkpt lat="45.41676" lon="5.69261">
        <ele>657.7</ele>
        <time>2018-06-24T09:00:06Z</time>
      </trkpt>
      <trkpt lat="45.41686" lon="5.69263">
        <ele>659.3</ele>
        <time>2018-06-24T09:00:16Z</time>
      </trkpt>
      <trkpt lat="45.41695" lon="5.69266">
        <ele>660.4</ele>
        <time>2018-06-24T09:00:23Z</time>
      </trkpt>
      <trkpt lat="45.41704" lon="5.69269">
        <ele>660.8</ele>
        <time>2018-06-24T09:00:30Z</time>
      </trkpt>
      <trkpt lat="45.41713" lon="5.69275">
        <ele>661.7</ele>
        <time>2018-06-24T09:00:36Z</time>
      </trkpt>
      <trkpt lat="45.41721" lon="5.69283">
        <ele>663</ele>
        <time>2018-06-24T09:00:42Z</time>
      </trkpt>
      <trkpt lat="45.41728" lon="5.69292">
        <ele>663.3</ele>
        <time>2018-06-24T09:00:47Z</time>
      </trkpt>
      <trkpt lat="45.41737" lon="5.69299">
        <ele>663.4</ele>
        <time>2018-06-24T09:00:53Z</time>
      </trkpt>
      <trkpt lat="45.41747" lon="5.69298">
        <ele>664.1</ele>
        <time>2018-06-24T09:01:00Z</time>
      </trkpt>
      <trkpt lat="45.41755" lon="5.6929">
        <ele>665.5</ele>
        <time>2018-06-24T09:01:07Z</time>
      </trkpt>
      <trkpt lat="45.41763" lon="5.69282">
        <ele>667.2</ele>
        <time>2018-06-24T09:01:15Z</time>
      </trkpt>
      <trkpt lat="45.4177" lon="5.69273">
        <ele>669.1</ele>
        <time>2018-06-24T09:01:25Z</time>
      </trkpt>
      <trkpt lat="45.41776" lon="5.69263">
        <ele>670.3</ele>
        <time>2018-06-24T09:01:33Z</time>
      </trkpt>
      <trkpt lat="45.41783" lon="5.69254">
        <ele>672.3</ele>
        <time>2018-06-24T09:01:41Z</time>
      </trkpt>
      <trkpt lat="45.41791" lon="5.69245">
        <ele>673.7</ele>
        <time>2018-06-24T09:01:49Z</time>
      </trkpt>
      <trkpt lat="45.418" lon="5.69243">
        <ele>674.4</ele>
        <time>2018-06-24T09:01:58Z</time>
      </trkpt>
      <trkpt lat="45.4181" lon="5.69241">
        <ele>674.6</ele>
        <time>2018-06-24T09:02:04Z</time>
      </trkpt>
      <trkpt lat="45.41819" lon="5.69242">
        <ele>675.6</ele>
        <time>2018-06-24T09:02:13Z</time>
      </trkpt>
      <trkpt lat="45.41829" lon="5.69243">
        <ele>676.5</ele>
        <time>2018-06-24T09:02:21Z</time>
      </trkpt>
      <trkpt lat="45.41839" lon="5.69247">
        <ele>677.1</ele>
        <time>2018-06-24T09:02:28Z</time>
      </trkpt>
      <trkpt lat="45.41849" lon="5.69251">
        <ele>677.9</ele>
        <time>2018-06-24T09:02:36Z</time>
      </trkpt>
      <trkpt lat="45.4186" lon="5.69251">
        <ele>678.7</ele>
        <time>2018-06-24T09:02:43Z</time>
      </trkpt>
      <trkpt lat="45.41869" lon="5.69251">
        <ele>679.2</ele>
        <time>2018-06-24T09:02:48Z</time>
      </trkpt>
      <trkpt lat="45.41879" lon="5.69251">
        <ele>680.9</ele>
        <time>2018-06-24T09:02:57Z</time>
      </trkpt>
      <trkpt lat="45.41888" lon="5.6925">
        <ele>681.3</ele>
        <time>2018-06-24T09:03:03Z</time>
      </trkpt>
      <trkpt lat="45.41897" lon="5.69248">
        <ele>681.9</ele>
        <time>2018-06-24T09:03:09Z</time>
      </trkpt>
      <trkpt lat="45.41906" lon="5.69244">
        <ele>682.8</ele>
        <time>2018-06-24T09:03:15Z</time>
      </trkpt>
      <trkpt lat="45.41915" lon="5.69239">
        <ele>683.2</ele>
        <time>2018-06-24T09:03:23Z</time>
      </trkpt>
      <trkpt lat="45.41925" lon="5.69234">
        <ele>683.9</ele>
        <time>2018-06-24T09:03:30Z</time>
      </trkpt>
      <trkpt lat="45.41934" lon="5.69233">
        <ele>685.7</ele>
        <time>2018-06-24T09:03:39Z</time>
      </trkpt>
      <trkpt lat="45.41945" lon="5.69231">
        <ele>686.7</ele>
        <time>2018-06-24T09:03:45Z</time>
      </trkpt>
      <trkpt lat="45.41954" lon="5.6923">
        <ele>687.4</ele>
        <time>2018-06-24T09:03:53Z</time>
      </trkpt>
      <trkpt lat="45.41963" lon="5.6923">
        <ele>688.4</ele>
        <time>2018-06-24T09:04:01Z</time>
      </trkpt>
      <trkpt lat="45.41972" lon="5.69233">
        <ele>689.5</ele>
        <time>2018-06-24T09:04:09Z</time>
      </trkpt>
      <trkpt lat="45.41981" lon="5.69238">
        <ele>690.6</ele>
        <time>2018-06-24T09:04:16Z</time>
      </trkpt>
      <trkpt lat="45.41991" lon="5.69238">
        <ele>691.8</ele>
        <time>2018-06-24T09:04:24Z</time>
      </trkpt>
      <trkpt lat="45.42" lon="5.69237">
        <ele>692.1</ele>
        <time>2018-06-24T09:04:30Z</time>
      </trkpt>
      <trkpt lat="45.42009" lon="5.69234">
        <ele>692.2</ele>
        <time>2018-06-24T09:04:37Z</time>
      </trkpt>
      <trkpt lat="45.42018" lon="5.6923">
        <ele>692.2</ele>
        <time>2018-06-24T09:04:43Z</time>
      </trkpt>
      <trkpt lat="45.42028" lon="5.69228">
        <ele>692.2</ele>
        <time>2018-06-24T09:04:49Z</time>
      </trkpt>
      <trkpt lat="45.42038" lon="5.69226">
        <ele>692.7</ele>
        <time>2018-06-24T09:04:55Z</time>
      </trkpt>
      <trkpt lat="45.42047" lon="5.69233">
        <ele>694.4</ele>
        <time>2018-06-24T09:05:03Z</time>
      </trkpt>
      <trkpt lat="45.42056" lon="5.69236">
        <ele>696.3</ele>
        <time>2018-06-24T09:05:16Z</time>
      </trkpt>
      <trkpt lat="45.42065" lon="5.69238">
        <ele>697.9</ele>
        <time>2018-06-24T09:05:27Z</time>
      </trkpt>
      <trkpt lat="45.42073" lon="5.69245">
        <ele>700.3</ele>
        <time>2018-06-24T09:05:45Z</time>
      </trkpt>
      <trkpt lat="45.42083" lon="5.69247">
        <ele>700.9</ele>
        <time>2018-06-24T09:06:30Z</time>
      </trkpt>
      <trkpt lat="45.42091" lon="5.69254">
        <ele>700.5</ele>
        <time>2018-06-24T09:06:36Z</time>
      </trkpt>
      <trkpt lat="45.42098" lon="5.69262">
        <ele>700.8</ele>
        <time>2018-06-24T09:06:40Z</time>
      </trkpt>
      <trkpt lat="45.42107" lon="5.69276">
        <ele>700.9</ele>
        <time>2018-06-24T09:06:44Z</time>
      </trkpt>
      <trkpt lat="45.42116" lon="5.69281">
        <ele>700.7</ele>
        <time>2018-06-24T09:06:46Z</time>
      </trkpt>
      <trkpt lat="45.42126" lon="5.69285">
        <ele>700</ele>
        <time>2018-06-24T09:06:49Z</time>
      </trkpt>
      <trkpt lat="45.42136" lon="5.6929">
        <ele>699.5</ele>
        <time>2018-06-24T09:06:54Z</time>
      </trkpt>
      <trkpt lat="45.42146" lon="5.69295">
        <ele>700.5</ele>
        <time>2018-06-24T09:07:00Z</time>
      </trkpt>
      <trkpt lat="45.42156" lon="5.69298">
        <ele>700.8</ele>
        <time>2018-06-24T09:07:06Z</time>
      </trkpt>
      <trkpt lat="45.42165" lon="5.69298">
        <ele>701.1</ele>
        <time>2018-06-24T09:07:20Z</time>
      </trkpt>
      <trkpt lat="45.42173" lon="5.69292">
        <ele>702.3</ele>
        <time>2018-06-24T09:07:31Z</time>
      </trkpt>
      <trkpt lat="45.4218" lon="5.69283">
        <ele>705.4</ele>
        <time>2018-06-24T09:07:50Z</time>
      </trkpt>
      <trkpt lat="45.42187" lon="5.69275">
        <ele>708.8</ele>
        <time>2018-06-24T09:08:08Z</time>
      </trkpt>
      <trkpt lat="45.42196" lon="5.69279">
        <ele>710.1</ele>
        <time>2018-06-24T09:08:21Z</time>
      </trkpt>
      <trkpt lat="45.42203" lon="5.69271">
        <ele>711.8</ele>
        <time>2018-06-24T09:08:34Z</time>
      </trkpt>
      <trkpt lat="45.42212" lon="5.69268">
        <ele>714.2</ele>
        <time>2018-06-24T09:08:53Z</time>
      </trkpt>
      <trkpt lat="45.4222" lon="5.6926">
        <ele>715.4</ele>
        <time>2018-06-24T09:09:02Z</time>
      </trkpt>
      <trkpt lat="45.42229" lon="5.6926">
        <ele>718.5</ele>
        <time>2018-06-24T09:09:27Z</time>
      </trkpt>
      <trkpt lat="45.42237" lon="5.69256">
        <ele>721</ele>
        <time>2018-06-24T09:09:42Z</time>
      </trkpt>
      <trkpt lat="45.42247" lon="5.69255">
        <ele>721.9</ele>
        <time>2018-06-24T09:09:53Z</time>
      </trkpt>
      <trkpt lat="45.42256" lon="5.69257">
        <ele>723.3</ele>
        <time>2018-06-24T09:10:05Z</time>
      </trkpt>
      <trkpt lat="45.42265" lon="5.69258">
        <ele>724.8</ele>
        <time>2018-06-24T09:10:19Z</time>
      </trkpt>
      <trkpt lat="45.42274" lon="5.69261">
        <ele>725.7</ele>
        <time>2018-06-24T09:10:29Z</time>
      </trkpt>
      <trkpt lat="45.42282" lon="5.69267">
        <ele>727.5</ele>
        <time>2018-06-24T09:10:41Z</time>
      </trkpt>
      <trkpt lat="45.42291" lon="5.69266">
        <ele>728.3</ele>
        <time>2018-06-24T09:11:08Z</time>
      </trkpt>
      <trkpt lat="45.423" lon="5.69269">
        <ele>728.8</ele>
        <time>2018-06-24T09:11:17Z</time>
      </trkpt>
      <trkpt lat="45.42309" lon="5.69275">
        <ele>729.4</ele>
        <time>2018-06-24T09:11:23Z</time>
      </trkpt>
      <trkpt lat="45.42316" lon="5.69282">
        <ele>729.6</ele>
        <time>2018-06-24T09:11:28Z</time>
      </trkpt>
      <trkpt lat="45.42324" lon="5.69291">
        <ele>731.1</ele>
        <time>2018-06-24T09:11:35Z</time>
      </trkpt>
      <trkpt lat="45.42334" lon="5.6929">
        <ele>732.2</ele>
        <time>2018-06-24T09:11:41Z</time>
      </trkpt>
      <trkpt lat="45.42342" lon="5.69296">
        <ele>733.3</ele>
        <time>2018-06-24T09:11:48Z</time>
      </trkpt>
      <trkpt lat="45.42351" lon="5.693">
        <ele>734.6</ele>
        <time>2018-06-24T09:11:57Z</time>
      </trkpt>
      <trkpt lat="45.4236" lon="5.69303">
        <ele>735.9</ele>
        <time>2018-06-24T09:12:09Z</time>
      </trkpt>
      <trkpt lat="45.42369" lon="5.6931">
        <ele>736.4</ele>
        <time>2018-06-24T09:12:16Z</time>
      </trkpt>
      <trkpt lat="45.42377" lon="5.69318">
        <ele>737</ele>
        <time>2018-06-24T09:12:22Z</time>
      </trkpt>
      <trkpt lat="45.42386" lon="5.69322">
        <ele>737.5</ele>
        <time>2018-06-24T09:12:28Z</time>
      </trkpt>
      <trkpt lat="45.42395" lon="5.69328">
        <ele>737.9</ele>
        <time>2018-06-24T09:12:36Z</time>
      </trkpt>
      <trkpt lat="45.42404" lon="5.69332">
        <ele>738.4</ele>
        <time>2018-06-24T09:12:41Z</time>
      </trkpt>
      <trkpt lat="45.42413" lon="5.6934">
        <ele>739.1</ele>
        <time>2018-06-24T09:12:49Z</time>
      </trkpt>
      <trkpt lat="45.42422" lon="5.69343">
        <ele>739.6</ele>
        <time>2018-06-24T09:12:55Z</time>
      </trkpt>
      <trkpt lat="45.42431" lon="5.69347">
        <ele>740.3</ele>
        <time>2018-06-24T09:13:01Z</time>
      </trkpt>
      <trkpt lat="45.4244" lon="5.69347">
        <ele>741</ele>
        <time>2018-06-24T09:13:08Z</time>
      </trkpt>
      <trkpt lat="45.4245" lon="5.6935">
        <ele>742</ele>
        <time>2018-06-24T09:13:14Z</time>
      </trkpt>
      <trkpt lat="45.42459" lon="5.69359">
        <ele>743.4</ele>
        <time>2018-06-24T09:13:23Z</time>
      </trkpt>
      <trkpt lat="45.42467" lon="5.69367">
        <ele>744.5</ele>
        <time>2018-06-24T09:13:30Z</time>
      </trkpt>
      <trkpt lat="45.42474" lon="5.69375">
        <ele>746.5</ele>
        <time>2018-06-24T09:13:38Z</time>
      </trkpt>
      <trkpt lat="45.4248" lon="5.69386">
        <ele>748.3</ele>
        <time>2018-06-24T09:13:46Z</time>
      </trkpt>
      <trkpt lat="45.42488" lon="5.69394">
        <ele>749.3</ele>
        <time>2018-06-24T09:13:54Z</time>
      </trkpt>
      <trkpt lat="45.42497" lon="5.69399">
        <ele>749.7</ele>
        <time>2018-06-24T09:14:01Z</time>
      </trkpt>
      <trkpt lat="45.42506" lon="5.69401">
        <ele>750</ele>
        <time>2018-06-24T09:14:07Z</time>
      </trkpt>
      <trkpt lat="45.42516" lon="5.69408">
        <ele>750.1</ele>
        <time>2018-06-24T09:14:14Z</time>
      </trkpt>
      <trkpt lat="45.42521" lon="5.69423">
        <ele>749.6</ele>
        <time>2018-06-24T09:14:17Z</time>
      </trkpt>
      <trkpt lat="45.42524" lon="5.69436">
        <ele>748.8</ele>
        <time>2018-06-24T09:14:20Z</time>
      </trkpt>
      <trkpt lat="45.42526" lon="5.69449">
        <ele>748</ele>
        <time>2018-06-24T09:14:23Z</time>
      </trkpt>
      <trkpt lat="45.4253" lon="5.69464">
        <ele>747.1</ele>
        <time>2018-06-24T09:14:27Z</time>
      </trkpt>
      <trkpt lat="45.42537" lon="5.69477">
        <ele>746.4</ele>
        <time>2018-06-24T09:14:30Z</time>
      </trkpt>
      <trkpt lat="45.42549" lon="5.69484">
        <ele>745.5</ele>
        <time>2018-06-24T09:14:33Z</time>
      </trkpt>
      <trkpt lat="45.42558" lon="5.69496">
        <ele>744.7</ele>
        <time>2018-06-24T09:14:36Z</time>
      </trkpt>
      <trkpt lat="45.42565" lon="5.6951">
        <ele>744.2</ele>
        <time>2018-06-24T09:14:39Z</time>
      </trkpt>
      <trkpt lat="45.42572" lon="5.69521">
        <ele>743.6</ele>
        <time>2018-06-24T09:14:42Z</time>
      </trkpt>
      <trkpt lat="45.42579" lon="5.6953">
        <ele>743.1</ele>
        <time>2018-06-24T09:14:48Z</time>
      </trkpt>
      <trkpt lat="45.42588" lon="5.6954">
        <ele>743</ele>
        <time>2018-06-24T09:14:55Z</time>
      </trkpt>
      <trkpt lat="45.42595" lon="5.6955">
        <ele>742.8</ele>
        <time>2018-06-24T09:14:59Z</time>
      </trkpt>
      <trkpt lat="45.42602" lon="5.69557">
        <ele>742.8</ele>
        <time>2018-06-24T09:15:06Z</time>
      </trkpt>
      <trkpt lat="45.42611" lon="5.69565">
        <ele>742.9</ele>
        <time>2018-06-24T09:15:26Z</time>
      </trkpt>
      <trkpt lat="45.4262" lon="5.69571">
        <ele>743.4</ele>
        <time>2018-06-24T09:15:32Z</time>
      </trkpt>
      <trkpt lat="45.42629" lon="5.69576">
        <ele>743.7</ele>
        <time>2018-06-24T09:15:37Z</time>
      </trkpt>
      <trkpt lat="45.4264" lon="5.6958">
        <ele>744.4</ele>
        <time>2018-06-24T09:15:44Z</time>
      </trkpt>
      <trkpt lat="45.42649" lon="5.69582">
        <ele>746.5</ele>
        <time>2018-06-24T09:16:01Z</time>
      </trkpt>
      <trkpt lat="45.42658" lon="5.69581">
        <ele>748.7</ele>
        <time>2018-06-24T09:16:22Z</time>
      </trkpt>
      <trkpt lat="45.42667" lon="5.69581">
        <ele>750.6</ele>
        <time>2018-06-24T09:16:31Z</time>
      </trkpt>
      <trkpt lat="45.42676" lon="5.69579">
        <ele>751.9</ele>
        <time>2018-06-24T09:16:39Z</time>
      </trkpt>
      <trkpt lat="45.42684" lon="5.69587">
        <ele>753.7</ele>
        <time>2018-06-24T09:16:55Z</time>
      </trkpt>
      <trkpt lat="45.42692" lon="5.69594">
        <ele>755.1</ele>
        <time>2018-06-24T09:17:03Z</time>
      </trkpt>
      <trkpt lat="45.42701" lon="5.69602">
        <ele>755</ele>
        <time>2018-06-24T09:17:09Z</time>
      </trkpt>
      <trkpt lat="45.42708" lon="5.6961">
        <ele>755.3</ele>
        <time>2018-06-24T09:17:14Z</time>
      </trkpt>
      <trkpt lat="45.42716" lon="5.69617">
        <ele>755.3</ele>
        <time>2018-06-24T09:17:18Z</time>
      </trkpt>
      <trkpt lat="45.42723" lon="5.69625">
        <ele>755.3</ele>
        <time>2018-06-24T09:17:22Z</time>
      </trkpt>
      <trkpt lat="45.42731" lon="5.69639">
        <ele>755.3</ele>
        <time>2018-06-24T09:17:26Z</time>
      </trkpt>
      <trkpt lat="45.42738" lon="5.69649">
        <ele>755.2</ele>
        <time>2018-06-24T09:17:31Z</time>
      </trkpt>
      <trkpt lat="45.42742" lon="5.69663">
        <ele>755</ele>
        <time>2018-06-24T09:17:36Z</time>
      </trkpt>
      <trkpt lat="45.42749" lon="5.69676">
        <ele>754.7</ele>
        <time>2018-06-24T09:17:40Z</time>
      </trkpt>
      <trkpt lat="45.42755" lon="5.69693">
        <ele>753.7</ele>
        <time>2018-06-24T09:17:44Z</time>
      </trkpt>
      <trkpt lat="45.42759" lon="5.69708">
        <ele>752.8</ele>
        <time>2018-06-24T09:17:47Z</time>
      </trkpt>
      <trkpt lat="45.42762" lon="5.69721">
        <ele>752.3</ele>
        <time>2018-06-24T09:17:49Z</time>
      </trkpt>
      <trkpt lat="45.42767" lon="5.69735">
        <ele>751.7</ele>
        <time>2018-06-24T09:17:51Z</time>
      </trkpt>
      <trkpt lat="45.42771" lon="5.6975">
        <ele>751.1</ele>
        <time>2018-06-24T09:17:53Z</time>
      </trkpt>
      <trkpt lat="45.42775" lon="5.69763">
        <ele>750.2</ele>
        <time>2018-06-24T09:17:56Z</time>
      </trkpt>
      <trkpt lat="45.42782" lon="5.69772">
        <ele>748.9</ele>
        <time>2018-06-24T09:18:00Z</time>
      </trkpt>
      <trkpt lat="45.42791" lon="5.69777">
        <ele>748.6</ele>
        <time>2018-06-24T09:18:05Z</time>
      </trkpt>
      <trkpt lat="45.428" lon="5.69777">
        <ele>748.3</ele>
        <time>2018-06-24T09:18:09Z</time>
      </trkpt>
      <trkpt lat="45.42809" lon="5.69779">
        <ele>748.7</ele>
        <time>2018-06-24T09:18:13Z</time>
      </trkpt>
      <trkpt lat="45.42819" lon="5.69782">
        <ele>748.8</ele>
        <time>2018-06-24T09:18:18Z</time>
      </trkpt>
      <trkpt lat="45.42829" lon="5.69783">
        <ele>749.2</ele>
        <time>2018-06-24T09:18:22Z</time>
      </trkpt>
      <trkpt lat="45.42838" lon="5.69786">
        <ele>749.7</ele>
        <time>2018-06-24T09:18:26Z</time>
      </trkpt>
      <trkpt lat="45.42848" lon="5.69792">
        <ele>750.2</ele>
        <time>2018-06-24T09:18:31Z</time>
      </trkpt>
      <trkpt lat="45.42859" lon="5.69795">
        <ele>750.4</ele>
        <time>2018-06-24T09:18:35Z</time>
      </trkpt>
      <trkpt lat="45.42868" lon="5.69797">
        <ele>750.6</ele>
        <time>2018-06-24T09:18:38Z</time>
      </trkpt>
      <trkpt lat="45.42877" lon="5.69801">
        <ele>750.8</ele>
        <time>2018-06-24T09:18:42Z</time>
      </trkpt>
      <trkpt lat="45.42889" lon="5.69805">
        <ele>751.1</ele>
        <time>2018-06-24T09:18:46Z</time>
      </trkpt>
      <trkpt lat="45.429" lon="5.69808">
        <ele>751.7</ele>
        <time>2018-06-24T09:18:50Z</time>
      </trkpt>
      <trkpt lat="45.42913" lon="5.6981">
        <ele>752.2</ele>
        <time>2018-06-24T09:18:55Z</time>
      </trkpt>
      <trkpt lat="45.42922" lon="5.6981">
        <ele>752.5</ele>
        <time>2018-06-24T09:18:58Z</time>
      </trkpt>
      <trkpt lat="45.42931" lon="5.69815">
        <ele>752.9</ele>
        <time>2018-06-24T09:19:04Z</time>
      </trkpt>
      <trkpt lat="45.4294" lon="5.69819">
        <ele>753.3</ele>
        <time>2018-06-24T09:19:09Z</time>
      </trkpt>
      <trkpt lat="45.4295" lon="5.69824">
        <ele>754</ele>
        <time>2018-06-24T09:19:14Z</time>
      </trkpt>
      <trkpt lat="45.4296" lon="5.6983">
        <ele>754.3</ele>
        <time>2018-06-24T09:19:18Z</time>
      </trkpt>
      <trkpt lat="45.42969" lon="5.69836">
        <ele>754.4</ele>
        <time>2018-06-24T09:19:22Z</time>
      </trkpt>
      <trkpt lat="45.42981" lon="5.69841">
        <ele>754.5</ele>
        <time>2018-06-24T09:19:27Z</time>
      </trkpt>
      <trkpt lat="45.4299" lon="5.69844">
        <ele>754.7</ele>
        <time>2018-06-24T09:19:31Z</time>
      </trkpt>
      <trkpt lat="45.43" lon="5.69847">
        <ele>755.1</ele>
        <time>2018-06-24T09:19:35Z</time>
      </trkpt>
      <trkpt lat="45.4301" lon="5.69849">
        <ele>755.3</ele>
        <time>2018-06-24T09:19:39Z</time>
      </trkpt>
      <trkpt lat="45.43019" lon="5.69854">
        <ele>755.4</ele>
        <time>2018-06-24T09:19:43Z</time>
      </trkpt>
      <trkpt lat="45.43029" lon="5.69858">
        <ele>755.4</ele>
        <time>2018-06-24T09:19:47Z</time>
      </trkpt>
      <trkpt lat="45.43033" lon="5.69872">
        <ele>755.3</ele>
        <time>2018-06-24T09:19:54Z</time>
      </trkpt>
      <trkpt lat="45.4303" lon="5.69887">
        <ele>754.8</ele>
        <time>2018-06-24T09:19:59Z</time>
      </trkpt>
      <trkpt lat="45.43023" lon="5.69901">
        <ele>753.6</ele>
        <time>2018-06-24T09:20:03Z</time>
      </trkpt>
      <trkpt lat="45.43016" lon="5.69912">
        <ele>751.9</ele>
        <time>2018-06-24T09:20:06Z</time>
      </trkpt>
      <trkpt lat="45.43014" lon="5.69928">
        <ele>750.9</ele>
        <time>2018-06-24T09:20:09Z</time>
      </trkpt>
      <trkpt lat="45.43015" lon="5.69945">
        <ele>749.5</ele>
        <time>2018-06-24T09:20:12Z</time>
      </trkpt>
      <trkpt lat="45.43013" lon="5.69961">
        <ele>748.6</ele>
        <time>2018-06-24T09:20:14Z</time>
      </trkpt>
      <trkpt lat="45.4301" lon="5.69973">
        <ele>746.8</ele>
        <time>2018-06-24T09:20:16Z</time>
      </trkpt>
      <trkpt lat="45.43006" lon="5.69986">
        <ele>745.2</ele>
        <time>2018-06-24T09:20:18Z</time>
      </trkpt>
      <trkpt lat="45.43007" lon="5.7">
        <ele>743.1</ele>
        <time>2018-06-24T09:20:20Z</time>
      </trkpt>
      <trkpt lat="45.43009" lon="5.70014">
        <ele>741.7</ele>
        <time>2018-06-24T09:20:22Z</time>
      </trkpt>
      <trkpt lat="45.43011" lon="5.70033">
        <ele>740.2</ele>
        <time>2018-06-24T09:20:25Z</time>
      </trkpt>
      <trkpt lat="45.43007" lon="5.70047">
        <ele>738.9</ele>
        <time>2018-06-24T09:20:28Z</time>
      </trkpt>
      <trkpt lat="45.43004" lon="5.7006">
        <ele>737.6</ele>
        <time>2018-06-24T09:20:30Z</time>
      </trkpt>
      <trkpt lat="45.43001" lon="5.70076">
        <ele>736.4</ele>
        <time>2018-06-24T09:20:32Z</time>
      </trkpt>
      <trkpt lat="45.42998" lon="5.70089">
        <ele>735.1</ele>
        <time>2018-06-24T09:20:34Z</time>
      </trkpt>
      <trkpt lat="45.42994" lon="5.70101">
        <ele>733.1</ele>
        <time>2018-06-24T09:20:36Z</time>
      </trkpt>
      <trkpt lat="45.42992" lon="5.70115">
        <ele>731.1</ele>
        <time>2018-06-24T09:20:38Z</time>
      </trkpt>
      <trkpt lat="45.42991" lon="5.70128">
        <ele>726.4</ele>
        <time>2018-06-24T09:20:43Z</time>
      </trkpt>
      <trkpt lat="45.4298" lon="5.70136">
        <ele>723.5</ele>
        <time>2018-06-24T09:20:50Z</time>
      </trkpt>
      <trkpt lat="45.42971" lon="5.7014">
        <ele>723</ele>
        <time>2018-06-24T09:20:52Z</time>
      </trkpt>
      <trkpt lat="45.42958" lon="5.7014">
        <ele>722.1</ele>
        <time>2018-06-24T09:20:54Z</time>
      </trkpt>
      <trkpt lat="45.42946" lon="5.70134">
        <ele>721</ele>
        <time>2018-06-24T09:20:56Z</time>
      </trkpt>
      <trkpt lat="45.42939" lon="5.70126">
        <ele>718.5</ele>
        <time>2018-06-24T09:21:04Z</time>
      </trkpt>
      <trkpt lat="45.42939" lon="5.70122">
        <ele>718.2</ele>
        <time>2018-06-24T09:21:15Z</time>
      </trkpt>
    </trkseg>
  </trk>
</gpx>